MOUNT RAINIER
GEOLOGY & WEATHER
Hello guest! [ Log In ]
morageology.com Water Data for White River at White River Bridge

White River at White River Bridge

Date Range to view:
 
[ Graphical View | Weather History | Precipitation Intensity ]

View this data in a CSV Format

GMT Date/Time Local Date/Time Stage (ft) Rainfall (in) Turbidity (ntu) Air Temperature (°C) Water Temperature (°C) Enclosure Temperature (°C) Turbidity Temperature (°C) Water Conductivity (μS/cm) Snow Depth (m) Air Level (psi) Water Level (psi) Battery (V) Solar Panel (V)
08/10/2020 06:45:00 2020-08-09 23:45:00 2.0220 82.06 386.30 9.9430 4.3480 9.8 -999.0000 3 -999.0 -99.0 10.5630 -999.0000 -0.023 12.8750 13.7500 13.2 0.1 12.8800 0.0000 7.0000 8.0000
08/10/2020 06:30:00 2020-08-09 23:30:00 2.0243 82.06 408.20 10.0240 4.3610 9.9 -999.0000 3 -999.0 -99.0 10.5650 -999.0000 -0.018 12.8750 13.7510 13.2 0.1 12.8800 0.0000 1.0000 9.0000
08/10/2020 06:15:00 2020-08-09 23:15:00 2.0427 82.06 424.10 10.1850 4.3730 10.3 -999.0000 3 -999.0 -99.0 10.5620 -999.0000 -0.008 12.8770 13.7610 13.2 0.1 12.8900 0.0000 7.0000 7.0000
08/10/2020 06:00:00 2020-08-09 23:00:00 2.0474 82.06 425.00 10.4020 4.3850 10.5 -999.0000 3 -999.0 -99.0 10.5750 -999.0000 -0.006 12.8770 13.7630 13.2 0.1 12.8800 0.0000 4.0000 12.0000
08/10/2020 05:45:00 2020-08-09 22:45:00 2.0659 82.06 441.10 10.6570 4.3970 10.8 -999.0000 3 -999.0 -99.0 10.5710 -999.0000 -0.017 12.8770 13.7710 13.2 0.1 12.9000 0.0000 2.0000 7.0000
08/10/2020 05:30:00 2020-08-09 22:30:00 2.0797 82.06 473.90 10.8430 4.4070 11.3 -999.0000 3.1 -999.0 -99.0 10.5740 -999.0000 -0.014 12.8800 13.7800 13.2 0.1 12.9100 0.0000 6.0000 10.0000
08/10/2020 05:15:00 2020-08-09 22:15:00 2.0566 82.06 453.80 11.0590 4.4170 11.5 -999.0000 3.1 -999.0 -99.0 10.5680 -999.0000 -0.014 12.8810 13.7710 13.2 0.1 12.9100 0.0000 2.0000 2.0000
08/10/2020 05:00:00 2020-08-09 22:00:00 2.0543 82.06 440.90 11.2770 4.4260 11.8 -999.0000 3.2 -999.0 -99.0 10.5690 -999.0000 -0.009 12.8840 13.7730 13.2 0.1 12.9000 0.0000 3.0000 8.0000
08/10/2020 04:45:00 2020-08-09 21:45:00 2.0520 82.06 437.80 11.5660 4.4350 12.2 -999.0000 3.2 -999.0 -99.0 10.5680 -999.0000 -0.003 12.8850 13.7730 13.2 0.1 12.9000 0.0000 0.0000 9.0000
08/10/2020 04:30:00 2020-08-09 21:30:00 2.0497 82.06 425.20 11.9180 4.4410 12.7 -999.0000 3.3 -999.0 -99.0 10.5730 -999.0000 0.003 12.8860 13.7730 13.2 0.1 12.9100 0.0000 5.0000 7.0000
08/10/2020 04:15:00 2020-08-09 21:15:00 2.0659 82.06 407.60 12.1910 4.4480 13.1 -999.0000 3.3 -999.0 -99.0 10.5660 -999.0000 0.015 12.8860 13.7800 13.2 0.1 12.9300 0.0000 6.0000 9.0000
08/10/2020 04:00:00 2020-08-09 21:00:00 2.0451 82.06 429.40 12.4510 4.4520 13.6 -999.0000 3.4 -999.0 -99.0 10.5630 -999.0000 0.016 12.8840 13.7690 13.3 0.5 12.9300 0.0000 2.0000 10.0000
08/10/2020 03:45:00 2020-08-09 20:45:00 2.0612 82.06 484.70 12.9150 4.4560 14.1 -999.0000 3.4 -999.0 -99.0 10.5660 -999.0000 0.014 12.8820 13.7740 13.3 6.4 12.9300 0.0000 6.0000 0.0000
08/10/2020 03:30:00 2020-08-09 20:30:00 2.0820 82.06 491.80 13.4040 4.4570 14.8 -999.0000 3.5 -999.0 -99.0 10.5480 -999.0000 0.008 12.8810 13.7820 13.3 12.2 12.9400 3.5800 5.0000 5.0000
08/10/2020 03:15:00 2020-08-09 20:15:00 2.1005 82.06 464.20 13.8200 4.4550 15.3 -999.0000 3.6 -999.0 -99.0 10.5460 -999.0000 0.017 12.8800 13.7890 13.3 13.2 12.9600 7.6800 2.0000 7.0000
08/10/2020 03:00:00 2020-08-09 20:00:00 2.1537 82.06 475.90 14.1840 4.4520 15.7 -999.0000 3.7 -999.0 -99.0 10.5490 -999.0000 0.020 12.8800 13.8120 13.3 13.3 12.9800 9.1900 7.0000 4.0000
08/10/2020 02:45:00 2020-08-09 19:45:00 2.1560 82.06 486.20 14.6350 4.4460 16.4 -999.0000 3.9 -999.0 -99.0 10.5420 -999.0000 0.028 12.8800 13.8130 13.4 13.4 12.9900 9.9700 4.0000 10.0000
08/10/2020 02:30:00 2020-08-09 19:30:00 2.1514 82.06 517.90 15.0750 4.4370 17.1 -999.0000 4.1 -999.0 -99.0 10.5460 -999.0000 0.019 12.8770 13.8080 13.4 13.4 13.0100 10.8000 5.0000 3.0000
08/10/2020 02:15:00 2020-08-09 19:15:00 2.1352 82.06 543.60 15.3240 4.4270 17.6 -999.0000 4.3 -999.0 -99.0 10.5380 -999.0000 -0.001 12.8750 13.7990 13.4 13.4 13.0500 12.0700 5.0000 10.0000
08/10/2020 02:00:00 2020-08-09 19:00:00 2.1514 82.06 643.10 15.6410 4.4140 18.3 -999.0000 4.4 -999.0 -99.0 10.5360 -999.0000 0.002 12.8750 13.8060 13.5 13.5 13.1000 12.9000 5.0000 5.0000
08/10/2020 01:45:00 2020-08-09 18:45:00 2.2184 82.06 696.50 16.0520 4.4010 19.0 -999.0000 4.6 -999.0 -99.0 10.5220 -999.0000 0.016 12.8730 13.8330 13.5 13.5 13.1600 13.2100 5.0000 6.0000
08/10/2020 01:30:00 2020-08-09 18:30:00 2.2161 82.06 804.70 16.5120 4.3850 19.7 -999.0000 4.8 -999.0 -99.0 10.5180 -999.0000 -0.009 12.8720 13.8310 13.5 13.5 13.2400 13.2900 4.0000 9.0000
08/10/2020 01:15:00 2020-08-09 18:15:00 2.2068 82.06 1010.60 16.8910 4.3660 20.5 -999.0000 5 -999.0 -99.0 10.5250 -999.0000 -0.011 12.8730 13.8280 13.5 13.5 13.3100 13.3700 3.0000 7.0000
08/10/2020 01:00:00 2020-08-09 18:00:00 2.2114 82.06 860.80 17.3490 4.3480 21.2 -999.0000 5.2 -999.0 -99.0 10.5190 -999.0000 0.011 12.8710 13.8280 13.5 13.5 13.3800 13.4600 4.0000 10.0000
08/10/2020 00:45:00 2020-08-09 17:45:00 2.1768 82.06 618.60 17.8330 4.3290 22.3 -999.0000 5.4 -999.0 -99.0 10.5220 -999.0000 0.010 12.8700 13.8120 13.5 13.6 13.4600 13.5400 4.0000 4.0000
08/10/2020 00:30:00 2020-08-09 17:30:00 2.1675 82.06 491.40 18.1820 4.3100 23.3 -999.0000 5.6 -999.0 -99.0 10.5190 -999.0000 0.008 12.8700 13.8080 13.5 13.6 13.5300 13.6100 3.0000 9.0000
08/10/2020 00:15:00 2020-08-09 17:15:00 2.1121 82.06 444.60 18.6560 4.2910 24.5 -999.0000 5.8 -999.0 -99.0 10.5140 -999.0000 0.000 12.8690 13.7830 13.5 13.6 13.5800 13.6800 2.0000 7.0000
08/10/2020 00:00:00 2020-08-09 17:00:00 2.0474 82.06 491.40 19.1420 4.2720 25.9 -999.0000 5.7 -999.0 -99.0 10.5060 -999.0000 -0.010 12.8670 13.7530 13.6 13.6 13.5700 13.6600 4.0000 -1.0000
08/09/2020 23:45:00 2020-08-09 16:45:00 2.1051 82.06 534.10 19.4280 4.2510 27.7 -999.0000 5.8 -999.0 -99.0 10.4980 -999.0000 0.028 12.8660 13.7770 13.5 13.6 13.5500 13.6600 5.0000 6.0000
08/09/2020 23:30:00 2020-08-09 16:30:00 2.1144 82.06 616.20 19.7370 4.2310 29.6 -999.0000 5.8 -999.0 -99.0 10.4860 -999.0000 0.012 12.8650 13.7800 13.5 13.5 13.5800 13.6800 3.0000 6.0000
08/09/2020 23:15:00 2020-08-09 16:15:00 2.1375 82.06 721.00 19.9140 4.2090 31.5 -999.0000 5.8 -999.0 -99.0 10.4840 -999.0000 0.010 12.8640 13.7890 13.4 13.4 13.6000 13.7000 7.0000 12.0000
08/09/2020 23:00:00 2020-08-09 16:00:00 2.1259 82.06 719.40 20.5570 4.1870 33.6 -999.0000 5.9 -999.0 -99.0 10.4750 -999.0000 0.001 12.8640 13.7840 13.3 19.7 13.6000 13.7200 5.0000 7.0000
08/09/2020 22:45:00 2020-08-09 15:45:00 2.1606 82.06 633.20 21.1730 4.1640 34.9 -999.0000 6.1 -999.0 -99.0 10.4730 -999.0000 -0.004 12.8630 13.7980 13.4 20.0 13.5800 13.7200 7.0000 5.0000
08/09/2020 22:30:00 2020-08-09 15:30:00 2.1167 82.06 487.60 21.5320 4.1440 35.5 -999.0000 6.1 -999.0 -99.0 10.4670 -999.0000 0.018 12.8620 13.7780 13.3 20.1 13.6300 13.7500 7.0000 7.0000
08/09/2020 22:15:00 2020-08-09 15:15:00 2.0497 82.06 421.70 21.7980 4.1230 34.8 -999.0000 6.2 -999.0 -99.0 10.4660 -999.0000 -0.006 12.8630 13.7500 13.4 20.0 13.7200 13.9200 7.0000 6.0000
08/09/2020 22:00:00 2020-08-09 15:00:00 2.0890 82.06 425.10 22.0160 4.1020 34.1 -999.0000 6.2 -999.0 -99.0 10.4680 -999.0000 0.007 12.8620 13.7660 13.3 19.9 13.7400 19.4000 6.0000 5.0000
08/09/2020 21:45:00 2020-08-09 14:45:00 2.0497 82.06 387.60 22.2330 4.0830 33.2 -999.0000 6.1 -999.0 -99.0 10.4510 -999.0000 0.000 12.8620 13.7490 13.3 19.8 13.7400 19.8100 7.0000 8.0000
08/09/2020 21:30:00 2020-08-09 14:30:00 2.0543 82.06 390.50 22.1920 4.0640 32.3 -999.0000 6.1 -999.0 -99.0 10.4500 -999.0000 0.015 12.8640 13.7530 13.3 19.8 13.7300 17.1900 3.0000 6.0000
08/09/2020 21:15:00 2020-08-09 14:15:00 2.0312 82.06 422.80 22.2160 4.0450 31.8 -999.0000 6 -999.0 -99.0 10.4490 -999.0000 0.028 12.8620 13.7410 13.4 19.8 13.7300 17.4300 4.0000 5.0000
08/09/2020 21:00:00 2020-08-09 14:00:00 2.0196 82.06 425.70 22.3940 4.0280 31.1 -999.0000 5.9 -999.0 -99.0 10.4360 -999.0000 0.015 12.8630 13.7370 13.5 19.7 13.7400 17.4300 4.0000 8.0000
08/09/2020 20:45:00 2020-08-09 13:45:00 2.0566 82.06 431.10 22.0520 4.0100 30.8 -999.0000 5.9 -999.0 -99.0 10.4360 -999.0000 0.018 12.8640 13.7540 13.4 19.6 13.7300 18.1700 7.0000 4.0000
08/09/2020 20:30:00 2020-08-09 13:30:00 2.0474 82.06 447.50 21.8890 3.9940 30.6 -999.0000 5.8 -999.0 -99.0 10.4430 -999.0000 0.001 12.8640 13.7500 13.8 14.5 13.7400 19.2300 4.0000 10.0000
08/09/2020 20:15:00 2020-08-09 13:15:00 2.0196 82.06 417.20 21.4480 3.9780 30.8 -999.0000 5.8 -999.0 -99.0 10.4330 -999.0000 0.019 12.8660 13.7400 13.5 19.6 13.7400 18.9200 3.0000 7.0000
08/09/2020 20:00:00 2020-08-09 13:00:00 2.0381 82.06 364.10 21.2170 3.9630 31.0 -999.0000 5.8 -999.0 -99.0 10.4340 -999.0000 0.009 12.8670 13.7490 13.5 19.6 13.7500 18.8800 8.0000 4.0000
08/09/2020 19:45:00 2020-08-09 12:45:00 2.0335 82.06 316.10 20.9660 3.9490 31.0 -999.0000 5.7 -999.0 -99.0 10.4380 -999.0000 0.009 12.8690 13.7490 13.5 19.7 13.7700 18.9700 2.0000 5.0000
08/09/2020 19:30:00 2020-08-09 12:30:00 1.9804 82.06 282.90 20.2880 3.9370 31.1 -999.0000 5.7 -999.0 -99.0 10.4290 -999.0000 0.026 12.8700 13.7270 13.5 19.8 13.7700 18.9000 1.0000 6.0000
08/09/2020 19:15:00 2020-08-09 12:15:00 1.9665 82.06 282.20 20.0460 3.9260 31.3 -999.0000 5.5 -999.0 -99.0 10.4290 -999.0000 0.022 12.8700 13.7210 13.5 19.8 13.7800 18.9300 4.0000 9.0000
08/09/2020 19:00:00 2020-08-09 12:00:00 1.9757 82.06 295.80 19.6230 3.9170 31.5 -999.0000 5.4 -999.0 -99.0 10.4350 -999.0000 0.014 12.8700 13.7250 13.6 19.8 13.7900 19.1600 2.0000 10.0000
08/09/2020 18:45:00 2020-08-09 11:45:00 1.9572 82.06 322.00 19.4240 3.9090 30.8 -999.0000 5.2 -999.0 -99.0 10.4250 -999.0000 0.021 12.8720 13.7190 13.5 19.8 13.8000 19.6500 4.0000 5.0000
08/09/2020 18:30:00 2020-08-09 11:30:00 1.9365 82.06 326.80 19.4010 3.9030 29.0 -999.0000 5 -999.0 -99.0 10.4360 -999.0000 0.027 12.8730 13.7110 13.6 19.8 13.8000 19.0600 4.0000 8.0000
08/09/2020 18:15:00 2020-08-09 11:15:00 1.9642 82.06 308.30 18.8140 3.8980 26.4 -999.0000 4.9 -999.0 -99.0 10.4330 -999.0000 -0.015 12.8720 13.7220 13.6 19.9 13.6700 13.8300 5.0000 10.0000
08/09/2020 18:00:00 2020-08-09 11:00:00 1.9688 82.06 287.50 17.7010 3.8930 23.0 -999.0000 4.8 -999.0 -99.0 10.4310 -999.0000 0.011 12.8770 13.7290 13.7 20.0 13.2300 13.3500 3.0000 6.0000
08/09/2020 17:45:00 2020-08-09 10:45:00 1.9388 82.06 251.00 17.3000 3.8910 18.8 -999.0000 4.6 -999.0 -99.0 10.4430 -999.0000 0.010 12.8760 13.7150 13.7 20.1 13.1600 13.2800 4.0000 6.0000
08/09/2020 17:30:00 2020-08-09 10:30:00 1.9157 82.06 233.00 16.6980 3.8900 14.1 -999.0000 4.5 -999.0 -99.0 10.4330 -999.0000 -0.003 12.8740 13.7030 13.6 20.1 13.1100 13.2200 5.0000 11.0000
08/09/2020 17:15:00 2020-08-09 10:15:00 1.8995 82.06 224.00 15.4570 3.8900 10.8 -999.0000 4.4 -999.0 -99.0 10.4300 -999.0000 -0.008 12.8740 13.6960 13.7 20.3 13.0600 13.1800 6.0000 10.0000
08/09/2020 17:00:00 2020-08-09 10:00:00 1.8741 82.06 205.70 13.3230 3.8910 8.7 -999.0000 4.2 -999.0 -99.0 10.4380 -999.0000 0.004 12.8760 13.6870 14.5 20.9 13.0200 13.1200 6.0000 7.0000
08/09/2020 16:45:00 2020-08-09 09:45:00 1.8625 82.06 215.70 11.4380 3.8950 7.3 -999.0000 4 -999.0 -99.0 10.4530 -999.0000 0.038 12.8770 13.6830 13.5 13.6 12.9900 13.0900 5.0000 11.0000
08/09/2020 16:30:00 2020-08-09 09:30:00 1.8810 82.06 218.40 9.9620 3.9000 6.5 -999.0000 3.8 -999.0 -99.0 10.4510 -999.0000 0.053 12.8770 13.6910 13.4 13.5 12.9400 13.0500 5.0000 4.0000
08/09/2020 16:15:00 2020-08-09 09:15:00 1.8671 82.06 216.10 8.9110 3.9070 5.6 -999.0000 3.6 -999.0 -99.0 10.4660 -999.0000 0.013 12.8760 13.6840 13.3 13.3 12.9300 13.0200 3.0000 8.0000
08/09/2020 16:00:00 2020-08-09 09:00:00 1.8510 82.06 210.00 8.2460 3.9150 5.1 -999.0000 3.4 -999.0 -99.0 10.4590 -999.0000 0.021 12.8760 13.6770 13.3 13.3 12.9100 13.0000 5.0000 5.0000
08/09/2020 15:45:00 2020-08-09 08:45:00 1.8625 82.06 201.10 7.6250 3.9230 4.7 -999.0000 3.2 -999.0 -99.0 10.4640 -999.0000 0.006 12.8750 13.6810 13.2 13.3 12.8900 12.9600 6.0000 8.0000
08/09/2020 15:30:00 2020-08-09 08:30:00 1.8717 82.06 205.50 6.9250 3.9320 4.4 -999.0000 3.1 -999.0 -99.0 10.4740 -999.0000 0.036 12.8730 13.6830 13.2 13.2 12.8500 12.9400 6.0000 9.0000
08/09/2020 15:15:00 2020-08-09 08:15:00 1.8833 82.06 204.40 6.1090 3.9420 4.0 -999.0000 2.9 -999.0 -99.0 10.4770 -999.0000 -0.006 12.8710 13.6860 13.2 13.2 12.8400 12.9000 5.0000 9.0000
08/09/2020 15:00:00 2020-08-09 08:00:00 1.8671 82.06 207.00 5.4480 3.9520 3.9 -999.0000 2.7 -999.0 -99.0 10.4820 -999.0000 -0.001 12.8700 13.6780 13.2 13.2 12.8300 12.8700 5.0000 5.0000
08/09/2020 14:45:00 2020-08-09 07:45:00 1.8856 82.06 222.20 5.0430 3.9630 3.9 -999.0000 2.6 -999.0 -99.0 10.4990 -999.0000 0.004 12.8680 13.6840 13.1 13.2 12.8300 12.4400 4.0000 4.0000
08/09/2020 14:30:00 2020-08-09 07:30:00 1.8925 82.06 238.30 4.9600 3.9730 4.0 -999.0000 2.5 -999.0 -99.0 10.4890 -999.0000 0.021 12.8670 13.6860 13.1 13.2 12.8200 11.7700 6.0000 4.0000
08/09/2020 14:15:00 2020-08-09 07:15:00 1.8856 82.06 233.70 5.0130 3.9840 4.0 -999.0000 2.4 -999.0 -99.0 10.5010 -999.0000 -0.008 12.8660 13.6820 13.1 13.1 12.8200 11.5900 6.0000 6.0000
08/09/2020 14:00:00 2020-08-09 07:00:00 1.9157 82.06 233.00 5.0020 3.9940 3.9 -999.0000 2.4 -999.0 -99.0 10.5130 -999.0000 0.001 12.8650 13.6940 13.1 13.1 12.8200 10.9400 4.0000 4.0000
08/09/2020 13:45:00 2020-08-09 06:45:00 1.9203 82.06 223.80 5.0010 4.0050 4.0 -999.0000 2.5 -999.0 -99.0 10.5060 -999.0000 0.011 12.8640 13.6950 13.1 13.1 12.8200 9.6800 7.0000 3.0000
08/09/2020 13:30:00 2020-08-09 06:30:00 1.9411 82.06 213.60 5.0500 4.0160 4.2 -999.0000 2.5 -999.0 -99.0 10.5220 -999.0000 -0.010 12.8630 13.7030 13.1 13.1 12.8300 6.6800 5.0000 5.0000
08/09/2020 13:15:00 2020-08-09 06:15:00 1.9041 82.06 204.20 5.1170 4.0270 4.0 -999.0000 2.5 -999.0 -99.0 10.5240 -999.0000 -0.011 12.8640 13.6880 13.1 13.1 12.8500 0.0000 7.0000 3.0000
08/09/2020 13:00:00 2020-08-09 06:00:00 1.9087 82.06 208.60 5.2010 4.0370 4.2 -999.0000 2.6 -999.0 -99.0 10.5270 -999.0000 0.014 12.8630 13.6890 13.1 13.1 12.8300 0.0000 4.0000 7.0000
08/09/2020 12:45:00 2020-08-09 05:45:00 1.8995 82.06 209.80 5.2600 4.0480 4.4 -999.0000 2.6 -999.0 -99.0 10.5260 -999.0000 -0.013 12.8630 13.6850 13.1 10.5 12.8200 0.0000 5.0000 8.0000
08/09/2020 12:30:00 2020-08-09 05:30:00 1.9110 82.06 214.80 5.2960 4.0590 4.5 -999.0000 2.6 -999.0 -99.0 10.5370 -999.0000 -0.018 12.8620 13.6890 13.1 1.3 12.8200 0.0000 1.0000 7.0000
08/09/2020 12:15:00 2020-08-09 05:15:00 1.9180 82.06 224.90 5.3800 4.0700 4.9 -999.0000 2.6 -999.0 -99.0 10.5300 -999.0000 -0.017 12.8590 13.6890 13.1 0.2 12.8300 0.0000 3.0000 2.0000
08/09/2020 12:00:00 2020-08-09 05:00:00 1.9018 82.06 241.80 5.5200 4.0810 4.7 -999.0000 2.6 -999.0 -99.0 10.5380 -999.0000 -0.013 12.8560 13.6790 13.1 0.1 12.8300 0.0000 5.0000 3.0000
08/09/2020 11:45:00 2020-08-09 04:45:00 1.9018 82.06 245.20 5.5960 4.0930 5.1 -999.0000 2.6 -999.0 -99.0 10.5390 -999.0000 -0.015 12.8550 13.6780 13.1 0.1 12.8500 0.0000 4.0000 5.0000
08/09/2020 11:30:00 2020-08-09 04:30:00 1.9411 82.06 249.20 5.7430 4.1050 5.2 -999.0000 2.6 -999.0 -99.0 10.5510 -999.0000 -0.017 12.8540 13.6940 13.1 0.1 12.8500 0.0000 7.0000 1.0000
08/09/2020 11:15:00 2020-08-09 04:15:00 1.9249 82.06 247.70 5.8580 4.1160 5.2 -999.0000 2.6 -999.0 -99.0 10.5520 -999.0000 -0.015 12.8540 13.6870 13.1 0.1 12.8300 0.0000 7.0000 6.0000
08/09/2020 11:00:00 2020-08-09 04:00:00 1.9226 82.06 240.60 6.0810 4.1280 5.2 -999.0000 2.6 -999.0 -99.0 10.5530 -999.0000 -0.015 12.8530 13.6850 13.1 0.1 12.8400 0.0000 4.0000 9.0000
08/09/2020 10:45:00 2020-08-09 03:45:00 1.9572 82.06 238.10 6.2250 4.1390 5.6 -999.0000 2.7 -999.0 -99.0 10.5490 -999.0000 -0.018 12.8530 13.7000 13.1 0.1 12.8300 0.0000 6.0000 9.0000
08/09/2020 10:30:00 2020-08-09 03:30:00 1.9480 82.06 249.50 6.3880 4.1520 5.8 -999.0000 2.7 -999.0 -99.0 10.5550 -999.0000 -0.017 12.8530 13.6960 13.1 0.1 12.8400 0.0000 7.0000 3.0000
08/09/2020 10:15:00 2020-08-09 03:15:00 1.9503 82.06 248.50 6.5410 4.1640 5.9 -999.0000 2.7 -999.0 -99.0 10.5610 -999.0000 -0.011 12.8520 13.6960 13.1 0.1 12.8400 0.0000 6.0000 8.0000
08/09/2020 10:00:00 2020-08-09 03:00:00 1.9549 82.06 237.00 6.7370 4.1770 5.9 -999.0000 2.8 -999.0 -99.0 10.5550 -999.0000 -0.022 12.8510 13.6970 13.1 0.1 12.8500 0.0000 5.0000 2.0000
08/09/2020 09:45:00 2020-08-09 02:45:00 1.9526 82.06 233.30 6.8850 4.1890 5.9 -999.0000 2.8 -999.0 -99.0 10.5750 -999.0000 -0.017 12.8500 13.6950 13.1 0.1 12.8600 0.0000 5.0000 6.0000
08/09/2020 09:30:00 2020-08-09 02:30:00 1.9549 82.06 228.50 7.0490 4.2030 6.1 -999.0000 2.8 -999.0 -99.0 10.5620 -999.0000 0.001 12.8500 13.6960 13.1 0.1 12.8600 0.0000 6.0000 7.0000
08/09/2020 09:15:00 2020-08-09 02:15:00 1.9434 82.06 232.00 7.1090 4.2150 6.1 -999.0000 2.8 -999.0 -99.0 10.5630 -999.0000 -0.012 12.8490 13.6900 13.1 0.1 12.8600 0.0000 5.0000 8.0000
08/09/2020 09:00:00 2020-08-09 02:00:00 1.9272 82.06 246.40 7.0040 4.2280 6.1 -999.0000 2.8 -999.0 -99.0 10.5770 -999.0000 -0.018 12.8470 13.6810 13.2 0.0 12.8400 0.0000 7.0000 8.0000
08/09/2020 08:45:00 2020-08-09 01:45:00 1.9341 82.06 261.40 6.8490 4.2410 5.9 -999.0000 2.8 -999.0 -99.0 10.5730 -999.0000 -0.009 12.8470 13.6840 13.2 0.1 12.8600 0.0000 5.0000 9.0000
08/09/2020 08:30:00 2020-08-09 01:30:00 1.9596 82.06 272.00 6.8090 4.2540 6.3 -999.0000 2.7 -999.0 -99.0 10.5870 -999.0000 -0.003 12.8470 13.6950 13.2 0.1 12.8500 0.0000 5.0000 6.0000
08/09/2020 08:15:00 2020-08-09 01:15:00 1.9757 82.06 270.80 6.9060 4.2680 6.3 -999.0000 2.8 -999.0 -99.0 10.5880 -999.0000 -0.011 12.8450 13.7000 13.1 0.1 12.8600 0.0000 6.0000 9.0000
08/09/2020 08:00:00 2020-08-09 01:00:00 1.9734 82.06 264.20 7.0340 4.2810 6.3 -999.0000 2.8 -999.0 -99.0 10.5830 -999.0000 -0.008 12.8480 13.7020 13.2 0.1 12.8700 0.0000 5.0000 7.0000
08/09/2020 07:45:00 2020-08-09 00:45:00 1.9896 82.06 258.20 7.1000 4.2940 6.5 -999.0000 2.9 -999.0 -99.0 10.5820 -999.0000 -0.012 12.8470 13.7080 13.2 0.1 12.8600 0.0000 4.0000 8.0000
08/09/2020 07:30:00 2020-08-09 00:30:00 1.9688 82.06 275.50 7.1400 4.3070 6.6 -999.0000 3 -999.0 -99.0 10.5840 -999.0000 -0.013 12.8460 13.6980 13.2 0.0 12.8800 0.0000 5.0000 9.0000
08/09/2020 07:15:00 2020-08-09 00:15:00 1.9549 82.06 268.70 7.2190 4.3200 6.6 -999.0000 3 -999.0 -99.0 10.5980 -999.0000 -0.015 12.8470 13.6930 13.2 0.1 12.8800 0.0000 6.0000 7.0000
08/09/2020 07:00:00 2020-08-09 00:00:00 1.9526 82.06 275.90 7.2120 4.3340 6.6 -999.0000 3 -999.0 -99.0 10.5980 -999.0000 -0.009 12.8480 13.6930 13.2 0.1 12.8700 0.0000 0.0000 7.0000
08/09/2020 06:45:00 2020-08-08 23:45:00 1.9434 82.06 292.50 7.2080 4.3480 6.8 -999.0000 3 -999.0 -99.0 10.5930 -999.0000 -0.004 12.8490 13.6900 13.2 0.1 12.8800 0.0000 5.0000 12.0000
08/09/2020 06:30:00 2020-08-08 23:30:00 1.9480 82.06 305.60 7.2290 4.3620 7.2 -999.0000 3 -999.0 -99.0 10.6070 -999.0000 -0.015 12.8490 13.6920 13.2 0.1 12.8800 0.0000 6.0000 11.0000
08/09/2020 06:15:00 2020-08-08 23:15:00 1.9780 82.06 318.20 7.4380 4.3750 7.2 -999.0000 2.9 -999.0 -99.0 10.5960 -999.0000 -0.004 12.8490 13.7050 13.2 0.1 12.8900 0.0000 3.0000 5.0000
08/09/2020 06:00:00 2020-08-08 23:00:00 1.9919 82.06 320.80 7.6520 4.3890 7.5 -999.0000 2.9 -999.0 -99.0 10.5930 -999.0000 -0.005 12.8500 13.7120 13.2 0.0 12.8900 0.0000 7.0000 12.0000
08/09/2020 05:45:00 2020-08-08 22:45:00 2.0058 82.06 342.90 7.8090 4.4020 7.9 -999.0000 2.9 -999.0 -99.0 10.5960 -999.0000 -0.012 12.8490 13.7170 13.2 0.1 12.9100 0.0000 7.0000 8.0000
08/09/2020 05:30:00 2020-08-08 22:30:00 2.0058 82.06 357.40 8.0100 4.4130 8.2 -999.0000 2.9 -999.0 -99.0 10.5970 -999.0000 0.000 12.8500 13.7180 13.2 0.1 12.9000 0.0000 3.0000 9.0000
08/09/2020 05:15:00 2020-08-08 22:15:00 2.0612 82.06 363.70 8.1800 4.4260 8.5 -999.0000 3 -999.0 -99.0 10.5930 -999.0000 -0.012 12.8490 13.7410 13.2 0.1 12.9100 0.0000 3.0000 6.0000
08/09/2020 05:00:00 2020-08-08 22:00:00 2.0843 82.06 367.90 8.4340 4.4380 8.7 -999.0000 3.1 -999.0 -99.0 10.5920 -999.0000 -0.011 12.8500 13.7520 13.3 0.1 12.9100 0.0000 4.0000 8.0000
08/09/2020 04:45:00 2020-08-08 21:45:00 2.0820 82.06 348.60 8.6390 4.4480 9.2 -999.0000 3.1 -999.0 -99.0 10.6070 -999.0000 -0.005 12.8490 13.7500 13.3 0.1 12.9200 0.0000 5.0000 9.0000
08/09/2020 04:30:00 2020-08-08 21:30:00 2.0659 82.06 364.00 8.9390 4.4580 9.6 -999.0000 3.1 -999.0 -99.0 10.6030 -999.0000 0.008 12.8500 13.7440 13.3 0.1 12.9300 0.0000 7.0000 8.0000
08/09/2020 04:15:00 2020-08-08 21:15:00 2.0682 82.06 383.20 9.2190 4.4670 10.1 -999.0000 3.2 -999.0 -99.0 10.6040 -999.0000 0.003 12.8490 13.7440 13.3 0.1 12.9300 0.0000 7.0000 7.0000
08/09/2020 04:00:00 2020-08-08 21:00:00 2.0404 82.06 392.60 9.5070 4.4750 10.5 -999.0000 3.3 -999.0 -99.0 10.6050 -999.0000 0.014 12.8470 13.7300 13.3 0.7 12.9400 0.0000 3.0000 11.0000
08/09/2020 03:45:00 2020-08-08 20:45:00 2.0774 82.06 408.00 9.8920 4.4820 11.0 -999.0000 3.3 -999.0 -99.0 10.6050 -999.0000 -0.001 12.8470 13.7460 13.3 7.7 12.9600 0.0000 7.0000 8.0000
08/09/2020 03:30:00 2020-08-08 20:30:00 2.0820 82.06 410.00 10.2170 4.4870 11.5 -999.0000 3.4 -999.0 -99.0 10.6140 -999.0000 0.001 12.8470 13.7480 13.3 12.8 12.9600 5.7000 4.0000 8.0000
08/09/2020 03:15:00 2020-08-08 20:15:00 2.0635 82.06 436.50 10.6190 4.4900 12.0 -999.0000 3.4 -999.0 -99.0 10.6060 -999.0000 -0.009 12.8460 13.7390 13.3 13.4 12.9700 10.1600 4.0000 3.0000
08/09/2020 03:00:00 2020-08-08 20:00:00 2.0682 82.06 461.60 11.0570 4.4910 12.4 -999.0000 3.5 -999.0 -99.0 10.6090 -999.0000 -0.012 12.8440 13.7390 13.4 13.4 12.9900 10.6800 5.0000 5.0000
08/09/2020 02:45:00 2020-08-08 19:45:00 2.1005 82.06 541.40 11.4130 4.4900 13.1 -999.0000 3.6 -999.0 -99.0 10.6150 -999.0000 -0.013 12.8430 13.7520 13.4 13.4 13.0100 10.8800 4.0000 7.0000
08/09/2020 02:30:00 2020-08-08 19:30:00 2.0936 82.06 556.20 11.7340 4.4880 13.6 -999.0000 3.7 -999.0 -99.0 10.6110 -999.0000 -0.012 12.8430 13.7490 13.4 13.4 13.0400 11.3600 6.0000 6.0000
08/09/2020 02:15:00 2020-08-08 19:15:00 2.1467 82.06 645.70 12.0020 4.4840 14.1 -999.0000 3.9 -999.0 -99.0 10.6150 -999.0000 -0.006 12.8420 13.7710 13.4 13.4 13.1000 12.4400 7.0000 7.0000
08/09/2020 02:00:00 2020-08-08 19:00:00 2.1421 82.06 698.00 12.2890 4.4770 14.6 -999.0000 4.1 -999.0 -99.0 10.6160 -999.0000 -0.005 12.8420 13.7690 13.5 13.5 13.1800 13.2200 6.0000 12.0000
08/09/2020 01:45:00 2020-08-08 18:45:00 2.1745 82.06 799.80 12.5970 4.4680 15.5 -999.0000 4.3 -999.0 -99.0 10.6150 -999.0000 -0.007 12.8430 13.7840 13.5 13.6 13.3200 13.3700 6.0000 10.0000
08/09/2020 01:30:00 2020-08-08 18:30:00 2.1883 82.06 788.40 12.9960 4.4580 16.0 -999.0000 4.6 -999.0 -99.0 10.6090 -999.0000 -0.006 12.8410 13.7880 13.6 13.6 13.3800 13.4500 1.0000 6.0000
08/09/2020 01:15:00 2020-08-08 18:15:00 2.2045 82.06 564.60 13.1390 4.4450 16.9 -999.0000 4.7 -999.0 -99.0 10.6070 -999.0000 0.010 12.8410 13.7950 13.6 13.6 13.5200 13.6100 5.0000 9.0000
08/09/2020 01:00:00 2020-08-08 18:00:00 2.2415 82.06 601.40 13.3820 4.4310 17.8 -999.0000 4.8 -999.0 -99.0 10.6030 -999.0000 0.012 12.8400 13.8100 13.6 13.6 13.5900 13.6800 2.0000 8.0000
08/09/2020 00:45:00 2020-08-08 17:45:00 2.2253 82.06 664.90 13.7500 4.4150 18.8 -999.0000 5 -999.0 -99.0 10.6070 -999.0000 0.024 12.8390 13.8020 13.6 13.7 13.5800 13.6900 5.0000 11.0000
08/09/2020 00:30:00 2020-08-08 17:30:00 2.2184 82.06 606.60 14.0780 4.3980 20.0 -999.0000 5.1 -999.0 -99.0 10.6060 -999.0000 -0.014 12.8400 13.8000 13.7 13.7 13.6000 13.7200 1.0000 7.0000
08/09/2020 00:15:00 2020-08-08 17:15:00 2.2022 82.06 463.70 14.5750 4.3800 21.2 -999.0000 5.2 -999.0 -99.0 10.5950 -999.0000 -0.027 12.8390 13.7920 13.7 13.7 13.6200 13.7600 5.0000 4.0000
08/09/2020 00:00:00 2020-08-08 17:00:00 2.1745 82.06 435.90 14.7530 4.3590 22.8 -999.0000 5.4 -999.0 -99.0 10.6010 -999.0000 0.000 12.8400 13.7810 13.7 13.7 13.6000 13.7300 5.0000 11.0000
08/08/2020 23:45:00 2020-08-08 16:45:00 2.1953 82.06 462.70 15.1900 4.3380 24.5 -999.0000 5.4 -999.0 -99.0 10.5840 -999.0000 0.001 12.8390 13.7890 13.6 13.7 13.6100 13.7200 7.0000 7.0000
08/08/2020 23:30:00 2020-08-08 16:30:00 2.1698 82.06 500.40 15.4620 4.3160 26.6 -999.0000 5.7 -999.0 -99.0 10.5820 -999.0000 0.000 12.8370 13.7760 13.5 13.6 13.6200 13.7300 6.0000 7.0000
08/08/2020 23:15:00 2020-08-08 16:15:00 2.1444 82.06 588.20 16.1410 4.2930 29.0 -999.0000 5.8 -999.0 -99.0 10.5830 -999.0000 0.026 12.8360 13.7640 13.4 13.5 13.6900 13.8300 4.0000 11.0000
08/08/2020 23:00:00 2020-08-08 16:00:00 2.1906 82.06 616.90 16.5380 4.2680 31.3 -999.0000 5.7 -999.0 -99.0 10.5740 -999.0000 0.023 12.8370 13.7850 13.3 20.2 13.6600 13.8100 5.0000 9.0000
08/08/2020 22:45:00 2020-08-08 15:45:00 2.2276 82.06 637.00 17.3340 4.2420 32.7 -999.0000 5.8 -999.0 -99.0 10.5600 -999.0000 0.018 12.8340 13.7980 13.4 20.4 13.6500 13.8000 6.0000 7.0000
08/08/2020 22:30:00 2020-08-08 15:30:00 2.2137 82.06 619.30 17.7990 4.2150 33.0 -999.0000 6 -999.0 -99.0 10.5680 -999.0000 0.019 12.8340 13.7920 13.4 20.3 13.7300 13.9400 2.0000 7.0000
08/08/2020 22:15:00 2020-08-08 15:15:00 2.1814 82.06 575.40 18.2260 4.1890 32.3 -999.0000 6.1 -999.0 -99.0 10.5610 -999.0000 0.006 12.8350 13.7790 13.4 20.2 13.7400 16.9500 5.0000 12.0000
08/08/2020 22:00:00 2020-08-08 15:00:00 2.1814 82.06 603.50 18.1360 4.1630 31.1 -999.0000 6.1 -999.0 -99.0 10.5590 -999.0000 0.006 12.8330 13.7770 13.4 20.1 13.7400 19.7600 7.0000 6.0000
08/08/2020 21:45:00 2020-08-08 14:45:00 2.2114 82.06 619.00 17.6300 4.1370 29.7 -999.0000 6.2 -999.0 -99.0 10.5480 -999.0000 0.014 12.8340 13.7910 13.7 20.1 13.7400 20.1000 7.0000 11.0000
08/08/2020 21:30:00 2020-08-08 14:30:00 2.1976 82.06 568.50 17.5250 4.1120 28.5 -999.0000 6.2 -999.0 -99.0 10.5370 -999.0000 0.018 12.8340 13.7850 13.4 20.2 13.7300 18.0000 7.0000 8.0000
08/08/2020 21:15:00 2020-08-08 14:15:00 2.1929 82.06 535.50 17.8900 4.0880 27.7 -999.0000 6.3 -999.0 -99.0 10.5460 -999.0000 0.004 12.8330 13.7820 13.4 20.0 13.7500 18.2100 6.0000 8.0000
08/08/2020 21:00:00 2020-08-08 14:00:00 2.1306 82.06 467.50 17.4260 4.0650 26.8 -999.0000 6.3 -999.0 -99.0 10.5450 -999.0000 0.014 12.8320 13.7540 13.4 20.0 13.7500 18.3300 11.0000 4.0000
08/08/2020 20:45:00 2020-08-08 13:45:00 2.1282 82.06 416.00 16.9400 4.0430 26.4 -999.0000 6.3 -999.0 -99.0 10.5380 -999.0000 -0.002 12.8340 13.7550 13.4 20.1 13.7500 19.1600 2.0000 6.0000
08/08/2020 20:30:00 2020-08-08 13:30:00 2.1282 82.06 373.80 17.3670 4.0240 26.6 -999.0000 6.3 -999.0 -99.0 10.5310 -999.0000 0.018 12.8320 13.7530 13.4 20.1 13.7400 19.9000 10.0000 7.0000
08/08/2020 20:15:00 2020-08-08 13:15:00 2.0566 82.06 384.60 16.7740 4.0060 27.0 -999.0000 6.2 -999.0 -99.0 10.5380 -999.0000 0.017 12.8330 13.7230 13.5 20.3 13.7600 19.5700 4.0000 8.0000
08/08/2020 20:00:00 2020-08-08 13:00:00 2.0890 82.06 369.60 16.6960 3.9910 27.1 -999.0000 6.2 -999.0 -99.0 10.5240 -999.0000 0.039 12.8330 13.7370 13.4 20.2 13.7700 18.8200 2.0000 5.0000
08/08/2020 19:45:00 2020-08-08 12:45:00 2.0843 82.06 344.30 16.8410 3.9770 27.1 -999.0000 6.1 -999.0 -99.0 10.5070 -999.0000 0.001 12.8320 13.7340 13.5 19.8 13.7600 19.3000 -1.0000 7.0000
08/08/2020 19:30:00 2020-08-08 12:30:00 2.0635 82.06 322.10 17.0370 3.9660 26.6 -999.0000 6 -999.0 -99.0 10.5120 -999.0000 0.007 12.8290 13.7220 13.5 20.0 13.7800 19.3600 3.0000 8.0000
08/08/2020 19:15:00 2020-08-08 12:15:00 2.0520 82.06 302.80 17.3910 3.9570 25.4 -999.0000 5.8 -999.0 -99.0 10.5110 -999.0000 0.016 12.8300 13.7180 13.5 19.9 13.7800 18.0300 4.0000 10.0000
08/08/2020 19:00:00 2020-08-08 12:00:00 1.9919 82.06 278.70 16.4740 3.9500 23.5 -999.0000 5.8 -999.0 -99.0 10.5160 -999.0000 0.000 12.8310 13.6930 13.5 19.4 13.7900 19.6500 5.0000 9.0000
08/08/2020 18:45:00 2020-08-08 11:45:00 1.9919 82.06 289.00 15.9920 3.9450 20.9 -999.0000 5.6 -999.0 -99.0 10.4970 -999.0000 0.017 12.8320 13.6940 13.5 20.1 13.8000 19.9000 5.0000 9.0000
08/08/2020 18:30:00 2020-08-08 11:30:00 2.0104 82.06 281.50 15.2980 3.9430 17.9 -999.0000 5.3 -999.0 -99.0 10.4920 -999.0000 0.010 12.8330 13.7030 13.6 20.2 13.7800 19.8000 2.0000 9.0000
08/08/2020 18:15:00 2020-08-08 11:15:00 1.9919 82.06 251.70 13.9170 3.9410 16.0 -999.0000 4.8 -999.0 -99.0 10.4900 -999.0000 -0.011 12.8330 13.6950 13.6 21.0 13.5000 13.6600 5.0000 10.0000
08/08/2020 18:00:00 2020-08-08 11:00:00 1.9688 82.06 222.30 13.4270 3.9410 14.1 -999.0000 4.6 -999.0 -99.0 10.5000 -999.0000 -0.001 12.8340 13.6860 13.6 20.2 13.1700 13.3100 6.0000 4.0000
08/08/2020 17:45:00 2020-08-08 10:45:00 1.9503 82.06 220.70 12.5920 3.9420 12.0 -999.0000 4.3 -999.0 -99.0 10.4890 -999.0000 0.019 12.8330 13.6770 13.6 13.8 13.0900 13.2100 2.0000 5.0000
08/08/2020 17:30:00 2020-08-08 10:30:00 1.9480 82.06 217.20 11.3360 3.9430 10.6 -999.0000 3.9 -999.0 -99.0 10.4850 -999.0000 -0.044 12.8340 13.6770 13.6 20.3 13.0000 13.1300 4.0000 7.0000
08/08/2020 17:15:00 2020-08-08 10:15:00 1.9341 82.06 212.50 10.4630 3.9450 9.8 -999.0000 3.7 -999.0 -99.0 10.4860 -999.0000 -0.009 12.8340 13.6710 13.7 21.6 12.9400 13.0500 4.0000 6.0000
08/08/2020 17:00:00 2020-08-08 10:00:00 1.9365 82.06 217.80 9.7930 3.9470 9.4 -999.0000 3.6 -999.0 -99.0 10.4760 -999.0000 -0.019 12.8320 13.6700 13.7 13.8 12.9100 12.9800 5.0000 7.0000
08/08/2020 16:45:00 2020-08-08 09:45:00 1.9341 82.06 219.70 9.4200 3.9510 9.2 -999.0000 3.5 -999.0 -99.0 10.4720 -999.0000 -0.027 12.8290 13.6660 13.5 13.6 12.8800 12.9500 4.0000 8.0000
08/08/2020 16:30:00 2020-08-08 09:30:00 1.9341 82.06 220.00 9.1740 3.9540 9.1 -999.0000 3.6 -999.0 -99.0 10.4640 -999.0000 -0.026 12.8300 13.6670 13.4 13.4 12.8700 12.9400 5.0000 8.0000
08/08/2020 16:15:00 2020-08-08 09:15:00 1.9365 82.06 226.60 8.9660 3.9580 8.9 -999.0000 3.6 -999.0 -99.0 10.4670 -999.0000 -0.021 12.8290 13.6670 13.3 13.4 12.8500 12.9200 4.0000 7.0000
08/08/2020 16:00:00 2020-08-08 09:00:00 1.9157 82.06 224.60 8.9950 3.9630 8.9 -999.0000 3.5 -999.0 -99.0 10.4530 -999.0000 0.001 12.8290 13.6580 13.3 13.3 12.8500 12.9000 4.0000 5.0000
08/08/2020 15:45:00 2020-08-08 08:45:00 1.9318 82.06 235.30 9.0250 3.9670 8.9 -999.0000 3.5 -999.0 -99.0 10.4570 -999.0000 -0.031 12.8290 13.6650 13.2 13.3 12.8400 12.9000 4.0000 10.0000
08/08/2020 15:30:00 2020-08-08 08:30:00 1.9133 82.06 252.00 9.2380 3.9720 9.1 -999.0000 3.3 -999.0 -99.0 10.4620 -999.0000 -0.027 12.8300 13.6580 13.2 13.2 12.8300 12.3200 3.0000 7.0000
08/08/2020 15:15:00 2020-08-08 08:15:00 1.9365 82.06 255.50 9.3650 3.9780 8.9 -999.0000 3.3 -999.0 -99.0 10.4460 -999.0000 -0.022 12.8290 13.6670 13.2 13.2 12.8400 12.4600 2.0000 7.0000
08/08/2020 15:00:00 2020-08-08 08:00:00 1.9526 82.06 248.10 9.3520 3.9840 8.7 -999.0000 3.2 -999.0 -99.0 10.4520 -999.0000 -0.021 12.8270 13.6720 13.2 13.2 12.8400 12.8700 4.0000 3.0000
08/08/2020 14:45:00 2020-08-08 07:45:00 1.9757 82.06 242.90 9.2820 3.9900 8.9 -999.0000 3.2 -999.0 -99.0 10.4360 -999.0000 -0.020 12.8250 13.6800 13.2 13.2 12.8400 12.5100 3.0000 10.0000
08/08/2020 14:30:00 2020-08-08 07:30:00 1.9873 82.06 241.00 9.2310 3.9970 8.9 -999.0000 3.1 -999.0 -99.0 10.4440 -999.0000 -0.019 12.8240 13.6840 13.2 13.2 12.8300 12.3100 3.0000 4.0000
08/08/2020 14:15:00 2020-08-08 07:15:00 1.9919 82.06 230.50 9.2210 4.0030 8.9 -999.0000 3.2 -999.0 -99.0 10.4390 -999.0000 -0.028 12.8230 13.6850 13.1 13.1 12.8300 10.8800 4.0000 8.0000
08/08/2020 14:00:00 2020-08-08 07:00:00 1.9780 82.06 215.70 9.3030 4.0090 8.9 -999.0000 3.1 -999.0 -99.0 10.4230 -999.0000 -0.025 12.8220 13.6780 13.2 13.2 12.8300 9.8500 5.0000 6.0000
08/08/2020 13:45:00 2020-08-08 06:45:00 1.9642 82.06 220.80 9.3810 4.0160 8.9 -999.0000 3.1 -999.0 -99.0 10.4290 -999.0000 -0.014 12.8220 13.6720 13.1 13.1 12.8300 7.9800 4.0000 6.0000
08/08/2020 13:30:00 2020-08-08 06:30:00 1.9850 82.06 219.10 9.3400 4.0220 8.9 -999.0000 3.1 -999.0 -99.0 10.4190 -999.0000 -0.012 12.8220 13.6810 13.1 13.1 12.8300 4.5800 5.0000 8.0000
08/08/2020 13:15:00 2020-08-08 06:15:00 1.9804 82.06 214.20 9.2870 4.0280 9.1 -999.0000 3.1 -999.0 -99.0 10.4160 -999.0000 -0.017 12.8220 13.6790 13.1 13.1 12.8300 0.0000 5.0000 8.0000
08/08/2020 13:00:00 2020-08-08 06:00:00 1.9688 82.06 222.40 9.2410 4.0350 8.9 -999.0000 3.2 -999.0 -99.0 10.4170 -999.0000 -0.013 12.8190 13.6710 13.1 11.8 12.8300 0.0000 3.0000 5.0000
08/08/2020 12:45:00 2020-08-08 05:45:00 1.9757 82.06 225.90 9.2600 4.0410 8.9 -999.0000 3.2 -999.0 -99.0 10.4020 -999.0000 -0.017 12.8170 13.6720 13.1 5.9 12.8300 0.0000 2.0000 8.0000
08/08/2020 12:30:00 2020-08-08 05:30:00 1.9850 82.06 234.00 9.2470 4.0480 9.1 -999.0000 3.2 -999.0 -99.0 10.4010 -999.0000 -0.015 12.8160 13.6750 13.1 0.7 12.8300 0.0000 3.0000 4.0000
08/08/2020 12:15:00 2020-08-08 05:15:00 1.9711 82.06 241.70 9.2420 4.0550 9.1 -999.0000 3.2 -999.0 -99.0 10.4080 -999.0000 -0.018 12.8150 13.6680 13.1 0.1 12.8400 0.0000 5.0000 4.0000
08/08/2020 12:00:00 2020-08-08 05:00:00 1.9850 82.06 246.30 9.2450 4.0620 9.1 -999.0000 3.2 -999.0 -99.0 10.3870 -999.0000 -0.016 12.8170 13.6760 13.2 0.1 12.8500 0.0000 3.0000 4.0000
08/08/2020 11:45:00 2020-08-08 04:45:00 1.9988 82.06 249.60 9.3020 4.0700 9.2 -999.0000 3.2 -999.0 -99.0 10.4020 -999.0000 -0.011 12.8190 13.6840 13.1 0.1 12.8400 0.0000 6.0000 10.0000
08/08/2020 11:30:00 2020-08-08 04:30:00 2.0012 82.06 247.60 9.3800 4.0770 9.2 -999.0000 3.2 -999.0 -99.0 10.3900 -999.0000 -0.008 12.8180 13.6840 13.1 0.1 12.8500 0.0000 2.0000 2.0000
08/08/2020 11:15:00 2020-08-08 04:15:00 1.9873 82.06 245.10 9.4210 4.0840 9.4 -999.0000 3.2 -999.0 -99.0 10.3840 -999.0000 -0.001 12.8190 13.6790 13.1 0.1 12.8500 0.0000 6.0000 9.0000
08/08/2020 11:00:00 2020-08-08 04:00:00 1.9619 82.06 244.20 9.5130 4.0920 9.2 -999.0000 3.2 -999.0 -99.0 10.3800 -999.0000 -0.012 12.8190 13.6680 13.2 0.1 12.8400 0.0000 4.0000 8.0000
08/08/2020 10:45:00 2020-08-08 03:45:00 1.9503 82.06 249.00 9.5980 4.1000 9.4 -999.0000 3.2 -999.0 -99.0 10.3680 -999.0000 -0.014 12.8170 13.6610 13.2 0.1 12.8600 0.0000 5.0000 6.0000
08/08/2020 10:30:00 2020-08-08 03:30:00 1.9365 82.06 259.60 9.6840 4.1070 9.6 -999.0000 3.2 -999.0 -99.0 10.3680 -999.0000 -0.002 12.8150 13.6530 13.2 0.1 12.8500 0.0000 5.0000 11.0000
08/08/2020 10:15:00 2020-08-08 03:15:00 1.9365 82.06 299.10 9.6850 4.1160 9.6 -999.0000 3.2 -999.0 -99.0 10.3600 -999.0000 -0.008 12.8150 13.6530 13.1 0.1 12.8500 0.0000 2.0000 1.0000
08/08/2020 10:00:00 2020-08-08 03:00:00 1.9572 82.06 365.40 9.7700 4.1240 9.8 -999.0000 3.2 -999.0 -99.0 10.3670 -999.0000 -0.009 12.8150 13.6620 13.2 0.1 12.8600 0.0000 5.0000 3.0000
08/08/2020 09:45:00 2020-08-08 02:45:00 1.9688 82.06 391.10 9.9110 4.1330 9.8 -999.0000 3.1 -999.0 -99.0 10.3520 -999.0000 -0.011 12.8150 13.6670 13.2 0.1 12.8500 0.0000 4.0000 9.0000
08/08/2020 09:30:00 2020-08-08 02:30:00 1.9942 82.06 280.80 10.0200 4.1420 10.1 -999.0000 3.2 -999.0 -99.0 10.3400 -999.0000 -0.009 12.8160 13.6790 13.2 0.1 12.8500 0.0000 5.0000 8.0000
08/08/2020 09:15:00 2020-08-08 02:15:00 1.9665 82.06 262.20 10.1970 4.1510 10.1 -999.0000 3.2 -999.0 -99.0 10.3400 -999.0000 -0.007 12.8170 13.6680 13.2 0.1 12.8600 0.0000 1.0000 4.0000
08/08/2020 09:00:00 2020-08-08 02:00:00 1.9688 82.06 260.30 10.4460 4.1600 9.9 -999.0000 3.2 -999.0 -99.0 10.3390 -999.0000 -0.007 12.8160 13.6680 13.2 0.1 12.8600 0.0000 5.0000 11.0000
08/08/2020 08:45:00 2020-08-08 01:45:00 1.9734 82.06 257.20 10.4890 4.1700 10.1 -999.0000 3.2 -999.0 -99.0 10.3390 -999.0000 -0.008 12.8180 13.6720 13.2 0.1 12.8700 0.0000 3.0000 6.0000
08/08/2020 08:30:00 2020-08-08 01:30:00 1.9734 82.06 255.70 10.5280 4.1790 10.3 -999.0000 3.2 -999.0 -99.0 10.3210 -999.0000 -0.010 12.8190 13.6730 13.2 0.1 12.8800 0.0000 7.0000 7.0000
08/08/2020 08:15:00 2020-08-08 01:15:00 1.9988 82.06 250.00 10.5540 4.1890 10.3 -999.0000 3.2 -999.0 -99.0 10.3250 -999.0000 -0.008 12.8190 13.6840 13.2 0.1 12.8600 0.0000 3.0000 7.0000
08/08/2020 08:00:00 2020-08-08 01:00:00 1.9734 82.06 249.50 10.5840 4.1990 10.1 -999.0000 3.2 -999.0 -99.0 10.3210 -999.0000 -0.013 12.8190 13.6730 13.2 0.1 12.8800 0.0000 2.0000 8.0000
08/08/2020 07:45:00 2020-08-08 00:45:00 1.9688 82.06 271.00 10.6510 4.2100 10.5 -999.0000 3.2 -999.0 -99.0 10.3180 -999.0000 -0.008 12.8200 13.6720 13.2 0.1 12.8600 0.0000 1.0000 8.0000
08/08/2020 07:30:00 2020-08-08 00:30:00 1.9734 82.06 293.70 10.7530 4.2190 10.6 -999.0000 3.1 -999.0 -99.0 10.3030 -999.0000 -0.007 12.8210 13.6750 13.2 0.1 12.8800 0.0000 4.0000 5.0000
08/08/2020 07:15:00 2020-08-08 00:15:00 1.9850 82.06 318.70 10.7740 4.2290 10.6 -999.0000 3.1 -999.0 -99.0 10.3160 -999.0000 -0.010 12.8200 13.6790 13.2 0.0 12.8800 0.0000 2.0000 8.0000
08/08/2020 07:00:00 2020-08-08 00:00:00 2.0312 82.06 335.70 10.8660 4.2380 10.6 -999.0000 3.1 -999.0 -99.0 10.3040 -999.0000 -0.010 12.8210 13.7000 13.2 0.1 12.8800 0.0000 6.0000 9.0000
08/08/2020 06:45:00 2020-08-07 23:45:00 2.0635 82.06 332.00 10.8770 4.2470 10.8 -999.0000 3.1 -999.0 -99.0 10.2890 -999.0000 -0.010 12.8220 13.7150 13.2 0.1 12.8800 0.0000 4.0000 9.0000
08/08/2020 06:30:00 2020-08-07 23:30:00 2.0635 82.06 343.90 10.9260 4.2570 10.8 -999.0000 3.1 -999.0 -99.0 10.3010 -999.0000 0.003 12.8220 13.7150 13.2 0.1 12.9000 0.0000 3.0000 10.0000
08/08/2020 06:15:00 2020-08-07 23:15:00 2.0589 82.06 339.50 11.0160 4.2650 11.0 -999.0000 3.2 -999.0 -99.0 10.2860 -999.0000 -0.012 12.8240 13.7150 13.2 0.1 12.9000 0.0000 6.0000 11.0000
08/08/2020 06:00:00 2020-08-07 23:00:00 2.0474 82.06 328.60 11.0490 4.2730 11.0 -999.0000 3.2 -999.0 -99.0 10.2810 -999.0000 -0.005 12.8250 13.7110 13.2 0.1 12.9000 0.0000 5.0000 6.0000
08/08/2020 05:45:00 2020-08-07 22:45:00 2.0381 82.06 322.60 11.1640 4.2810 11.2 -999.0000 3.3 -999.0 -99.0 10.2670 -999.0000 -0.001 12.8250 13.7070 13.3 0.1 12.9000 0.0000 5.0000 11.0000
08/08/2020 05:30:00 2020-08-07 22:30:00 2.0751 82.06 320.10 11.2200 4.2880 11.5 -999.0000 3.3 -999.0 -99.0 10.2780 -999.0000 -0.003 12.8250 13.7230 13.3 0.1 12.9100 0.0000 5.0000 6.0000
08/08/2020 05:15:00 2020-08-07 22:15:00 2.0243 82.06 319.20 11.3260 4.2950 11.7 -999.0000 3.4 -999.0 -99.0 10.2720 -999.0000 -0.006 12.8260 13.7020 13.3 0.1 12.9100 0.0000 5.0000 8.0000
08/08/2020 05:00:00 2020-08-07 22:00:00 2.0150 82.06 311.70 11.4060 4.3010 11.7 -999.0000 3.4 -999.0 -99.0 10.2630 -999.0000 -0.005 12.8280 13.7000 13.3 0.3 12.9100 0.0000 5.0000 9.0000
08/08/2020 04:45:00 2020-08-07 21:45:00 2.0104 82.06 337.70 11.5630 4.3070 12.0 -999.0000 3.5 -999.0 -99.0 10.2560 -999.0000 -0.004 12.8290 13.6990 13.3 0.1 12.9300 0.0000 4.0000 9.0000
08/08/2020 04:30:00 2020-08-07 21:30:00 2.0173 82.06 361.60 11.6930 4.3120 12.2 -999.0000 3.5 -999.0 -99.0 10.2530 -999.0000 -0.008 12.8300 13.7030 13.3 0.1 12.9400 0.0000 4.0000 7.0000
08/08/2020 04:15:00 2020-08-07 21:15:00 2.0127 82.06 385.30 11.8590 4.3150 12.5 -999.0000 3.5 -999.0 -99.0 10.2400 -999.0000 -0.003 12.8300 13.7010 13.3 0.2 12.9300 0.0000 2.0000 9.0000
08/08/2020 04:00:00 2020-08-07 21:00:00 2.0820 82.06 396.50 12.0560 4.3180 12.9 -999.0000 3.6 -999.0 -99.0 10.2410 -999.0000 0.002 12.8280 13.7290 13.4 0.8 12.9600 0.0000 7.0000 8.0000
08/08/2020 03:45:00 2020-08-07 20:45:00 2.0867 82.06 402.50 12.2420 4.3210 13.2 -999.0000 3.6 -999.0 -99.0 10.2220 -999.0000 -0.007 12.8270 13.7300 13.4 6.6 12.9600 0.0000 4.0000 2.0000
08/08/2020 03:30:00 2020-08-07 20:30:00 2.0751 82.06 416.00 12.4520 4.3220 13.6 -999.0000 3.7 -999.0 -99.0 10.2220 -999.0000 0.011 12.8250 13.7230 13.4 13.2 12.9800 10.4700 4.0000 9.0000
08/08/2020 03:15:00 2020-08-07 20:15:00 2.1074 82.06 454.40 12.6890 4.3210 14.1 -999.0000 3.7 -999.0 -99.0 10.2120 -999.0000 0.025 12.8250 13.7370 13.4 13.4 13.0000 12.0300 4.0000 9.0000
08/08/2020 03:00:00 2020-08-07 20:00:00 2.0797 82.06 485.80 13.0430 4.3200 14.3 -999.0000 3.8 -999.0 -99.0 10.2170 -999.0000 0.025 12.8240 13.7240 13.5 13.5 13.0100 12.1400 4.0000 6.0000
08/08/2020 02:45:00 2020-08-07 19:45:00 2.1259 82.06 527.20 13.2980 4.3160 14.8 -999.0000 3.9 -999.0 -99.0 10.1980 -999.0000 0.025 12.8210 13.7410 13.5 13.5 13.0500 12.1500 2.0000 10.0000
08/08/2020 02:30:00 2020-08-07 19:30:00 2.1537 82.06 508.80 13.6520 4.3110 15.3 -999.0000 3.9 -999.0 -99.0 10.1900 -999.0000 -0.004 12.8220 13.7540 13.5 13.5 13.1100 13.0700 2.0000 8.0000
08/08/2020 02:15:00 2020-08-07 19:15:00 2.1583 82.06 515.00 13.8870 4.3050 15.8 -999.0000 4.1 -999.0 -99.0 10.1960 -999.0000 -0.012 12.8220 13.7560 13.5 13.5 13.1800 13.2200 5.0000 8.0000
08/08/2020 02:00:00 2020-08-07 19:00:00 2.1652 82.06 505.90 14.1550 4.2980 16.2 -999.0000 4.2 -999.0 -99.0 10.1780 -999.0000 -0.022 12.8210 13.7580 13.6 13.6 13.2500 13.3100 5.0000 4.0000
08/08/2020 01:45:00 2020-08-07 18:45:00 2.1606 82.06 479.30 14.3660 4.2900 16.7 -999.0000 4.4 -999.0 -99.0 10.1860 -999.0000 0.000 12.8210 13.7560 13.6 13.6 13.3000 13.3700 6.0000 8.0000
08/08/2020 01:30:00 2020-08-07 18:30:00 2.1421 82.06 439.60 14.4730 4.2810 17.4 -999.0000 4.5 -999.0 -99.0 10.1680 -999.0000 -0.001 12.8210 13.7480 13.6 13.6 13.3400 13.4000 5.0000 9.0000
08/08/2020 01:15:00 2020-08-07 18:15:00 2.1583 82.06 445.30 14.7180 4.2710 17.9 -999.0000 4.6 -999.0 -99.0 10.1700 -999.0000 -0.006 12.8210 13.7550 13.6 13.6 13.4500 13.5300 2.0000 6.0000
08/08/2020 01:00:00 2020-08-07 18:00:00 2.1306 82.06 463.00 14.9650 4.2590 18.6 -999.0000 4.6 -999.0 -99.0 10.1590 -999.0000 0.013 12.8210 13.7430 13.6 13.6 13.3800 13.4500 5.0000 2.0000
08/08/2020 00:45:00 2020-08-07 17:45:00 2.1514 82.06 441.30 15.0390 4.2470 19.5 -999.0000 4.7 -999.0 -99.0 10.1590 -999.0000 -0.007 12.8230 13.7540 13.6 13.7 13.5300 13.6300 5.0000 9.0000
08/08/2020 00:30:00 2020-08-07 17:30:00 2.1282 82.06 417.20 15.4210 4.2310 20.5 -999.0000 4.6 -999.0 -99.0 10.1390 -999.0000 -0.012 12.8230 13.7440 13.6 13.6 13.4500 13.5300 5.0000 3.0000
08/08/2020 00:15:00 2020-08-07 17:15:00 2.1306 82.06 435.10 15.4860 4.2160 21.7 -999.0000 4.6 -999.0 -99.0 10.1260 -999.0000 -0.015 12.8230 13.7450 13.6 13.6 13.4800 13.5700 4.0000 7.0000
08/08/2020 00:00:00 2020-08-07 17:00:00 2.1259 82.06 436.30 15.8390 4.1980 23.1 -999.0000 4.7 -999.0 -99.0 10.1140 -999.0000 -0.010 12.8220 13.7420 13.6 13.6 13.5800 13.6800 3.0000 2.0000
08/07/2020 23:45:00 2020-08-07 16:45:00 2.1190 82.06 430.00 16.2260 4.1800 24.7 -999.0000 4.9 -999.0 -99.0 10.1070 -999.0000 -0.004 12.8220 13.7390 13.6 13.7 13.5800 13.6800 3.0000 9.0000
08/07/2020 23:30:00 2020-08-07 16:30:00 2.1144 82.06 457.30 16.6780 4.1600 26.6 -999.0000 5 -999.0 -99.0 10.0940 -999.0000 0.000 12.8210 13.7360 13.6 13.7 13.6200 13.7400 3.0000 9.0000
08/07/2020 23:15:00 2020-08-07 16:15:00 2.0843 82.06 499.10 17.5560 4.1380 28.5 -999.0000 5.2 -999.0 -99.0 10.0800 -999.0000 -0.006 12.8200 13.7220 13.5 13.6 13.7100 13.8800 10.0000 9.0000
08/07/2020 23:00:00 2020-08-07 16:00:00 2.1259 82.06 560.10 18.2090 4.1150 30.3 -999.0000 5.3 -999.0 -99.0 10.0710 -999.0000 -0.006 12.8190 13.7390 13.4 19.9 13.7300 13.9600 4.0000 13.0000
08/07/2020 22:45:00 2020-08-07 15:45:00 2.1537 82.06 556.40 19.1630 4.0910 31.5 -999.0000 5.5 -999.0 -99.0 10.0650 -999.0000 -0.007 12.8190 13.7510 13.5 19.7 13.7400 13.9400 7.0000 8.0000
08/07/2020 22:30:00 2020-08-07 15:30:00 2.1490 82.06 508.90 19.7440 4.0680 31.6 -999.0000 5.8 -999.0 -99.0 10.0450 -999.0000 0.009 12.8170 13.7470 13.5 20.3 13.7500 17.0100 9.0000 8.0000
08/07/2020 22:15:00 2020-08-07 15:15:00 2.0913 82.06 480.50 19.6850 4.0460 31.0 -999.0000 6.2 -999.0 -99.0 10.0380 -999.0000 0.002 12.8170 13.7220 14.1 14.5 13.7500 16.4600 6.0000 8.0000
08/07/2020 22:00:00 2020-08-07 15:00:00 2.0890 82.06 486.00 19.4400 4.0230 30.3 -999.0000 6.2 -999.0 -99.0 10.0280 -999.0000 0.007 12.8170 13.7210 13.4 20.3 13.7500 19.5000 3.0000 10.0000
08/07/2020 21:45:00 2020-08-07 14:45:00 2.0982 82.06 459.90 20.0810 4.0010 28.9 -999.0000 6.1 -999.0 -99.0 10.0210 -999.0000 -0.006 12.8160 13.7240 13.5 20.0 13.7500 20.0900 7.0000 13.0000
08/07/2020 21:30:00 2020-08-07 14:30:00 2.0497 82.06 391.60 18.9360 3.9790 28.2 -999.0000 5.8 -999.0 -99.0 10.0030 -999.0000 0.025 12.8180 13.7050 13.6 20.4 13.7300 13.9700 2.0000 7.0000
08/07/2020 21:15:00 2020-08-07 14:15:00 2.0474 82.06 346.60 18.3430 3.9570 28.9 -999.0000 5.8 -999.0 -99.0 9.9940 -999.0000 -0.005 12.8210 13.7070 13.6 13.9 13.7500 17.9300 11.0000 7.0000
08/07/2020 21:00:00 2020-08-07 14:00:00 1.9988 82.06 312.80 19.6090 3.9370 28.7 -999.0000 6.1 -999.0 -99.0 9.9730 -999.0000 0.022 12.8180 13.6830 13.4 19.1 13.7500 17.8800 8.0000 13.0000
08/07/2020 20:45:00 2020-08-07 13:45:00 1.9850 82.06 306.10 20.0490 3.9170 28.2 -999.0000 6 -999.0 -99.0 9.9590 -999.0000 -0.001 12.8170 13.6760 13.5 19.8 13.7500 18.4700 7.0000 4.0000
08/07/2020 20:30:00 2020-08-07 13:30:00 1.9688 82.06 302.80 19.1020 3.8980 28.3 -999.0000 6.1 -999.0 -99.0 9.9380 -999.0000 0.020 12.8170 13.6690 13.5 19.9 13.7500 20.0200 7.0000 9.0000
08/07/2020 20:15:00 2020-08-07 13:15:00 1.9873 82.06 309.70 18.6270 3.8800 28.9 -999.0000 5.6 -999.0 -99.0 9.9280 -999.0000 0.026 12.8190 13.6790 13.6 20.5 13.7500 19.7500 7.0000 3.0000
08/07/2020 20:00:00 2020-08-07 13:00:00 1.9780 82.06 306.40 18.3630 3.8630 29.6 -999.0000 5.7 -999.0 -99.0 9.9260 -999.0000 0.022 12.8210 13.6770 13.5 20.6 13.7700 19.0700 6.0000 9.0000
08/07/2020 19:45:00 2020-08-07 12:45:00 1.9642 82.06 329.50 18.3490 3.8460 29.9 -999.0000 5.8 -999.0 -99.0 9.8980 -999.0000 0.009 12.8220 13.6720 13.5 19.8 13.7800 19.1600 2.0000 8.0000
08/07/2020 19:30:00 2020-08-07 12:30:00 1.9665 82.06 364.90 18.0860 3.8310 30.3 -999.0000 5.6 -999.0 -99.0 9.9040 -999.0000 0.011 12.8240 13.6750 13.5 19.8 13.7900 19.0600 3.0000 7.0000
08/07/2020 19:15:00 2020-08-07 12:15:00 1.9988 82.06 370.30 17.6640 3.8170 29.9 -999.0000 5.5 -999.0 -99.0 9.8850 -999.0000 0.006 12.8270 13.6920 13.6 19.9 13.8000 19.1300 4.0000 9.0000
08/07/2020 19:00:00 2020-08-07 12:00:00 1.9711 82.06 316.90 16.8700 3.8040 29.2 -999.0000 5.5 -999.0 -99.0 9.8660 -999.0000 0.007 12.8270 13.6800 13.8 14.6 13.8100 19.4500 3.0000 13.0000
08/07/2020 18:45:00 2020-08-07 11:45:00 1.9365 82.06 284.30 17.2400 3.7920 28.2 -999.0000 5.4 -999.0 -99.0 9.8500 -999.0000 0.008 12.8280 13.6660 13.6 19.9 13.8000 19.8900 4.0000 6.0000
08/07/2020 18:30:00 2020-08-07 11:30:00 1.8856 82.06 249.50 16.3400 3.7820 26.6 -999.0000 5.2 -999.0 -99.0 9.8570 -999.0000 0.004 12.8310 13.6470 13.6 20.1 13.8200 19.7900 0.0000 6.0000
08/07/2020 18:15:00 2020-08-07 11:15:00 1.8625 82.06 242.20 15.9630 3.7730 24.2 -999.0000 5 -999.0 -99.0 9.8370 -999.0000 -0.004 12.8310 13.6370 13.6 20.1 13.8100 17.6200 4.0000 11.0000
08/07/2020 18:00:00 2020-08-07 11:00:00 1.8648 82.06 238.00 15.0880 3.7660 21.1 -999.0000 4.8 -999.0 -99.0 9.8030 -999.0000 0.010 12.8310 13.6380 13.7 20.3 13.3600 13.4800 5.0000 13.0000
08/07/2020 17:45:00 2020-08-07 10:45:00 1.8648 82.06 232.00 14.5400 3.7600 17.1 -999.0000 4.7 -999.0 -99.0 9.7980 -999.0000 -0.003 12.8300 13.6370 13.7 20.3 13.1900 13.3100 6.0000 2.0000
08/07/2020 17:30:00 2020-08-07 10:30:00 1.8510 82.06 225.30 13.8470 3.7550 13.2 -999.0000 4.6 -999.0 -99.0 9.7940 -999.0000 0.030 12.8310 13.6320 13.7 20.4 13.1200 13.2400 2.0000 3.0000
08/07/2020 17:15:00 2020-08-07 10:15:00 1.8510 82.06 217.00 13.4250 3.7520 10.3 -999.0000 4.4 -999.0 -99.0 9.7750 -999.0000 0.032 12.8300 13.6310 13.7 20.6 13.0600 13.1800 6.0000 2.0000
08/07/2020 17:00:00 2020-08-07 10:00:00 1.8486 82.06 210.50 12.1370 3.7500 8.5 -999.0000 4.2 -999.0 -99.0 9.7720 -999.0000 0.035 12.8290 13.6290 14.4 14.9 13.0300 13.1300 3.0000 13.0000
08/07/2020 16:45:00 2020-08-07 09:45:00 1.8486 82.06 207.90 10.4930 3.7510 7.3 -999.0000 4 -999.0 -99.0 9.7440 -999.0000 0.073 12.8280 13.6280 13.2 13.3 13.0100 13.1100 4.0000 11.0000
08/07/2020 16:30:00 2020-08-07 09:30:00 1.8533 82.06 199.50 9.0890 3.7520 6.6 -999.0000 3.9 -999.0 -99.0 9.7320 -999.0000 0.080 12.8250 13.6270 13.1 13.2 12.9700 13.0700 6.0000 2.0000
08/07/2020 16:15:00 2020-08-07 09:15:00 1.8371 82.06 197.70 8.1160 3.7550 6.1 -999.0000 3.7 -999.0 -99.0 9.7230 -999.0000 0.073 12.8230 13.6180 13.1 13.1 12.9500 13.0500 2.0000 3.0000
08/07/2020 16:00:00 2020-08-07 09:00:00 1.8348 82.06 198.40 7.3360 3.7580 5.8 -999.0000 3.5 -999.0 -99.0 9.7100 -999.0000 0.084 12.8220 13.6160 13.0 13.0 12.9300 13.0200 7.0000 2.0000
08/07/2020 15:45:00 2020-08-07 08:45:00 1.8579 82.06 198.40 6.9190 3.7620 5.6 -999.0000 3.3 -999.0 -99.0 9.7140 -999.0000 0.079 12.8210 13.6250 12.9 13.0 12.9100 12.9800 3.0000 5.0000
08/07/2020 15:30:00 2020-08-07 08:30:00 1.8556 82.06 199.50 6.5550 3.7680 5.6 -999.0000 3.1 -999.0 -99.0 9.7020 -999.0000 0.075 12.8200 13.6230 13.0 13.0 12.8900 12.9800 6.0000 8.0000
08/07/2020 15:15:00 2020-08-07 08:15:00 1.8440 82.06 209.60 6.4040 3.7740 5.4 -999.0000 3 -999.0 -99.0 9.6880 -999.0000 0.070 12.8190 13.6170 13.0 13.0 12.8800 12.9400 6.0000 7.0000
08/07/2020 15:00:00 2020-08-07 08:00:00 1.8533 82.06 217.50 6.3650 3.7810 5.2 -999.0000 2.8 -999.0 -99.0 9.6900 -999.0000 0.072 12.8180 13.6200 13.0 13.1 12.8800 12.9200 7.0000 9.0000
08/07/2020 14:45:00 2020-08-07 07:45:00 1.8556 82.06 228.40 6.3010 3.7870 5.1 -999.0000 2.8 -999.0 -99.0 9.6650 -999.0000 0.073 12.8180 13.6210 13.0 13.0 12.8600 12.9200 4.0000 9.0000
08/07/2020 14:30:00 2020-08-07 07:30:00 1.8579 82.06 225.60 5.9030 3.7950 4.7 -999.0000 2.7 -999.0 -99.0 9.6600 -999.0000 0.073 12.8160 13.6200 13.0 13.0 12.8600 12.9100 5.0000 9.0000
08/07/2020 14:15:00 2020-08-07 07:15:00 1.8648 82.06 216.60 5.3920 3.8030 4.2 -999.0000 2.6 -999.0 -99.0 9.6510 -999.0000 0.077 12.8150 13.6220 12.9 13.0 12.8500 12.9000 7.0000 7.0000
08/07/2020 14:00:00 2020-08-07 07:00:00 1.8879 82.06 212.70 5.0160 3.8100 3.9 -999.0000 2.6 -999.0 -99.0 9.6350 -999.0000 0.069 12.8130 13.6300 12.9 13.0 12.8500 12.8700 7.0000 11.0000
08/07/2020 13:45:00 2020-08-07 06:45:00 1.8648 82.06 214.90 4.6650 3.8180 3.7 -999.0000 2.5 -999.0 -99.0 9.6260 -999.0000 0.074 12.8110 13.6180 12.9 13.0 12.8300 11.8400 5.0000 10.0000
08/07/2020 13:30:00 2020-08-07 06:30:00 1.8671 82.06 210.70 4.4800 3.8250 3.7 -999.0000 2.5 -999.0 -99.0 9.6170 -999.0000 0.072 12.8080 13.6160 12.9 12.9 12.8200 11.0900 7.0000 1.0000
08/07/2020 13:15:00 2020-08-07 06:15:00 1.8694 82.06 209.60 4.4700 3.8340 3.5 -999.0000 2.5 -999.0 -99.0 9.6120 -999.0000 0.069 12.8060 13.6150 12.9 12.9 12.8300 4.8100 7.0000 8.0000
08/07/2020 13:00:00 2020-08-07 06:00:00 1.8694 82.06 223.40 4.5070 3.8410 3.7 -999.0000 2.5 -999.0 -99.0 9.5960 -999.0000 0.068 12.8030 13.6120 12.9 12.9 12.8300 0.0000 7.0000 9.0000
08/07/2020 12:45:00 2020-08-07 05:45:00 1.8741 82.06 231.10 4.5770 3.8490 3.9 -999.0000 2.4 -999.0 -99.0 9.5870 -999.0000 0.063 12.8020 13.6130 12.9 12.8 12.8300 0.0000 8.0000 7.0000
08/07/2020 12:30:00 2020-08-07 05:30:00 1.8949 82.06 246.00 4.7170 3.8570 4.0 -999.0000 2.4 -999.0 -99.0 9.5840 -999.0000 0.062 12.8050 13.6250 12.9 3.1 12.8300 0.0000 4.0000 4.0000
08/07/2020 12:15:00 2020-08-07 05:15:00 1.8879 82.06 250.70 4.9320 3.8640 4.4 -999.0000 2.4 -999.0 -99.0 9.5670 -999.0000 0.061 12.8060 13.6230 12.9 0.3 12.8300 0.0000 7.0000 12.0000
08/07/2020 12:00:00 2020-08-07 05:00:00 1.9018 82.06 242.90 5.2270 3.8720 4.5 -999.0000 2.5 -999.0 -99.0 9.5650 -999.0000 0.063 12.8050 13.6280 12.9 0.1 12.8400 0.0000 7.0000 11.0000
08/07/2020 11:45:00 2020-08-07 04:45:00 1.8972 82.06 247.20 5.3930 3.8790 4.9 -999.0000 2.5 -999.0 -99.0 9.5500 -999.0000 0.070 12.8060 13.6270 12.9 0.1 12.8400 0.0000 2.0000 8.0000
08/07/2020 11:30:00 2020-08-07 04:30:00 1.8949 82.06 260.40 5.7000 3.8860 5.2 -999.0000 2.5 -999.0 -99.0 9.5300 -999.0000 0.065 12.8080 13.6280 12.9 0.1 12.8400 0.0000 6.0000 10.0000
08/07/2020 11:15:00 2020-08-07 04:15:00 -999.0000 82.06 247.40 6.0930 -999.0000 5.6 -999.0000 2.6 -999.0 -99.0 -999.0000 -999.0000 0.059 12.8090 -999.0000 12.9 0.1 12.8400 0.0000 7.0000 10.0000
08/07/2020 11:00:00 2020-08-07 04:00:00 1.8925 82.06 250.40 6.3630 3.8980 5.8 -999.0000 2.6 -999.0 -99.0 9.5070 -999.0000 0.065 12.8090 13.6280 12.9 0.1 12.8500 0.0000 6.0000 11.0000
08/07/2020 10:45:00 2020-08-07 03:45:00 1.8925 82.06 253.50 6.5950 3.9040 5.9 -999.0000 2.6 -999.0 -99.0 9.5140 -999.0000 0.076 12.8100 13.6290 12.9 0.1 12.8400 0.0000 7.0000 9.0000
08/07/2020 10:30:00 2020-08-07 03:30:00 1.8949 82.06 267.30 6.6830 3.9100 6.1 -999.0000 2.7 -999.0 -99.0 9.4980 -999.0000 0.068 12.8100 13.6300 12.9 0.1 12.8400 0.0000 5.0000 5.0000
08/07/2020 10:15:00 2020-08-07 03:15:00 1.8879 82.06 269.30 6.7780 3.9170 6.1 -999.0000 2.7 -999.0 -99.0 9.4920 -999.0000 0.070 12.8070 13.6240 12.9 0.1 12.8600 0.0000 5.0000 10.0000
08/07/2020 10:00:00 2020-08-07 03:00:00 1.8787 82.06 283.80 6.8800 3.9230 6.3 -999.0000 2.7 -999.0 -99.0 9.4770 -999.0000 0.074 12.8060 13.6190 12.9 0.1 12.8500 0.0000 6.0000 11.0000
08/07/2020 09:45:00 2020-08-07 02:45:00 1.8810 82.06 304.40 7.0070 3.9290 6.5 -999.0000 2.8 -999.0 -99.0 9.4650 -999.0000 0.073 12.8050 13.6190 13.0 0.1 12.8500 0.0000 8.0000 2.0000
08/07/2020 09:30:00 2020-08-07 02:30:00 1.8694 82.06 285.60 7.2120 3.9340 6.8 -999.0000 2.8 -999.0 -99.0 9.4640 -999.0000 0.072 12.8050 13.6140 13.0 0.1 12.8500 0.0000 5.0000 13.0000
08/07/2020 09:15:00 2020-08-07 02:15:00 1.8671 82.06 225.60 7.4470 3.9400 6.8 -999.0000 2.8 -999.0 -99.0 9.4550 -999.0000 0.066 12.8030 13.6110 13.0 0.1 12.8600 0.0000 5.0000 9.0000
08/07/2020 09:00:00 2020-08-07 02:00:00 1.8510 82.06 219.70 7.6460 3.9460 7.0 -999.0000 2.9 -999.0 -99.0 9.4480 -999.0000 0.067 12.8010 13.6020 13.0 0.1 12.8500 0.0000 3.0000 9.0000
08/07/2020 08:45:00 2020-08-07 01:45:00 1.8440 82.06 199.40 7.8990 3.9510 7.3 -999.0000 2.9 -999.0 -99.0 9.4390 -999.0000 0.071 12.8010 13.5990 13.0 0.1 12.8600 0.0000 6.0000 10.0000
08/07/2020 08:30:00 2020-08-07 01:30:00 1.8486 82.06 185.70 8.0760 3.9570 7.5 -999.0000 3 -999.0 -99.0 9.4250 -999.0000 0.069 12.8020 13.6020 13.0 0.1 12.8700 0.0000 7.0000 5.0000
08/07/2020 08:15:00 2020-08-07 01:15:00 1.8486 82.06 202.20 8.2200 3.9630 7.7 -999.0000 3 -999.0 -99.0 9.4140 -999.0000 0.067 12.8010 13.6010 13.1 0.1 12.8600 0.0000 6.0000 9.0000
08/07/2020 08:00:00 2020-08-07 01:00:00 1.8764 82.06 204.40 8.2840 3.9680 7.7 -999.0000 3 -999.0 -99.0 9.4050 -999.0000 0.067 12.7980 13.6100 13.2 0.0 12.8600 0.0000 4.0000 12.0000
08/07/2020 07:45:00 2020-08-07 00:45:00 1.8787 82.06 207.60 8.4260 3.9750 7.9 -999.0000 3 -999.0 -99.0 9.3910 -999.0000 0.072 12.7960 13.6090 13.2 0.1 12.8600 0.0000 8.0000 12.0000
08/07/2020 07:30:00 2020-08-07 00:30:00 1.9087 82.06 203.60 8.6530 3.9800 8.0 -999.0000 3.1 -999.0 -99.0 9.3890 -999.0000 0.064 12.7940 13.6200 13.2 0.1 12.8800 0.0000 9.0000 10.0000
08/07/2020 07:15:00 2020-08-07 00:15:00 1.9157 82.06 212.00 8.6820 3.9860 8.0 -999.0000 3.1 -999.0 -99.0 9.3740 -999.0000 0.072 12.7910 13.6200 13.2 0.0 12.8800 0.0000 1.0000 7.0000
08/07/2020 07:00:00 2020-08-07 00:00:00 1.9133 82.06 225.80 8.7060 3.9930 8.2 -999.0000 3.1 -999.0 -99.0 9.3630 -999.0000 0.070 12.7890 13.6170 13.2 0.1 12.8800 0.0000 4.0000 9.0000
08/07/2020 06:45:00 2020-08-06 23:45:00 1.8949 82.06 234.40 8.8840 3.9990 8.4 -999.0000 3.1 -999.0 -99.0 9.3720 -999.0000 0.068 12.7890 13.6090 13.2 0.1 12.8800 0.0000 7.0000 12.0000
08/07/2020 06:30:00 2020-08-06 23:30:00 1.8972 82.06 250.30 9.0520 4.0060 8.4 -999.0000 3.1 -999.0 -99.0 9.3560 -999.0000 0.073 12.7880 13.6090 13.3 0.1 12.8800 0.0000 7.0000 8.0000
08/07/2020 06:15:00 2020-08-06 23:15:00 1.9295 82.06 245.10 9.2400 4.0130 8.5 -999.0000 3.1 -999.0 -99.0 9.3460 -999.0000 0.074 12.7880 13.6230 13.2 0.1 12.8900 0.0000 7.0000 9.0000
08/07/2020 06:00:00 2020-08-06 23:00:00 1.9480 82.06 250.60 9.3120 4.0190 8.5 -999.0000 3.1 -999.0 -99.0 9.3400 -999.0000 0.069 12.7860 13.6290 13.3 0.1 12.9100 0.0000 6.0000 12.0000
08/07/2020 05:45:00 2020-08-06 22:45:00 1.9619 82.06 244.60 9.3260 4.0260 8.5 -999.0000 3.1 -999.0 -99.0 9.3380 -999.0000 0.074 12.7860 13.6350 13.3 0.1 12.9000 0.0000 2.0000 12.0000
08/07/2020 05:30:00 2020-08-06 22:30:00 1.9619 82.06 253.00 9.3840 4.0330 8.7 -999.0000 3.1 -999.0 -99.0 9.3310 -999.0000 0.068 12.7830 13.6320 13.3 0.1 12.9100 0.0000 5.0000 8.0000
08/07/2020 05:15:00 2020-08-06 22:15:00 1.9596 82.06 266.60 9.3820 4.0400 8.7 -999.0000 3.1 -999.0 -99.0 9.3360 -999.0000 0.067 12.7810 13.6290 13.3 0.1 12.9100 0.0000 3.0000 11.0000
08/07/2020 05:00:00 2020-08-06 22:00:00 1.9526 82.06 261.60 9.4160 4.0460 8.7 -999.0000 3.1 -999.0 -99.0 9.3280 -999.0000 0.068 12.7800 13.6250 13.3 0.1 12.9200 0.0000 9.0000 9.0000
08/07/2020 04:45:00 2020-08-06 21:45:00 1.9457 82.06 256.20 9.4430 4.0520 8.7 -999.0000 3.1 -999.0 -99.0 9.3120 -999.0000 0.070 12.7780 13.6200 13.4 0.1 12.9300 0.0000 3.0000 12.0000
08/07/2020 04:30:00 2020-08-06 21:30:00 1.9480 82.06 264.20 9.5240 4.0580 8.9 -999.0000 3.1 -999.0 -99.0 9.3060 -999.0000 0.073 12.7770 13.6200 13.4 0.1 12.9300 0.0000 5.0000 10.0000
08/07/2020 04:15:00 2020-08-06 21:15:00 1.9572 82.06 274.70 9.4200 4.0630 8.9 -999.0000 3.1 -999.0 -99.0 9.3140 -999.0000 0.067 12.7740 13.6210 13.4 0.1 12.9400 0.0000 8.0000 10.0000
08/07/2020 04:00:00 2020-08-06 21:00:00 1.9596 82.06 270.50 9.3690 4.0660 8.9 -999.0000 3 -999.0 -99.0 9.3130 -999.0000 0.070 12.7690 13.6170 13.4 0.7 12.9500 0.0000 7.0000 12.0000
08/07/2020 03:45:00 2020-08-06 20:45:00 1.9665 82.06 279.90 9.4280 4.0690 9.2 -999.0000 3.1 -999.0 -99.0 9.3030 -999.0000 0.074 12.7670 13.6180 13.5 8.8 12.9600 0.0000 7.0000 11.0000
08/07/2020 03:30:00 2020-08-06 20:30:00 1.9965 82.06 295.40 9.5030 4.0700 9.4 -999.0000 3.1 -999.0 -99.0 9.3010 -999.0000 0.077 12.7660 13.6300 13.5 13.4 12.9800 6.6100 4.0000 10.0000
08/07/2020 03:15:00 2020-08-06 20:15:00 1.9804 82.06 295.30 9.6140 4.0710 9.8 -999.0000 3.2 -999.0 -99.0 9.2930 -999.0000 0.066 12.7630 13.6200 13.5 13.5 12.9900 9.5400 8.0000 10.0000
08/07/2020 03:00:00 2020-08-06 20:00:00 2.0081 82.06 300.80 9.7240 4.0700 10.1 -999.0000 3.2 -999.0 -99.0 9.2890 -999.0000 0.071 12.7590 13.6280 13.6 13.6 13.0100 11.2800 8.0000 13.0000
08/07/2020 02:45:00 2020-08-06 19:45:00 2.0196 82.06 285.70 9.9360 4.0670 10.3 -999.0000 3.3 -999.0 -99.0 9.2850 -999.0000 0.074 12.7570 13.6310 13.6 13.6 13.0400 12.5300 2.0000 10.0000
08/07/2020 02:30:00 2020-08-06 19:30:00 1.9896 82.06 294.20 10.0300 4.0630 10.6 -999.0000 3.4 -999.0 -99.0 9.2820 -999.0000 0.070 12.7570 13.6180 13.6 13.7 13.0800 12.7200 3.0000 12.0000
08/07/2020 02:15:00 2020-08-06 19:15:00 2.0404 82.06 305.10 10.1580 4.0580 10.8 -999.0000 3.5 -999.0 -99.0 9.2830 -999.0000 0.065 12.7560 13.6390 13.6 13.7 13.1100 12.4400 1.0000 11.0000
08/07/2020 02:00:00 2020-08-06 19:00:00 2.0081 82.06 293.70 10.3200 4.0520 11.3 -999.0000 3.7 -999.0 -99.0 9.2840 -999.0000 0.066 12.7540 13.6230 13.7 13.7 13.2400 12.8700 7.0000 9.0000
08/07/2020 01:45:00 2020-08-06 18:45:00 1.9988 82.06 317.50 10.4470 4.0460 11.5 -999.0000 3.9 -999.0 -99.0 9.2700 -999.0000 0.073 12.7540 13.6190 13.7 13.8 13.3700 13.4200 5.0000 7.0000
08/07/2020 01:30:00 2020-08-06 18:30:00 1.9642 82.06 365.30 10.8250 4.0390 11.8 -999.0000 4.1 -999.0 -99.0 9.2770 -999.0000 0.070 12.7550 13.6050 13.7 13.8 13.5400 13.6100 6.0000 9.0000
08/07/2020 01:15:00 2020-08-06 18:15:00 1.9341 82.06 338.70 11.2040 4.0340 12.0 -999.0000 4.2 -999.0 -99.0 9.2750 -999.0000 0.073 12.7530 13.5900 13.7 13.8 13.6000 13.6800 3.0000 10.0000
08/07/2020 01:00:00 2020-08-06 18:00:00 1.9457 82.06 296.10 11.2900 4.0280 12.0 -999.0000 4.4 -999.0 -99.0 9.2650 -999.0000 0.070 12.7520 13.5940 13.7 13.8 13.6700 13.7900 7.0000 14.0000
08/07/2020 00:45:00 2020-08-06 17:45:00 2.0243 82.06 295.00 11.1730 4.0240 12.4 -999.0000 4.5 -999.0 -99.0 9.2800 -999.0000 0.068 12.7520 13.6280 13.7 13.8 13.6200 13.7000 6.0000 10.0000
08/07/2020 00:30:00 2020-08-06 17:30:00 2.0058 82.06 294.40 11.5840 4.0200 12.5 -999.0000 4.7 -999.0 -99.0 9.2710 -999.0000 0.063 12.7510 13.6190 13.6 13.6 13.6800 13.8300 8.0000 11.0000
08/07/2020 00:15:00 2020-08-06 17:15:00 2.0566 82.06 272.00 12.3560 4.0180 12.7 -999.0000 4.7 -999.0 -99.0 9.2720 -999.0000 0.066 12.7480 13.6380 13.6 13.7 13.6500 13.7600 6.0000 12.0000
08/07/2020 00:00:00 2020-08-06 17:00:00 2.0312 82.06 247.70 12.5770 4.0150 12.5 -999.0000 4.6 -999.0 -99.0 9.2690 -999.0000 0.052 12.7460 13.6250 13.6 13.7 13.6400 13.7600 3.0000 6.0000
08/06/2020 23:45:00 2020-08-06 16:45:00 1.9942 82.06 221.90 12.4560 4.0140 12.4 -999.0000 4.4 -999.0 -99.0 9.2650 -999.0000 -0.012 12.7460 13.6090 13.6 13.7 13.6500 13.7600 7.0000 8.0000
08/06/2020 23:30:00 2020-08-06 16:30:00 1.9688 82.06 231.90 12.1300 4.0130 12.4 -999.0000 4.1 -999.0 -99.0 9.2680 -999.0000 -0.002 12.7440 13.5960 13.6 13.7 13.6800 13.8100 3.0000 9.0000
08/06/2020 23:15:00 2020-08-06 16:15:00 1.9457 82.06 232.60 12.0860 4.0120 12.2 -999.0000 4 -999.0 -99.0 9.2640 -999.0000 0.005 12.7430 13.5850 13.6 13.7 13.7800 14.0100 4.0000 8.0000
08/06/2020 23:00:00 2020-08-06 16:00:00 1.9272 82.06 252.00 11.6440 4.0110 11.7 -999.0000 4 -999.0 -99.0 9.2670 -999.0000 0.012 12.7440 13.5780 13.6 20.4 13.6700 13.7900 5.0000 7.0000
08/06/2020 22:45:00 2020-08-06 15:45:00 1.9804 82.06 258.10 11.3590 4.0100 11.5 -999.0000 3.9 -999.0 -99.0 9.2580 -999.0000 0.000 12.7450 13.6020 13.6 13.7 13.7800 17.3100 6.0000 9.0000
08/06/2020 22:30:00 2020-08-06 15:30:00 1.9619 82.06 269.70 11.1090 4.0090 11.3 -999.0000 3.8 -999.0 -99.0 9.2670 -999.0000 -0.005 12.7440 13.5930 13.6 13.8 13.6800 13.8100 3.0000 11.0000
08/06/2020 22:15:00 2020-08-06 15:15:00 1.9688 82.06 299.30 10.9950 4.0080 11.2 -999.0000 3.7 -999.0 -99.0 9.2770 -999.0000 -0.012 12.7440 13.5960 13.4 13.5 13.6400 13.7200 8.0000 10.0000
08/06/2020 22:00:00 2020-08-06 15:00:00 2.0012 82.06 327.70 10.9190 4.0050 11.0 -999.0000 3.6 -999.0 -99.0 9.2620 -999.0000 -0.002 12.7430 13.6090 13.4 13.5 13.6200 13.7000 4.0000 10.0000
08/06/2020 21:45:00 2020-08-06 14:45:00 2.0635 82.06 344.20 10.7680 4.0030 11.3 -999.0000 3.6 -999.0 -99.0 9.2600 -999.0000 0.027 12.7440 13.6370 13.5 13.5 13.6000 13.7000 1.0000 12.0000
08/06/2020 21:30:00 2020-08-06 14:30:00 2.0867 82.06 324.50 10.8450 4.0010 11.7 -999.0000 3.7 -999.0 -99.0 9.2690 -999.0000 -0.005 12.7450 13.6480 13.5 13.6 13.6300 13.7400 6.0000 12.0000
08/06/2020 21:15:00 2020-08-06 14:15:00 2.0705 82.06 292.00 10.9570 3.9970 11.8 -999.0000 3.8 -999.0 -99.0 9.2820 -999.0000 -0.008 12.7440 13.6400 13.6 13.6 13.6500 13.7600 4.0000 7.0000
08/06/2020 21:00:00 2020-08-06 14:00:00 2.0358 82.06 264.00 11.0010 3.9940 12.2 -999.0000 3.9 -999.0 -99.0 9.2810 -999.0000 -0.016 12.7420 13.6230 13.7 13.7 13.6900 13.8100 7.0000 10.0000
08/06/2020 20:45:00 2020-08-06 13:45:00 1.9873 82.06 280.50 11.3220 3.9920 12.2 -999.0000 3.9 -999.0 -99.0 9.2850 -999.0000 -0.007 12.7400 13.6000 13.7 13.7 13.7800 14.0000 5.0000 8.0000
08/06/2020 20:30:00 2020-08-06 13:30:00 2.0335 82.06 285.30 11.4820 3.9900 12.4 -999.0000 4 -999.0 -99.0 9.2910 -999.0000 -0.006 12.7390 13.6190 13.6 13.7 13.7900 17.4900 6.0000 8.0000
08/06/2020 20:15:00 2020-08-06 13:15:00 2.0358 82.06 276.30 11.6590 3.9880 12.2 -999.0000 4 -999.0 -99.0 9.2920 -999.0000 -0.003 12.7360 13.6170 13.7 20.7 13.7800 17.5300 6.0000 5.0000
08/06/2020 20:00:00 2020-08-06 13:00:00 2.0220 82.06 273.00 11.3590 3.9870 12.0 -999.0000 4 -999.0 -99.0 9.3020 -999.0000 -0.017 12.7320 13.6070 14.0 14.2 13.7100 13.8700 6.0000 12.0000
08/06/2020 19:45:00 2020-08-06 12:45:00 1.9988 82.06 268.30 11.3330 3.9860 12.0 -999.0000 4.1 -999.0 -99.0 9.3230 -999.0000 0.028 12.7310 13.5960 13.9 14.0 13.7900 17.3100 4.0000 8.0000
08/06/2020 19:30:00 2020-08-06 12:30:00 1.9919 82.06 253.40 11.4150 3.9870 11.7 -999.0000 4.1 -999.0 -99.0 9.3110 -999.0000 0.010 12.7290 13.5910 14.0 14.2 13.2600 13.3900 7.0000 2.0000
08/06/2020 19:15:00 2020-08-06 12:15:00 1.9919 82.06 260.10 11.2690 3.9880 11.5 -999.0000 4.1 -999.0 -99.0 9.3290 -999.0000 -0.016 12.7290 13.5910 13.8 13.9 13.1200 13.2400 8.0000 8.0000
08/06/2020 19:00:00 2020-08-06 12:00:00 2.0012 82.06 266.20 10.9830 3.9900 11.0 -999.0000 4 -999.0 -99.0 9.3290 -999.0000 -0.032 12.7270 13.5930 13.6 13.7 13.0600 13.1800 3.0000 11.0000
08/06/2020 18:45:00 2020-08-06 11:45:00 1.9804 82.06 277.90 10.5900 3.9920 11.2 -999.0000 3.7 -999.0 -99.0 9.3380 -999.0000 0.003 12.7250 13.5820 13.4 13.5 13.0200 13.1000 5.0000 8.0000
08/06/2020 18:30:00 2020-08-06 11:30:00 1.9919 82.06 279.10 10.8540 3.9950 11.3 -999.0000 3.6 -999.0 -99.0 9.3320 -999.0000 -0.003 12.7250 13.5870 13.3 13.3 13.0400 13.0900 6.0000 10.0000
08/06/2020 18:15:00 2020-08-06 11:15:00 2.0127 82.06 280.60 11.1490 3.9980 11.3 -999.0000 3.6 -999.0 -99.0 9.3430 -999.0000 0.000 12.7220 13.5930 13.2 13.3 13.0200 13.0900 6.0000 10.0000
08/06/2020 18:00:00 2020-08-06 11:00:00 1.9965 82.06 285.60 11.0740 4.0010 11.3 -999.0000 3.5 -999.0 -99.0 9.3490 -999.0000 -0.004 12.7210 13.5850 13.3 13.3 12.9900 13.0900 7.0000 7.0000
08/06/2020 17:45:00 2020-08-06 10:45:00 1.9919 82.06 301.70 11.0930 4.0040 11.3 -999.0000 3.5 -999.0 -99.0 9.3560 -999.0000 -0.013 12.7200 13.5820 13.2 13.3 12.9900 13.0500 3.0000 13.0000
08/06/2020 17:30:00 2020-08-06 10:30:00 2.0451 82.06 302.50 11.3510 4.0070 11.5 -999.0000 3.5 -999.0 -99.0 9.3690 -999.0000 -0.005 12.7190 13.6040 13.2 13.2 13.0000 13.0900 7.0000 6.0000
08/06/2020 17:15:00 2020-08-06 10:15:00 2.0150 82.06 307.10 11.3510 4.0100 11.5 -999.0000 3.4 -999.0 -99.0 9.3740 -999.0000 -0.012 12.7140 13.5860 13.3 13.3 12.9700 13.0500 7.0000 4.0000
08/06/2020 17:00:00 2020-08-06 10:00:00 2.0012 82.06 326.50 11.3930 4.0130 11.5 -999.0000 3.4 -999.0 -99.0 9.3840 -999.0000 -0.013 12.7170 13.5830 13.2 13.3 12.9800 13.0500 7.0000 9.0000
08/06/2020 16:45:00 2020-08-06 09:45:00 2.0381 82.06 316.90 11.3500 4.0170 11.5 -999.0000 3.4 -999.0 -99.0 9.3890 -999.0000 -0.007 12.7140 13.5960 13.2 13.3 12.9800 13.0500 6.0000 5.0000
08/06/2020 16:30:00 2020-08-06 09:30:00 2.0127 82.06 338.20 11.4150 4.0220 11.5 -999.0000 3.4 -999.0 -99.0 9.3950 -999.0000 -0.008 12.7110 13.5820 13.3 13.3 12.9600 13.0500 6.0000 13.0000
08/06/2020 16:15:00 2020-08-06 09:15:00 2.0289 82.06 344.40 11.2700 4.0270 11.5 -999.0000 3.5 -999.0 -99.0 9.4110 -999.0000 0.022 12.7100 13.5880 13.3 13.3 12.9600 13.0500 7.0000 9.0000
08/06/2020 16:00:00 2020-08-06 09:00:00 1.9896 82.06 397.90 11.3300 4.0320 11.5 -999.0000 3.6 -999.0 -99.0 9.4160 -999.0000 0.007 12.7070 13.5680 13.4 13.4 12.9700 13.0500 5.0000 3.0000
08/06/2020 15:45:00 2020-08-06 08:45:00 1.9850 82.06 426.90 11.2470 4.0380 11.3 -999.0000 3.6 -999.0 -99.0 9.4230 -999.0000 0.012 12.7070 13.5660 13.4 13.5 12.9600 13.0500 8.0000 6.0000
08/06/2020 15:30:00 2020-08-06 08:30:00 1.9850 82.06 353.40 11.3390 4.0450 11.3 -999.0000 3.5 -999.0 -99.0 9.4310 -999.0000 -0.013 12.7060 13.5650 13.5 13.5 12.9400 13.0500 8.0000 7.0000
08/06/2020 15:15:00 2020-08-06 08:15:00 2.0081 82.06 349.20 11.1090 4.0520 10.6 -999.0000 3.3 -999.0 -99.0 9.4440 -999.0000 0.000 12.7070 13.5760 13.4 13.5 12.8800 12.9800 9.0000 5.0000
08/06/2020 15:00:00 2020-08-06 08:00:00 2.0497 82.06 379.00 10.6760 4.0600 10.3 -999.0000 3.2 -999.0 -99.0 9.4480 -999.0000 0.023 12.7060 13.5930 13.3 13.3 12.8600 12.9400 3.0000 14.0000
08/06/2020 14:45:00 2020-08-06 07:45:00 2.0104 82.06 410.30 10.7240 4.0680 10.1 -999.0000 3.2 -999.0 -99.0 9.4650 -999.0000 0.004 12.7050 13.5750 13.3 13.3 12.8600 12.9200 7.0000 14.0000
08/06/2020 14:30:00 2020-08-06 07:30:00 2.0451 82.06 419.10 10.5500 4.0770 9.9 -999.0000 3.1 -999.0 -99.0 9.4670 -999.0000 -0.009 12.7020 13.5870 13.3 13.3 12.8600 12.9200 9.0000 11.0000
08/06/2020 14:15:00 2020-08-06 07:15:00 2.0751 82.06 392.60 10.3600 4.0840 9.6 -999.0000 3.1 -999.0 -99.0 9.4790 -999.0000 0.004 12.7010 13.5990 13.2 13.2 12.8500 12.9000 2.0000 13.0000
08/06/2020 14:00:00 2020-08-06 07:00:00 2.0635 82.06 387.90 10.2760 4.1010 9.4 -999.0000 3.1 -999.0 -99.0 9.4910 -999.0000 -0.005 12.6990 13.5920 13.2 13.2 12.8400 12.0400 6.0000 14.0000
08/06/2020 13:45:00 2020-08-06 06:45:00 2.0612 82.06 396.90 10.1560 4.1010 9.4 -999.0000 3.1 -999.0 -99.0 9.4910 -999.0000 -0.005 12.7000 13.5920 13.1 13.2 12.8500 11.6800 2.0000 3.0000
08/06/2020 13:30:00 2020-08-06 06:30:00 2.0635 82.06 403.60 10.1240 4.1100 9.4 -999.0000 3.1 -999.0 -99.0 9.5090 -999.0000 0.005 12.7000 13.5930 13.1 13.1 12.8400 9.0400 7.0000 2.0000
08/06/2020 13:15:00 2020-08-06 06:15:00 2.0381 82.06 393.20 9.9380 4.1180 9.2 -999.0000 3.1 -999.0 -99.0 9.5060 -999.0000 -0.006 12.7000 13.5820 13.1 13.1 12.8400 0.0000 8.0000 9.0000
08/06/2020 13:00:00 2020-08-06 06:00:00 2.0520 82.06 368.80 9.7640 4.1270 9.2 -999.0000 3.1 -999.0 -99.0 9.5150 -999.0000 0.006 12.6990 13.5870 13.1 12.9 12.8500 0.0000 1.0000 13.0000
08/06/2020 12:45:00 2020-08-06 05:45:00 2.0058 82.06 382.60 9.7070 4.1360 9.2 -999.0000 3.1 -999.0 -99.0 9.5360 -999.0000 -0.004 12.7000 13.5680 13.1 9.7 12.8500 0.0000 7.0000 13.0000
08/06/2020 12:30:00 2020-08-06 05:30:00 2.0058 82.06 406.00 9.8130 4.1460 9.2 -999.0000 3.1 -999.0 -99.0 9.5470 -999.0000 -0.002 12.7000 13.5680 13.1 2.5 12.8500 0.0000 8.0000 14.0000
08/06/2020 12:15:00 2020-08-06 05:15:00 2.0104 82.06 436.60 9.8460 4.1550 9.2 -999.0000 3 -999.0 -99.0 9.5410 -999.0000 0.000 12.6990 13.5690 13.1 0.3 12.8500 0.0000 7.0000 11.0000
08/06/2020 12:00:00 2020-08-06 05:00:00 2.0220 82.06 504.50 9.7580 4.1640 9.4 -999.0000 3 -999.0 -99.0 9.5520 -999.0000 0.004 12.7000 13.5750 13.1 0.1 12.8400 0.0000 7.0000 12.0000
08/06/2020 11:45:00 2020-08-06 04:45:00 2.0843 82.06 629.60 9.7060 4.1730 9.6 -999.0000 3 -999.0 -99.0 9.5630 -999.0000 0.004 12.7000 13.6020 13.1 0.1 12.8400 0.0000 7.0000 7.0000
08/06/2020 11:30:00 2020-08-06 04:30:00 2.0774 82.06 683.90 9.7860 4.1820 9.8 -999.0000 3 -999.0 -99.0 9.5600 -999.0000 -0.005 12.7000 13.5990 13.1 0.1 12.8500 0.0000 7.0000 7.0000
08/06/2020 11:15:00 2020-08-06 04:15:00 2.0820 82.06 642.20 9.9610 4.1900 9.9 -999.0000 3 -999.0 -99.0 9.5720 -999.0000 -0.003 12.7020 13.6030 13.1 0.1 12.8500 0.0000 6.0000 13.0000
08/06/2020 11:00:00 2020-08-06 04:00:00 2.2068 82.06 780.40 10.1290 4.1980 10.3 -999.0000 3 -999.0 -99.0 9.5700 -999.0000 0.001 12.7030 13.6580 13.1 0.1 12.8500 0.0000 8.0000 13.0000
08/06/2020 10:45:00 2020-08-06 03:45:00 2.0797 82.06 1052.20 10.3290 4.2060 10.5 -999.0000 3.1 -999.0 -99.0 9.5800 -999.0000 0.000 12.7070 13.6070 13.1 0.1 12.8600 0.0000 7.0000 11.0000
08/06/2020 10:30:00 2020-08-06 03:30:00 2.1282 82.06 1111.00 10.5430 4.2140 10.8 -999.0000 3.2 -999.0 -99.0 9.5870 -999.0000 -0.001 12.7080 13.6290 13.1 0.1 12.8600 0.0000 7.0000 9.0000
08/06/2020 10:15:00 2020-08-06 03:15:00 2.2068 82.06 616.00 10.8030 4.2220 11.2 -999.0000 3.4 -999.0 -99.0 9.5840 -999.0000 0.006 12.7090 13.6640 13.1 0.1 12.8600 0.0000 6.0000 11.0000
08/06/2020 10:00:00 2020-08-06 03:00:00 2.1121 82.06 443.00 11.0510 4.2290 11.3 -999.0000 3.5 -999.0 -99.0 9.5840 -999.0000 0.001 12.7120 13.6260 13.1 0.1 12.8600 0.0000 8.0000 10.0000
08/06/2020 09:45:00 2020-08-06 02:45:00 1.9780 82.06 429.20 11.3780 4.2360 11.8 -999.0000 3.5 -999.0 -99.0 9.5940 -999.0000 0.009 12.7110 13.5670 13.1 0.1 12.8600 0.0000 6.0000 12.0000
08/06/2020 09:30:00 2020-08-06 02:30:00 2.0266 82.06 459.30 11.7490 4.2450 12.2 -999.0000 3.5 -999.0 -99.0 9.5780 -999.0000 0.000 12.7130 13.5900 13.2 0.1 12.8600 0.0000 7.0000 4.0000
08/06/2020 09:15:00 2020-08-06 02:15:00 2.0150 82.06 486.70 12.1010 4.2520 12.4 -999.0000 3.5 -999.0 -99.0 9.5820 -999.0000 0.021 12.7120 13.5840 13.1 0.1 12.8600 0.0000 5.0000 3.0000
08/06/2020 09:00:00 2020-08-06 02:00:00 2.0035 82.06 589.70 12.3420 4.2600 12.5 -999.0000 3.5 -999.0 -99.0 9.5760 -999.0000 -0.004 12.7130 13.5800 13.2 0.1 12.8600 0.0000 6.0000 13.0000
08/06/2020 08:45:00 2020-08-06 01:45:00 2.0474 82.06 628.40 12.4200 4.2700 12.7 -999.0000 3.5 -999.0 -99.0 9.5750 -999.0000 0.009 12.7140 13.6000 13.2 0.1 12.8600 0.0000 7.0000 5.0000
08/06/2020 08:30:00 2020-08-06 01:30:00 2.0797 82.06 567.50 12.4710 4.2790 12.9 -999.0000 3.4 -999.0 -99.0 9.5570 -999.0000 0.004 12.7150 13.6150 13.2 0.1 12.8800 0.0000 7.0000 5.0000
08/06/2020 08:15:00 2020-08-06 01:15:00 2.1722 82.06 552.80 12.5240 4.2890 13.1 -999.0000 3.5 -999.0 -99.0 9.5490 -999.0000 -0.001 12.7170 13.6570 13.2 0.1 12.8800 0.0000 4.0000 10.0000
08/06/2020 08:00:00 2020-08-06 01:00:00 2.2022 82.06 588.40 12.5860 4.3000 13.1 -999.0000 3.5 -999.0 -99.0 9.5490 -999.0000 0.011 12.7190 13.6720 13.2 0.1 12.8800 0.0000 5.0000 6.0000
08/06/2020 07:45:00 2020-08-06 00:45:00 2.1791 82.06 600.30 12.8640 4.3110 13.4 -999.0000 3.5 -999.0 -99.0 9.5470 -999.0000 -0.003 12.7170 13.6600 13.2 0.1 12.8600 0.0000 7.0000 12.0000
08/06/2020 07:30:00 2020-08-06 00:30:00 2.1768 82.06 684.30 13.1050 4.3210 13.6 -999.0000 3.5 -999.0 -99.0 9.5360 -999.0000 0.003 12.7160 13.6580 13.2 0.1 12.8800 0.0000 6.0000 13.0000
08/06/2020 07:15:00 2020-08-06 00:15:00 2.1906 82.06 611.50 13.3820 4.3340 13.6 -999.0000 3.5 -999.0 -99.0 9.5320 -999.0000 -0.001 12.7150 13.6630 13.2 0.0 12.8800 0.0000 8.0000 10.0000
08/06/2020 07:00:00 2020-08-06 00:00:00 2.1698 82.06 591.70 13.6330 4.3450 13.8 -999.0000 3.5 -999.0 -99.0 9.5280 -999.0000 -0.006 12.7150 13.6540 13.2 0.1 12.8800 0.0000 7.0000 13.0000
08/06/2020 06:45:00 2020-08-05 23:45:00 2.1352 82.06 607.30 13.8250 4.3570 13.9 -999.0000 3.4 -999.0 -99.0 9.5260 -999.0000 -0.005 12.7160 13.6400 13.2 0.1 12.8800 0.0000 4.0000 7.0000
08/06/2020 06:30:00 2020-08-05 23:30:00 2.2738 82.06 641.10 13.9830 4.3700 14.1 -999.0000 3.4 -999.0 -99.0 9.5250 -999.0000 0.000 12.7180 13.7020 13.2 0.1 12.8900 0.0000 2.0000 3.0000
08/06/2020 06:15:00 2020-08-05 23:15:00 2.2738 82.06 677.60 14.0890 4.3820 14.3 -999.0000 3.4 -999.0 -99.0 9.5120 -999.0000 -0.005 12.7200 13.7040 13.2 0.1 12.8900 0.0000 6.0000 9.0000
08/06/2020 06:00:00 2020-08-05 23:00:00 2.2553 82.06 762.40 14.1540 4.3930 14.3 -999.0000 3.3 -999.0 -99.0 9.5030 -999.0000 0.000 12.7200 13.6960 13.2 0.1 12.8900 0.0000 8.0000 9.0000
08/06/2020 05:45:00 2020-08-05 22:45:00 2.2900 82.06 786.10 14.1750 4.4040 14.5 -999.0000 3.3 -999.0 -99.0 9.5030 -999.0000 0.003 12.7210 13.7120 13.2 0.1 12.9000 0.0000 7.0000 7.0000
08/06/2020 05:30:00 2020-08-05 22:30:00 2.3154 82.06 814.60 14.1810 4.4140 14.8 -999.0000 3.4 -999.0 -99.0 9.5020 -999.0000 -0.002 12.7200 13.7220 13.2 0.1 12.8900 0.0000 8.0000 13.0000
08/06/2020 05:15:00 2020-08-05 22:15:00 2.3085 82.06 874.20 14.2880 4.4210 15.0 -999.0000 3.4 -999.0 -99.0 9.4980 -999.0000 -0.002 12.7210 13.7200 13.2 0.1 12.9100 0.0000 4.0000 6.0000
08/06/2020 05:00:00 2020-08-05 22:00:00 2.2299 82.06 924.90 14.5200 4.4280 15.3 -999.0000 3.5 -999.0 -99.0 9.4910 -999.0000 -0.007 12.7210 13.6860 13.3 0.1 12.9100 0.0000 9.0000 10.0000
08/06/2020 04:45:00 2020-08-05 21:45:00 2.2854 82.06 991.40 14.8350 4.4350 15.7 -999.0000 3.5 -999.0 -99.0 9.4810 -999.0000 -0.007 12.7230 13.7120 13.3 0.1 12.9100 0.0000 9.0000 4.0000
08/06/2020 04:30:00 2020-08-05 21:30:00 2.3501 82.06 1157.00 15.1700 4.4400 16.2 -999.0000 3.6 -999.0 -99.0 9.4890 -999.0000 -0.006 12.7240 13.7410 13.3 0.1 12.9300 0.0000 9.0000 5.0000
08/06/2020 04:15:00 2020-08-05 21:15:00 2.3732 82.06 1319.80 15.5230 4.4430 16.7 -999.0000 3.7 -999.0 -99.0 9.4880 -999.0000 -0.004 12.7240 13.7510 13.3 0.2 12.9300 0.0000 4.0000 4.0000
08/06/2020 04:00:00 2020-08-05 21:00:00 2.3778 82.06 1097.60 15.8120 4.4460 17.1 -999.0000 3.8 -999.0 -99.0 9.4980 -999.0000 0.002 12.7240 13.7530 13.3 0.8 12.9500 0.0000 9.0000 7.0000
08/06/2020 03:45:00 2020-08-05 20:45:00 2.4194 82.06 1135.60 16.1290 4.4480 17.6 -999.0000 3.9 -999.0 -99.0 9.4950 -999.0000 0.009 12.7250 13.7720 13.3 7.6 12.9600 0.0000 5.0000 13.0000
08/06/2020 03:30:00 2020-08-05 20:30:00 2.4333 82.06 1164.60 16.3560 4.4490 18.1 -999.0000 4.1 -999.0 -99.0 9.4820 -999.0000 0.007 12.7250 13.7780 13.3 13.2 12.9800 4.3900 11.0000 12.0000
08/06/2020 03:15:00 2020-08-05 20:15:00 2.4171 82.06 1168.40 16.6260 4.4500 18.4 -999.0000 4.2 -999.0 -99.0 9.4780 -999.0000 0.012 12.7250 13.7710 13.4 13.4 13.0000 9.5100 9.0000 12.0000
08/06/2020 03:00:00 2020-08-05 20:00:00 2.4656 82.06 1116.10 16.9980 4.4490 19.0 -999.0000 4.2 -999.0 -99.0 9.4890 -999.0000 0.012 12.7240 13.7910 13.4 13.4 13.0200 11.8300 10.0000 6.0000
08/06/2020 02:45:00 2020-08-05 19:45:00 2.4079 82.06 1036.20 17.2970 4.4480 19.3 -999.0000 4.3 -999.0 -99.0 9.4900 -999.0000 0.019 12.7230 13.7650 13.4 13.5 13.0600 12.4500 3.0000 8.0000
08/06/2020 02:30:00 2020-08-05 19:30:00 2.4102 82.06 1274.20 17.4900 4.4480 19.8 -999.0000 4.3 -999.0 -99.0 9.4930 -999.0000 0.018 12.7210 13.7640 13.5 13.5 13.1000 13.1600 9.0000 9.0000
08/06/2020 02:15:00 2020-08-05 19:15:00 2.4564 82.06 1237.60 17.7260 4.4480 20.2 -999.0000 4.4 -999.0 -99.0 9.4930 -999.0000 0.003 12.7200 13.7830 13.5 13.5 13.1500 13.2100 5.0000 12.0000
08/06/2020 02:00:00 2020-08-05 19:00:00 2.4564 82.06 1314.90 18.0200 4.4490 20.7 -999.0000 4.4 -999.0 -99.0 9.4810 -999.0000 0.000 12.7200 13.7830 13.5 13.6 13.3100 13.3700 5.0000 1.0000
08/06/2020 01:45:00 2020-08-05 18:45:00 2.4402 82.06 1383.80 18.5410 4.4500 21.1 -999.0000 4.5 -999.0 -99.0 9.4830 -999.0000 -0.002 12.7160 13.7720 13.6 13.6 13.5800 13.7200 8.0000 10.0000
08/06/2020 01:30:00 2020-08-05 18:30:00 2.4656 82.06 1471.20 18.6030 4.4500 21.4 -999.0000 4.4 -999.0 -99.0 9.4790 -999.0000 0.011 12.7150 13.7820 13.6 13.7 13.2800 13.3500 10.0000 7.0000
08/06/2020 01:15:00 2020-08-05 18:15:00 2.4379 82.06 1554.70 18.6970 4.4500 22.1 -999.0000 4.4 -999.0 -99.0 9.4830 -999.0000 0.003 12.7170 13.7720 13.5 13.6 13.3800 13.4500 11.0000 2.0000
08/06/2020 01:00:00 2020-08-05 18:00:00 2.4795 82.06 1685.70 19.0890 4.4490 22.6 -999.0000 4.4 -999.0 -99.0 9.4890 -999.0000 0.001 12.7180 13.7910 13.6 13.6 13.4700 13.5500 1.0000 4.0000
08/06/2020 00:45:00 2020-08-05 17:45:00 2.4518 82.06 1798.10 19.2120 4.4460 23.3 -999.0000 4.4 -999.0 -99.0 9.4900 -999.0000 0.002 12.7190 13.7800 13.6 13.7 13.5700 13.7000 10.0000 10.0000
08/06/2020 00:30:00 2020-08-05 17:30:00 2.4379 82.06 2069.90 19.5340 4.4440 24.2 -999.0000 4.6 -999.0 -99.0 9.4870 -999.0000 0.004 12.7180 13.7730 13.6 13.7 13.5400 13.6300 7.0000 3.0000
08/06/2020 00:15:00 2020-08-05 17:15:00 2.4541 82.06 1564.00 19.9590 4.4370 24.9 -999.0000 4.8 -999.0 -99.0 9.4810 -999.0000 0.010 12.7190 13.7810 13.6 13.7 13.6200 13.7600 8.0000 3.0000
08/06/2020 00:00:00 2020-08-05 17:00:00 2.3408 82.06 883.30 20.3710 4.4260 25.6 -999.0000 5 -999.0 -99.0 9.4680 -999.0000 0.007 12.7180 13.7310 13.6 13.7 13.5300 13.6600 11.0000 11.0000
08/05/2020 23:45:00 2020-08-05 16:45:00 2.2161 82.06 699.20 20.8610 4.4100 26.4 -999.0000 5.1 -999.0 -99.0 9.4670 -999.0000 0.004 12.7190 13.6780 13.6 13.6 13.6000 13.7400 8.0000 7.0000
08/05/2020 23:30:00 2020-08-05 16:30:00 2.1906 82.06 630.50 20.9310 4.3950 27.5 -999.0000 5.3 -999.0 -99.0 9.4570 -999.0000 -0.004 12.7210 13.6690 13.5 13.6 13.5500 13.6600 6.0000 13.0000
08/05/2020 23:15:00 2020-08-05 16:15:00 2.1814 82.06 551.80 21.2460 4.3820 28.7 -999.0000 5.4 -999.0 -99.0 9.4560 -999.0000 -0.005 12.7200 13.6640 13.4 13.4 13.6000 13.7400 4.0000 6.0000
08/05/2020 23:00:00 2020-08-05 16:00:00 2.1121 82.06 561.70 21.6540 4.3690 29.7 -999.0000 5.5 -999.0 -99.0 9.4550 -999.0000 0.008 12.7210 13.6350 13.3 19.4 13.6000 13.7600 5.0000 1.0000
08/05/2020 22:45:00 2020-08-05 15:45:00 2.1074 82.06 636.90 22.2470 4.3550 31.0 -999.0000 5.5 -999.0 -99.0 9.4400 -999.0000 0.007 12.7210 13.6330 13.3 19.3 13.6800 13.9100 10.0000 10.0000
08/05/2020 22:30:00 2020-08-05 15:30:00 2.1282 82.06 743.60 22.6050 4.3400 31.8 -999.0000 5.5 -999.0 -99.0 9.4360 -999.0000 -0.001 12.7210 13.6420 13.3 19.4 13.6700 13.8700 9.0000 12.0000
08/05/2020 22:15:00 2020-08-05 15:15:00 2.1421 82.06 881.80 22.9900 4.3240 33.0 -999.0000 5.6 -999.0 -99.0 9.4270 -999.0000 0.000 12.7210 13.6480 13.3 20.6 13.6500 13.8500 0.0000 8.0000
08/05/2020 22:00:00 2020-08-05 15:00:00 2.1999 82.06 1020.30 23.9480 4.3060 34.3 -999.0000 5.7 -999.0 -99.0 9.4300 -999.0000 0.017 12.7200 13.6720 13.4 19.0 13.6300 13.8000 7.0000 4.0000
08/05/2020 21:45:00 2020-08-05 14:45:00 2.2184 82.06 923.40 24.7670 4.2860 34.9 -999.0000 5.9 -999.0 -99.0 9.4270 -999.0000 0.016 12.7200 13.6800 13.6 18.2 13.6700 14.3300 5.0000 10.0000
08/05/2020 21:30:00 2020-08-05 14:30:00 2.1906 82.06 622.30 25.1040 4.2660 34.4 -999.0000 6 -999.0 -99.0 9.4170 -999.0000 0.014 12.7220 13.6700 13.3 19.5 13.6700 16.9100 6.0000 7.0000
08/05/2020 21:15:00 2020-08-05 14:15:00 2.1514 82.06 556.00 24.8770 4.2470 33.7 -999.0000 6.3 -999.0 -99.0 9.4150 -999.0000 0.016 12.7230 13.6540 13.3 19.6 13.6800 17.2500 5.0000 12.0000
08/05/2020 21:00:00 2020-08-05 14:00:00 2.1282 82.06 582.20 25.5210 4.2290 33.2 -999.0000 6.5 -999.0 -99.0 9.4180 -999.0000 -0.020 12.7240 13.6450 13.5 19.6 13.6800 17.3000 8.0000 8.0000
08/05/2020 20:45:00 2020-08-05 13:45:00 2.1860 82.06 537.00 25.0820 4.2110 33.0 -999.0000 6.4 -999.0 -99.0 9.4160 -999.0000 -0.012 12.7260 13.6720 13.3 19.5 13.6800 17.8900 8.0000 2.0000
08/05/2020 20:30:00 2020-08-05 13:30:00 2.1583 82.06 478.10 24.6900 4.1940 33.4 -999.0000 6.2 -999.0 -99.0 9.4030 -999.0000 -0.020 12.7280 13.6620 13.4 19.5 13.6900 18.8400 9.0000 7.0000
08/05/2020 20:15:00 2020-08-05 13:15:00 2.1490 82.06 441.50 24.7060 4.1760 34.3 -999.0000 6 -999.0 -99.0 9.4040 -999.0000 0.011 12.7290 13.6590 13.6 19.6 13.7000 18.7200 2.0000 10.0000
08/05/2020 20:00:00 2020-08-05 13:00:00 2.0982 82.06 447.50 24.1100 4.1580 35.6 -999.0000 5.9 -999.0 -99.0 9.4010 -999.0000 0.001 12.7320 13.6400 13.5 19.5 13.7000 18.5900 8.0000 5.0000
08/05/2020 19:45:00 2020-08-05 12:45:00 2.1490 82.06 449.10 24.2140 4.1390 36.3 -999.0000 6 -999.0 -99.0 9.3950 -999.0000 0.011 12.7340 13.6640 13.4 19.5 13.7200 18.5800 10.0000 8.0000
08/05/2020 19:30:00 2020-08-05 12:30:00 2.0820 82.06 417.80 24.1350 4.1220 36.5 -999.0000 6 -999.0 -99.0 9.3940 -999.0000 0.001 12.7350 13.6360 13.4 19.5 13.7300 18.6600 10.0000 13.0000
08/05/2020 19:15:00 2020-08-05 12:15:00 2.0589 82.06 396.20 23.6650 4.1060 36.3 -999.0000 6.1 -999.0 -99.0 9.3860 -999.0000 0.008 12.7380 13.6290 13.5 19.6 13.7200 18.7400 9.0000 7.0000
08/05/2020 19:00:00 2020-08-05 12:00:00 2.0451 82.06 320.80 23.1540 4.0910 35.6 -999.0000 6.1 -999.0 -99.0 9.3830 -999.0000 0.019 12.7410 13.6260 13.4 19.6 13.7300 18.9700 8.0000 10.0000
08/05/2020 18:45:00 2020-08-05 11:45:00 2.0243 82.06 306.10 23.2120 4.0780 34.6 -999.0000 6.1 -999.0 -99.0 9.3790 -999.0000 0.006 12.7440 13.6200 13.4 19.6 13.7400 19.3900 8.0000 10.0000
08/05/2020 18:30:00 2020-08-05 11:30:00 2.0220 82.06 292.60 22.7840 4.0670 33.0 -999.0000 5.9 -999.0 -99.0 9.3870 -999.0000 0.000 12.7460 13.6210 13.5 19.7 13.7400 19.0200 7.0000 11.0000
08/05/2020 18:15:00 2020-08-05 11:15:00 2.0150 82.06 319.20 22.0430 4.0570 30.4 -999.0000 5.7 -999.0 -99.0 9.3850 -999.0000 0.010 12.7480 13.6200 13.5 19.7 13.7200 13.9300 4.0000 11.0000
08/05/2020 18:00:00 2020-08-05 11:00:00 1.9873 82.06 347.50 21.2000 4.0490 27.5 -999.0000 5.5 -999.0 -99.0 9.3810 -999.0000 0.008 12.7510 13.6110 13.5 19.8 13.2200 13.3500 3.0000 9.0000
08/05/2020 17:45:00 2020-08-05 10:45:00 2.0035 82.06 373.90 20.8910 4.0430 23.7 -999.0000 5.2 -999.0 -99.0 9.3820 -999.0000 -0.006 12.7540 13.6210 13.5 19.8 13.1400 13.2600 4.0000 6.0000
08/05/2020 17:30:00 2020-08-05 10:30:00 2.0474 82.06 415.80 20.2160 4.0380 19.8 -999.0000 5.1 -999.0 -99.0 9.3800 -999.0000 -0.002 12.7550 13.6410 13.5 20.0 13.0800 13.2000 2.0000 8.0000
08/05/2020 17:15:00 2020-08-05 10:15:00 2.0705 82.06 372.70 19.0520 4.0340 17.1 -999.0000 5 -999.0 -99.0 9.3770 -999.0000 -0.001 12.7560 13.6520 13.7 20.2 13.0400 13.1600 2.0000 7.0000
08/05/2020 17:00:00 2020-08-05 10:00:00 2.0381 82.06 289.00 18.0250 4.0320 15.1 -999.0000 4.8 -999.0 -99.0 9.3770 -999.0000 -0.006 12.7570 13.6390 13.8 14.3 13.0200 13.1100 4.0000 6.0000
08/05/2020 16:45:00 2020-08-05 09:45:00 1.9896 82.06 273.60 16.3250 4.0330 13.9 -999.0000 4.6 -999.0 -99.0 9.3820 -999.0000 -0.004 12.7590 13.6200 13.1 13.2 12.9800 13.0900 6.0000 10.0000
08/05/2020 16:30:00 2020-08-05 09:30:00 1.9804 82.06 274.20 15.1520 4.0350 12.9 -999.0000 4.4 -999.0 -99.0 9.3750 -999.0000 0.002 12.7590 13.6160 13.0 13.0 12.9600 13.0600 2.0000 8.0000
08/05/2020 16:15:00 2020-08-05 09:15:00 1.9642 82.06 274.40 14.3100 4.0380 12.2 -999.0000 4.2 -999.0 -99.0 9.3850 -999.0000 0.005 12.7600 13.6100 13.0 13.0 12.9400 13.0300 6.0000 11.0000
08/05/2020 16:00:00 2020-08-05 09:00:00 1.9572 82.06 290.60 13.6420 4.0440 11.5 -999.0000 3.9 -999.0 -99.0 9.3920 -999.0000 -0.001 12.7620 13.6090 13.0 13.0 12.9300 13.0000 3.0000 8.0000
08/05/2020 15:45:00 2020-08-05 08:45:00 1.9942 82.06 299.60 13.1000 4.0500 10.8 -999.0000 3.8 -999.0 -99.0 9.3980 -999.0000 -0.005 12.7630 13.6260 12.9 12.9 12.9100 12.9600 7.0000 6.0000
08/05/2020 15:30:00 2020-08-05 08:30:00 1.9549 82.06 299.30 12.4300 4.0560 10.3 -999.0000 3.6 -999.0 -99.0 9.4130 -999.0000 -0.002 12.7640 13.6100 13.0 13.0 12.8800 12.9600 6.0000 9.0000
08/05/2020 15:15:00 2020-08-05 08:15:00 1.9041 82.06 332.00 11.4600 4.0620 9.8 -999.0000 3.4 -999.0 -99.0 9.4180 -999.0000 0.001 12.7630 13.5870 13.0 13.0 12.8600 12.9400 7.0000 8.0000
08/05/2020 15:00:00 2020-08-05 08:00:00 1.9249 82.06 355.60 10.7040 4.0680 9.4 -999.0000 3.3 -999.0 -99.0 9.4320 -999.0000 0.001 12.7630 13.5960 13.0 13.0 12.8500 12.9000 0.0000 9.0000
08/05/2020 14:45:00 2020-08-05 07:45:00 1.9064 82.06 352.00 10.2200 4.0740 9.4 -999.0000 3.1 -999.0 -99.0 9.4360 -999.0000 -0.003 12.7630 13.5880 13.0 13.0 12.8300 12.5900 1.0000 5.0000
08/05/2020 14:30:00 2020-08-05 07:30:00 1.9457 82.06 331.20 10.0740 4.0810 9.4 -999.0000 3.1 -999.0 -99.0 9.4500 -999.0000 -0.002 12.7640 13.6060 13.0 13.0 12.8500 12.0200 1.0000 9.0000
08/05/2020 14:15:00 2020-08-05 07:15:00 1.9688 82.06 329.70 10.0360 4.0880 9.4 -999.0000 3.1 -999.0 -99.0 9.4390 -999.0000 -0.007 12.7660 13.6180 12.9 13.0 12.8400 12.9000 5.0000 6.0000
08/05/2020 14:00:00 2020-08-05 07:00:00 1.9341 82.06 338.20 10.0100 4.0960 9.4 -999.0000 3 -999.0 -99.0 9.4540 -999.0000 -0.007 12.7670 13.6040 13.0 13.0 12.8300 12.5900 6.0000 8.0000
08/05/2020 13:45:00 2020-08-05 06:45:00 1.9596 82.06 361.80 9.9630 4.1050 9.4 -999.0000 3 -999.0 -99.0 9.4480 -999.0000 -0.003 12.7670 13.6150 13.0 13.0 12.8200 11.2200 1.0000 8.0000
08/05/2020 13:30:00 2020-08-05 06:30:00 2.0196 82.06 349.10 10.0350 4.1130 9.6 -999.0000 3 -999.0 -99.0 9.4450 -999.0000 -0.005 12.7670 13.6410 13.0 13.0 12.8400 8.9900 6.0000 10.0000
08/05/2020 13:15:00 2020-08-05 06:15:00 2.0312 82.06 331.10 10.2080 4.1210 9.8 -999.0000 3 -999.0 -99.0 9.4610 -999.0000 -0.004 12.7660 13.6450 12.9 12.9 12.8400 3.7100 4.0000 7.0000
08/05/2020 13:00:00 2020-08-05 06:00:00 1.9942 82.06 316.50 10.4670 4.1300 9.8 -999.0000 3.1 -999.0 -99.0 9.4560 -999.0000 -0.005 12.7670 13.6300 13.0 12.9 12.8400 0.0000 5.0000 9.0000
08/05/2020 12:45:00 2020-08-05 05:45:00 1.9619 82.06 298.90 10.6320 4.1380 9.8 -999.0000 3.1 -999.0 -99.0 9.4640 -999.0000 -0.005 12.7660 13.6150 13.0 11.9 12.8400 0.0000 5.0000 9.0000
08/05/2020 12:30:00 2020-08-05 05:30:00 1.9757 82.06 276.50 10.5620 4.1480 9.8 -999.0000 3.2 -999.0 -99.0 9.4720 -999.0000 -0.003 12.7660 13.6210 12.9 5.7 12.8500 0.0000 3.0000 9.0000
08/05/2020 12:15:00 2020-08-05 05:15:00 1.9734 82.06 270.30 10.4060 4.1570 9.6 -999.0000 3.2 -999.0 -99.0 9.4760 -999.0000 -0.004 12.7680 13.6220 12.9 0.4 12.8400 0.0000 5.0000 2.0000
08/05/2020 12:00:00 2020-08-05 05:00:00 1.9619 82.06 284.20 10.2880 4.1660 9.4 -999.0000 3.1 -999.0 -99.0 9.4680 -999.0000 -0.003 12.7680 13.6170 13.0 0.1 12.8500 0.0000 5.0000 8.0000
08/05/2020 11:45:00 2020-08-05 04:45:00 2.0289 82.06 298.10 10.2230 4.1750 9.4 -999.0000 3.1 -999.0 -99.0 9.4770 -999.0000 -0.005 12.7690 13.6470 13.0 0.1 12.8400 0.0000 6.0000 7.0000
08/05/2020 11:30:00 2020-08-05 04:30:00 1.9757 82.06 304.50 10.3070 4.1840 9.8 -999.0000 3.1 -999.0 -99.0 9.4790 -999.0000 -0.006 12.7690 13.6240 13.0 0.1 12.8500 0.0000 4.0000 12.0000
08/05/2020 11:15:00 2020-08-05 04:15:00 1.9965 82.06 320.90 10.3560 4.1930 9.8 -999.0000 3.1 -999.0 -99.0 9.4810 -999.0000 -0.003 12.7700 13.6340 13.0 0.1 12.8500 0.0000 1.0000 8.0000
08/05/2020 11:00:00 2020-08-05 04:00:00 2.0127 82.06 340.00 10.3850 4.2030 9.9 -999.0000 3.1 -999.0 -99.0 9.4850 -999.0000 -0.004 12.7690 13.6400 13.0 0.1 12.8500 0.0000 2.0000 9.0000
08/05/2020 10:45:00 2020-08-05 03:45:00 2.0104 82.06 342.00 10.4310 4.2130 10.1 -999.0000 3.1 -999.0 -99.0 9.4820 -999.0000 -0.009 12.7710 13.6410 13.0 0.1 12.8400 0.0000 5.0000 5.0000
08/05/2020 10:30:00 2020-08-05 03:30:00 2.0058 82.06 367.60 10.6620 4.2230 10.3 -999.0000 3.1 -999.0 -99.0 9.4900 -999.0000 -0.007 12.7720 13.6400 13.0 0.1 12.8500 0.0000 7.0000 11.0000
08/05/2020 10:15:00 2020-08-05 03:15:00 2.0220 82.06 430.40 10.8710 4.2330 10.3 -999.0000 3 -999.0 -99.0 9.4860 -999.0000 -0.001 12.7720 13.6470 13.0 0.1 12.8600 0.0000 6.0000 7.0000
08/05/2020 10:00:00 2020-08-05 03:00:00 2.0543 82.06 450.40 10.9910 4.2420 10.5 -999.0000 3 -999.0 -99.0 9.4980 -999.0000 -0.004 12.7730 13.6620 13.0 0.1 12.8600 0.0000 5.0000 5.0000
08/05/2020 09:45:00 2020-08-05 02:45:00 2.0959 82.06 358.20 11.1010 4.2510 10.6 -999.0000 3.1 -999.0 -99.0 9.4910 -999.0000 -0.001 12.7730 13.6800 13.0 0.1 12.8600 0.0000 5.0000 7.0000
08/05/2020 09:30:00 2020-08-05 02:30:00 2.0566 82.06 362.80 11.2250 4.2610 10.8 -999.0000 3.1 -999.0 -99.0 9.4790 -999.0000 -0.001 12.7730 13.6630 13.0 0.1 12.8500 0.0000 4.0000 3.0000
08/05/2020 09:15:00 2020-08-05 02:15:00 2.0335 82.06 375.70 11.4050 4.2700 11.2 -999.0000 3.2 -999.0 -99.0 9.4850 -999.0000 -0.002 12.7730 13.6530 13.0 0.2 12.8600 0.0000 1.0000 9.0000
08/05/2020 09:00:00 2020-08-05 02:00:00 2.0427 82.06 400.00 11.5860 4.2800 11.2 -999.0000 3.2 -999.0 -99.0 9.4800 -999.0000 -0.006 12.7730 13.6570 13.0 0.1 12.8600 0.0000 5.0000 6.0000
08/05/2020 08:45:00 2020-08-05 01:45:00 2.0497 82.06 390.00 11.6320 4.2890 11.3 -999.0000 3.2 -999.0 -99.0 9.4770 -999.0000 -0.001 12.7720 13.6590 13.0 0.1 12.8600 0.0000 4.0000 9.0000
08/05/2020 08:30:00 2020-08-05 01:30:00 2.0566 82.06 376.30 11.7210 4.2980 11.7 -999.0000 3.2 -999.0 -99.0 9.4750 -999.0000 -0.004 12.7720 13.6620 13.0 0.1 12.8800 0.0000 5.0000 11.0000
08/05/2020 08:15:00 2020-08-05 01:15:00 2.0705 82.06 367.90 11.9000 4.3080 12.0 -999.0000 3.3 -999.0 -99.0 9.4780 -999.0000 -0.001 12.7730 13.6690 13.1 0.1 12.8800 0.0000 6.0000 11.0000
08/05/2020 08:00:00 2020-08-05 01:00:00 2.0867 82.06 357.30 12.1130 4.3170 12.2 -999.0000 3.4 -999.0 -99.0 9.4780 -999.0000 -0.003 12.7740 13.6770 13.2 0.1 12.8800 0.0000 6.0000 6.0000
08/05/2020 07:45:00 2020-08-05 00:45:00 2.0243 82.06 354.30 12.2940 4.3260 12.5 -999.0000 3.4 -999.0 -99.0 9.4810 -999.0000 0.001 12.7750 13.6510 13.2 0.0 12.8600 0.0000 5.0000 9.0000
08/05/2020 07:30:00 2020-08-05 00:30:00 2.0566 82.06 358.70 12.5080 4.3360 12.7 -999.0000 3.3 -999.0 -99.0 9.4730 -999.0000 -0.001 12.7770 13.6670 13.2 0.1 12.8700 0.0000 6.0000 5.0000
08/05/2020 07:15:00 2020-08-05 00:15:00 2.0497 82.06 385.10 12.7890 4.3440 12.9 -999.0000 3.3 -999.0 -99.0 9.4680 -999.0000 -0.002 12.7790 13.6660 13.1 0.1 12.8800 0.0000 5.0000 8.0000
08/05/2020 07:00:00 2020-08-05 00:00:00 2.0335 82.06 428.60 13.0660 4.3520 13.2 -999.0000 3.3 -999.0 -99.0 9.4590 -999.0000 -0.001 12.7800 13.6600 13.2 0.1 12.8800 0.0000 5.0000 4.0000
08/05/2020 06:45:00 2020-08-04 23:45:00 2.1490 82.06 449.20 13.2450 4.3610 13.4 -999.0000 3.3 -999.0 -99.0 9.4580 -999.0000 -0.001 12.7800 13.7100 13.2 0.1 12.9000 0.0000 5.0000 7.0000
08/05/2020 06:30:00 2020-08-04 23:30:00 2.1467 82.06 418.70 13.4070 4.3690 13.8 -999.0000 3.3 -999.0 -99.0 9.4530 -999.0000 -0.001 12.7810 13.7100 13.2 0.1 12.8800 0.0000 3.0000 8.0000
08/05/2020 06:15:00 2020-08-04 23:15:00 2.1282 82.06 420.90 13.5970 4.3760 14.1 -999.0000 3.4 -999.0 -99.0 9.4410 -999.0000 0.001 12.7820 13.7030 13.2 0.1 12.8800 0.0000 7.0000 11.0000
08/05/2020 06:00:00 2020-08-04 23:00:00 2.1213 82.06 442.80 13.8880 4.3830 14.3 -999.0000 3.5 -999.0 -99.0 9.4360 -999.0000 0.002 12.7830 13.7010 13.2 0.1 12.8900 0.0000 5.0000 7.0000
08/05/2020 05:45:00 2020-08-04 22:45:00 2.1421 82.06 453.60 14.2110 4.3900 14.8 -999.0000 3.5 -999.0 -99.0 9.4250 -999.0000 0.000 12.7840 13.7110 13.2 0.1 12.8900 0.0000 7.0000 11.0000
08/05/2020 05:30:00 2020-08-04 22:30:00 2.1098 82.06 495.70 14.4870 4.3980 15.1 -999.0000 3.6 -999.0 -99.0 9.4220 -999.0000 -0.003 12.7860 13.6990 13.2 0.1 12.9000 0.0000 5.0000 8.0000
08/05/2020 05:15:00 2020-08-04 22:15:00 2.1236 82.06 514.40 14.7650 4.4050 15.5 -999.0000 3.7 -999.0 -99.0 9.4120 -999.0000 -0.004 12.7870 13.7060 13.2 0.1 12.8900 0.0000 10.0000 6.0000
08/05/2020 05:00:00 2020-08-04 22:00:00 2.1375 82.06 497.10 15.0600 4.4100 15.8 -999.0000 3.7 -999.0 -99.0 9.3990 -999.0000 -0.003 12.7900 13.7150 13.2 0.1 12.9100 0.0000 8.0000 8.0000
08/05/2020 04:45:00 2020-08-04 21:45:00 2.1213 82.06 451.60 15.2830 4.4150 16.4 -999.0000 3.8 -999.0 -99.0 9.4000 -999.0000 0.000 12.7910 13.7090 13.2 0.1 12.9000 0.0000 10.0000 9.0000
08/05/2020 04:30:00 2020-08-04 21:30:00 2.1259 82.06 434.50 15.6490 4.4190 17.1 -999.0000 3.8 -999.0 -99.0 9.3830 -999.0000 -0.004 12.7900 13.7100 13.3 0.1 12.9100 0.0000 8.0000 10.0000
08/05/2020 04:15:00 2020-08-04 21:15:00 2.0890 82.06 441.10 16.0140 4.4220 17.4 -999.0000 3.8 -999.0 -99.0 9.3770 -999.0000 -0.004 12.7910 13.6950 13.3 0.2 12.9200 0.0000 8.0000 6.0000
08/05/2020 04:00:00 2020-08-04 21:00:00 2.1282 82.06 490.40 16.4840 4.4230 17.9 -999.0000 3.8 -999.0 -99.0 9.3800 -999.0000 -0.005 12.7900 13.7110 13.3 2.1 12.9200 0.0000 9.0000 8.0000
08/05/2020 03:45:00 2020-08-04 20:45:00 2.1352 82.06 516.60 17.0860 4.4240 18.4 -999.0000 3.9 -999.0 -99.0 9.3620 -999.0000 -0.002 12.7890 13.7130 13.3 9.7 12.9300 0.0200 6.0000 7.0000
08/05/2020 03:30:00 2020-08-04 20:30:00 2.1537 82.06 521.00 17.6480 4.4230 19.1 -999.0000 4 -999.0 -99.0 9.3560 -999.0000 -0.003 12.7880 13.7200 13.3 13.2 12.9400 6.8300 7.0000 10.0000
08/05/2020 03:15:00 2020-08-04 20:15:00 2.1098 82.06 520.00 18.1580 4.4220 19.7 -999.0000 4.2 -999.0 -99.0 9.3440 -999.0000 -0.001 12.7880 13.7010 13.3 13.3 12.9600 9.1900 5.0000 5.0000
08/05/2020 03:00:00 2020-08-04 20:00:00 2.0612 82.06 535.00 18.6010 4.4200 20.2 -999.0000 4.3 -999.0 -99.0 9.3390 -999.0000 0.000 12.7860 13.6780 13.4 13.4 12.9700 10.1900 9.0000 7.0000
08/05/2020 02:45:00 2020-08-04 19:45:00 2.1213 82.06 651.50 18.9050 4.4150 20.7 -999.0000 4.4 -999.0 -99.0 9.3170 -999.0000 -0.001 12.7860 13.7040 13.4 13.4 12.9800 10.9900 7.0000 8.0000
08/05/2020 02:30:00 2020-08-04 19:30:00 2.1421 82.06 795.90 19.2380 4.4100 21.2 -999.0000 4.5 -999.0 -99.0 9.3080 -999.0000 0.004 12.7860 13.7130 13.4 13.4 13.0100 11.6800 6.0000 6.0000
08/05/2020 02:15:00 2020-08-04 19:15:00 2.1768 82.06 894.80 19.5420 4.4020 21.7 -999.0000 4.7 -999.0 -99.0 9.3110 -999.0000 0.002 12.7860 13.7280 13.4 13.5 13.0500 12.8700 9.0000 9.0000
08/05/2020 02:00:00 2020-08-04 19:00:00 2.3270 82.06 904.10 19.8310 4.3910 22.3 -999.0000 4.9 -999.0 -99.0 9.3070 -999.0000 0.015 12.7850 13.7920 13.5 13.5 13.0800 13.1300 7.0000 9.0000
08/05/2020 01:45:00 2020-08-04 18:45:00 2.2322 82.06 690.60 20.0740 4.3780 23.0 -999.0000 5.2 -999.0 -99.0 9.3000 -999.0000 0.014 12.7850 13.7510 13.5 13.6 13.1000 12.6700 4.0000 10.0000
08/05/2020 01:30:00 2020-08-04 18:30:00 2.1745 82.06 529.70 20.4150 4.3640 23.7 -999.0000 5.4 -999.0 -99.0 9.3030 -999.0000 0.015 12.7840 13.7250 13.5 13.5 13.2000 13.2600 8.0000 12.0000
08/05/2020 01:15:00 2020-08-04 18:15:00 2.1074 82.06 569.30 20.9110 4.3510 24.4 -999.0000 5.4 -999.0 -99.0 9.2940 -999.0000 -0.001 12.7840 13.6960 13.6 13.6 13.3000 13.3600 7.0000 11.0000
08/05/2020 01:00:00 2020-08-04 18:00:00 2.1190 82.06 640.10 21.2450 4.3390 25.0 -999.0000 5.4 -999.0 -99.0 9.3010 -999.0000 0.008 12.7840 13.7010 13.6 13.6 13.3700 13.4400 3.0000 5.0000
08/05/2020 00:45:00 2020-08-04 17:45:00 2.1745 82.06 682.90 21.5820 4.3260 25.9 -999.0000 5.5 -999.0 -99.0 9.2920 -999.0000 -0.055 12.7850 13.7260 13.6 13.6 13.4600 13.5400 6.0000 7.0000
08/05/2020 00:30:00 2020-08-04 17:30:00 2.1837 82.06 688.30 22.0920 4.3110 26.8 -999.0000 5.7 -999.0 -99.0 9.2720 -999.0000 0.013 12.7830 13.7280 13.6 13.7 13.5300 13.6200 8.0000 7.0000
08/05/2020 00:15:00 2020-08-04 17:15:00 2.1837 82.06 648.50 22.6350 4.2960 27.5 -999.0000 5.7 -999.0 -99.0 9.2750 -999.0000 0.012 12.7840 13.7290 13.6 13.7 13.5400 13.6600 9.0000 6.0000
08/05/2020 00:00:00 2020-08-04 17:00:00 2.2207 82.06 620.90 22.9280 4.2810 28.7 -999.0000 5.8 -999.0 -99.0 9.2820 -999.0000 0.011 12.7820 13.7430 13.6 13.7 13.5500 13.6600 5.0000 11.0000
08/04/2020 23:45:00 2020-08-04 16:45:00 2.1698 82.06 607.10 23.1750 4.2650 29.9 -999.0000 6 -999.0 -99.0 9.2610 -999.0000 0.013 12.7820 13.7210 13.6 13.6 13.4100 13.2800 2.0000 11.0000
08/04/2020 23:30:00 2020-08-04 16:30:00 2.1837 82.06 606.20 23.6850 4.2490 31.6 -999.0000 6.1 -999.0 -99.0 9.2670 -999.0000 0.010 12.7820 13.7270 13.5 13.5 13.5200 13.6200 8.0000 9.0000
08/04/2020 23:15:00 2020-08-04 16:15:00 2.1629 82.06 571.80 24.2260 4.2330 33.9 -999.0000 6 -999.0 -99.0 9.2650 -999.0000 0.008 12.7830 13.7190 13.4 13.5 13.5600 13.6800 8.0000 8.0000
08/04/2020 23:00:00 2020-08-04 16:00:00 2.1236 82.06 546.50 24.6860 4.2170 36.9 -999.0000 6 -999.0 -99.0 9.2530 -999.0000 0.005 12.7830 13.7020 13.5 13.5 13.5500 13.6800 3.0000 4.0000
08/04/2020 22:45:00 2020-08-04 15:45:00 2.1167 82.06 531.60 25.5690 4.2000 39.5 -999.0000 6 -999.0 -99.0 9.2530 -999.0000 0.001 12.7830 13.6990 13.2 19.8 13.5700 13.7000 8.0000 6.0000
08/04/2020 22:30:00 2020-08-04 15:30:00 2.1329 82.06 508.60 26.6020 4.1830 40.5 -999.0000 6 -999.0 -99.0 9.2540 -999.0000 0.005 12.7820 13.7050 13.4 19.8 13.6000 13.7200 8.0000 10.0000
08/04/2020 22:15:00 2020-08-04 15:15:00 2.1005 82.06 514.30 27.0390 4.1660 40.0 -999.0000 6 -999.0 -99.0 9.2510 -999.0000 0.003 12.7820 13.6910 13.3 19.7 13.6200 13.7700 8.0000 13.0000
08/04/2020 22:00:00 2020-08-04 15:00:00 2.1098 82.06 587.20 27.3130 4.1480 38.8 -999.0000 5.9 -999.0 -99.0 9.2580 -999.0000 0.017 12.7830 13.6960 13.2 19.5 13.6800 18.8100 5.0000 8.0000
08/04/2020 21:45:00 2020-08-04 14:45:00 2.1421 82.06 628.10 27.3090 4.1300 37.7 -999.0000 5.8 -999.0 -99.0 9.2520 -999.0000 0.006 12.7850 13.7120 13.3 19.5 13.7000 19.4700 8.0000 10.0000
08/04/2020 21:30:00 2020-08-04 14:30:00 2.2369 82.06 638.00 27.8650 4.1120 36.3 -999.0000 5.8 -999.0 -99.0 9.2610 -999.0000 -0.001 12.7850 13.7530 13.4 19.4 13.6800 16.9000 6.0000 8.0000
08/04/2020 21:15:00 2020-08-04 14:15:00 2.2045 82.06 618.60 27.5790 4.0930 35.1 -999.0000 5.8 -999.0 -99.0 9.2700 -999.0000 -0.009 12.7870 13.7410 13.3 19.3 13.6900 17.3500 2.0000 8.0000
08/04/2020 21:00:00 2020-08-04 14:00:00 2.1976 82.06 565.90 26.5370 4.0750 34.1 -999.0000 5.9 -999.0 -99.0 9.2750 -999.0000 0.027 12.7890 13.7400 13.3 19.4 13.6800 17.2700 6.0000 11.0000
08/04/2020 20:45:00 2020-08-04 13:45:00 2.1675 82.06 529.80 27.0830 4.0580 33.4 -999.0000 6 -999.0 -99.0 9.2780 -999.0000 0.019 12.7910 13.7290 13.3 19.2 13.7000 17.5600 8.0000 3.0000
08/04/2020 20:30:00 2020-08-04 13:30:00 2.1768 82.06 493.90 27.0000 4.0390 33.4 -999.0000 6 -999.0 -99.0 9.2820 -999.0000 0.002 12.7920 13.7340 13.3 19.3 13.7000 18.5300 6.0000 6.0000
08/04/2020 20:15:00 2020-08-04 13:15:00 2.0867 82.06 462.80 26.1770 4.0220 33.4 -999.0000 6 -999.0 -99.0 9.2950 -999.0000 0.000 12.7940 13.6970 13.4 19.4 13.7000 18.5500 6.0000 6.0000
08/04/2020 20:00:00 2020-08-04 13:00:00 2.0659 82.06 437.60 25.5580 4.0050 33.4 -999.0000 5.9 -999.0 -99.0 9.2900 -999.0000 0.003 12.7970 13.6910 13.4 19.4 13.7200 18.6000 2.0000 7.0000
08/04/2020 19:45:00 2020-08-04 12:45:00 2.0820 82.06 425.80 25.8010 3.9890 33.6 -999.0000 5.9 -999.0 -99.0 9.2960 -999.0000 0.022 12.7960 13.6970 13.4 19.4 13.7200 18.4500 4.0000 6.0000
08/04/2020 19:30:00 2020-08-04 12:30:00 2.0451 82.06 373.50 25.2570 3.9730 33.6 -999.0000 5.9 -999.0 -99.0 9.2980 -999.0000 0.016 12.7970 13.6820 13.5 19.4 13.7400 18.5300 3.0000 6.0000
08/04/2020 19:15:00 2020-08-04 12:15:00 2.0427 82.06 337.60 24.5490 3.9590 33.2 -999.0000 5.8 -999.0 -99.0 9.3020 -999.0000 0.004 12.8010 13.6850 13.4 19.4 13.7300 18.7100 7.0000 10.0000
08/04/2020 19:00:00 2020-08-04 12:00:00 2.0289 82.06 347.30 24.7850 3.9460 32.5 -999.0000 5.7 -999.0 -99.0 9.3020 -999.0000 0.014 12.8000 13.6780 13.5 19.5 13.7500 19.0500 8.0000 9.0000
08/04/2020 18:45:00 2020-08-04 11:45:00 2.0035 82.06 359.20 23.7770 3.9360 31.8 -999.0000 5.4 -999.0 -99.0 9.3170 -999.0000 0.007 12.8020 13.6690 13.5 19.5 13.7600 19.4000 8.0000 11.0000
08/04/2020 18:30:00 2020-08-04 11:30:00 2.0427 82.06 377.70 22.5980 3.9270 30.8 -999.0000 5.3 -999.0 -99.0 9.3100 -999.0000 0.000 12.8060 13.6900 13.5 19.6 13.7500 19.1500 -1.0000 3.0000
08/04/2020 18:15:00 2020-08-04 11:15:00 2.0266 82.06 352.20 22.2380 3.9120 29.0 -999.0000 5.1 -999.0 -99.0 9.3270 -999.0000 0.014 12.8090 13.6860 13.5 19.7 13.7600 17.4600 5.0000 8.0000
08/04/2020 18:00:00 2020-08-04 11:00:00 2.0220 82.06 311.50 21.2050 3.9120 26.4 -999.0000 5 -999.0 -99.0 9.3270 -999.0000 0.014 12.8110 13.6860 13.6 19.8 13.2600 13.4000 2.0000 10.0000
08/04/2020 17:45:00 2020-08-04 10:45:00 1.9988 82.06 292.90 20.8500 3.9070 22.6 -999.0000 4.8 -999.0 -99.0 9.3210 -999.0000 0.010 12.8120 13.6770 13.6 19.8 13.1600 13.2900 5.0000 8.0000
08/04/2020 17:30:00 2020-08-04 10:30:00 1.9665 82.06 304.60 20.2330 3.9040 18.1 -999.0000 4.6 -999.0 -99.0 9.3270 -999.0000 0.000 12.8120 13.6630 13.6 19.9 13.1000 13.2200 6.0000 7.0000
08/04/2020 17:15:00 2020-08-04 10:15:00 1.9711 82.06 312.60 18.9390 3.9030 15.0 -999.0000 4.3 -999.0 -99.0 9.3410 -999.0000 0.015 12.8140 13.6670 13.6 20.1 13.0600 13.1700 2.0000 6.0000
08/04/2020 17:00:00 2020-08-04 10:00:00 1.9688 82.06 333.00 16.5970 3.9020 13.2 -999.0000 4.1 -999.0 -99.0 9.3470 -999.0000 -0.009 12.8170 13.6690 13.8 14.4 13.0100 13.1300 6.0000 8.0000
08/04/2020 16:45:00 2020-08-04 09:45:00 1.9850 82.06 330.80 14.3370 3.9030 11.5 -999.0000 3.9 -999.0 -99.0 9.3580 -999.0000 0.019 12.8190 13.6780 13.1 13.1 12.9800 13.0900 6.0000 7.0000
08/04/2020 16:30:00 2020-08-04 09:30:00 1.9780 82.06 332.60 13.1300 3.9040 10.1 -999.0000 3.8 -999.0 -99.0 9.3560 -999.0000 0.000 12.8200 13.6760 13.1 13.1 12.9600 13.0700 7.0000 7.0000
08/04/2020 16:15:00 2020-08-04 09:15:00 1.9873 82.06 308.80 12.3640 3.9090 9.2 -999.0000 3.7 -999.0 -99.0 9.3640 -999.0000 0.002 12.8220 13.6820 13.0 13.1 12.9400 13.0300 6.0000 7.0000
08/04/2020 16:00:00 2020-08-04 09:00:00 1.9365 82.06 282.00 11.6120 3.9140 8.2 -999.0000 3.6 -999.0 -99.0 9.3800 -999.0000 0.001 12.8220 13.6600 13.1 13.1 12.9100 13.0000 6.0000 10.0000
08/04/2020 15:45:00 2020-08-04 08:45:00 1.8810 82.06 278.60 10.8150 3.9210 7.3 -999.0000 3.5 -999.0 -99.0 9.3870 -999.0000 0.004 12.8210 13.6350 13.1 13.2 12.9000 12.9800 6.0000 2.0000
08/04/2020 15:30:00 2020-08-04 08:30:00 1.8440 82.06 276.90 9.8820 3.9290 6.8 -999.0000 3.3 -999.0 -99.0 9.3980 -999.0000 0.003 12.8220 13.6200 13.3 13.3 12.8800 12.9600 4.0000 7.0000
08/04/2020 15:15:00 2020-08-04 08:15:00 1.8278 82.06 296.10 9.0520 3.9370 6.3 -999.0000 3.1 -999.0 -99.0 9.4010 -999.0000 0.002 12.8200 13.6110 13.2 13.2 12.8600 12.9200 4.0000 10.0000
08/04/2020 15:00:00 2020-08-04 08:00:00 1.8463 82.06 320.10 8.0300 3.9450 6.1 -999.0000 2.9 -999.0 -99.0 9.4100 -999.0000 0.000 12.8200 13.6190 13.2 13.2 12.8400 12.9000 7.0000 6.0000
08/04/2020 14:45:00 2020-08-04 07:45:00 1.8833 82.06 350.00 7.4040 3.9540 5.9 -999.0000 2.7 -999.0 -99.0 9.4270 -999.0000 -0.003 12.8180 13.6330 13.2 13.2 12.8300 12.6800 6.0000 8.0000
08/04/2020 14:30:00 2020-08-04 07:30:00 1.9780 82.06 354.30 7.0660 3.9620 5.9 -999.0000 2.6 -999.0 -99.0 9.4230 -999.0000 -0.006 12.8200 13.6760 13.1 13.2 12.8300 12.0300 2.0000 4.0000
08/04/2020 14:15:00 2020-08-04 07:15:00 1.9850 82.06 357.50 7.0270 3.9690 5.9 -999.0000 2.6 -999.0 -99.0 9.4340 -999.0000 -0.007 12.8220 13.6810 13.1 13.1 12.8400 11.8800 4.0000 7.0000
08/04/2020 14:00:00 2020-08-04 07:00:00 1.9873 82.06 337.80 7.0300 3.9750 5.9 -999.0000 2.6 -999.0 -99.0 9.4520 -999.0000 -0.006 12.8220 13.6820 13.1 13.1 12.8400 11.7200 6.0000 8.0000
08/04/2020 13:45:00 2020-08-04 06:45:00 1.9850 82.06 321.00 6.9670 3.9820 5.9 -999.0000 2.6 -999.0 -99.0 9.4500 -999.0000 -0.007 12.8220 13.6810 13.1 13.1 12.8400 11.1400 6.0000 8.0000
08/04/2020 13:30:00 2020-08-04 06:30:00 1.9711 82.06 329.20 6.9360 3.9890 6.1 -999.0000 2.6 -999.0 -99.0 9.4650 -999.0000 -0.006 12.8230 13.6760 13.1 13.1 12.8300 9.2000 4.0000 8.0000
08/04/2020 13:15:00 2020-08-04 06:15:00 1.9619 82.06 344.60 6.9700 3.9970 6.1 -999.0000 2.7 -999.0 -99.0 9.4630 -999.0000 -0.006 12.8220 13.6710 13.1 13.1 12.8400 4.5500 3.0000 9.0000
08/04/2020 13:00:00 2020-08-04 06:00:00 1.9295 82.06 295.90 7.0020 4.0050 6.1 -999.0000 2.7 -999.0 -99.0 9.4670 -999.0000 -0.006 12.8230 13.6580 13.1 13.1 12.8400 0.0000 3.0000 7.0000
08/04/2020 12:45:00 2020-08-04 05:45:00 1.9110 82.06 282.10 7.0720 4.0130 6.3 -999.0000 2.8 -999.0 -99.0 9.4850 -999.0000 -0.004 12.8230 13.6500 13.1 12.4 12.8400 0.0000 4.0000 3.0000
08/04/2020 12:30:00 2020-08-04 05:30:00 1.9411 82.06 261.00 7.1280 4.0220 6.3 -999.0000 2.9 -999.0 -99.0 9.4820 -999.0000 -0.007 12.8230 13.6630 13.1 6.2 12.8300 0.0000 6.0000 6.0000
08/04/2020 12:15:00 2020-08-04 05:15:00 1.9041 82.06 254.10 7.1920 4.0320 6.5 -999.0000 2.9 -999.0 -99.0 9.4940 -999.0000 -0.003 12.8220 13.6460 13.1 0.5 12.8400 0.0000 4.0000 9.0000
08/04/2020 12:00:00 2020-08-04 05:00:00 1.8810 82.06 270.20 7.2520 4.0440 6.5 -999.0000 2.9 -999.0 -99.0 9.4970 -999.0000 -0.006 12.8220 13.6360 13.1 0.1 12.8500 0.0000 6.0000 10.0000
08/04/2020 11:45:00 2020-08-04 04:45:00 1.8579 82.06 284.40 7.3350 4.0550 6.6 -999.0000 2.9 -999.0 -99.0 9.5090 -999.0000 -0.004 12.8220 13.6260 13.1 0.1 12.8400 0.0000 3.0000 4.0000
08/04/2020 11:30:00 2020-08-04 04:30:00 1.8625 82.06 323.00 7.4430 4.0660 6.8 -999.0000 2.8 -999.0 -99.0 9.5140 -999.0000 -0.006 12.8230 13.6290 13.1 0.1 12.8500 0.0000 5.0000 6.0000
08/04/2020 11:15:00 2020-08-04 04:15:00 1.8694 82.06 354.40 7.4310 4.0770 6.8 -999.0000 2.8 -999.0 -99.0 9.5240 -999.0000 -0.004 12.8230 13.6320 13.1 0.1 12.8500 0.0000 7.0000 9.0000
08/04/2020 11:00:00 2020-08-04 04:00:00 1.9041 82.06 372.70 7.5550 4.0880 7.0 -999.0000 2.7 -999.0 -99.0 9.5280 -999.0000 -0.003 12.8240 13.6480 13.1 0.1 12.8400 0.0000 4.0000 6.0000
08/04/2020 10:45:00 2020-08-04 03:45:00 2.0081 82.06 359.30 7.6160 4.1010 7.2 -999.0000 2.7 -999.0 -99.0 9.5370 -999.0000 -0.003 12.8260 13.6950 13.1 0.1 12.8500 0.0000 1.0000 11.0000
08/04/2020 10:30:00 2020-08-04 03:30:00 2.0381 82.06 354.50 7.7300 4.1120 7.5 -999.0000 2.7 -999.0 -99.0 9.5460 -999.0000 -0.002 12.8270 13.7090 13.1 0.1 12.8400 0.0000 5.0000 9.0000
08/04/2020 10:15:00 2020-08-04 03:15:00 2.0196 82.06 355.50 7.8410 4.1230 7.5 -999.0000 2.7 -999.0 -99.0 9.5510 -999.0000 0.000 12.8280 13.7020 13.1 0.1 12.8500 0.0000 0.0000 10.0000
08/04/2020 10:00:00 2020-08-04 03:00:00 2.0358 82.06 359.80 7.9550 4.1340 7.7 -999.0000 2.8 -999.0 -99.0 9.5650 -999.0000 0.001 12.8280 13.7090 13.1 0.1 12.8600 0.0000 7.0000 5.0000
08/04/2020 09:45:00 2020-08-04 02:45:00 2.0173 82.06 354.80 8.1370 4.1450 7.9 -999.0000 2.8 -999.0 -99.0 9.5560 -999.0000 0.002 12.8280 13.7010 13.1 0.1 12.8400 0.0000 6.0000 10.0000
08/04/2020 09:30:00 2020-08-04 02:30:00 2.0035 82.06 368.70 8.3260 4.1550 8.0 -999.0000 2.8 -999.0 -99.0 9.5650 -999.0000 0.001 12.8300 13.6970 13.1 0.1 12.8500 0.0000 6.0000 11.0000
08/04/2020 09:15:00 2020-08-04 02:15:00 1.9965 82.06 416.00 8.3930 4.1660 8.2 -999.0000 2.8 -999.0 -99.0 9.5660 -999.0000 -0.002 12.8320 13.6960 13.1 0.1 12.8600 0.0000 3.0000 6.0000
08/04/2020 09:00:00 2020-08-04 02:00:00 2.0104 82.06 471.90 8.5120 4.1760 8.4 -999.0000 2.7 -999.0 -99.0 9.5630 -999.0000 -0.005 12.8330 13.7030 13.1 0.1 12.8600 0.0000 4.0000 10.0000
08/04/2020 08:45:00 2020-08-04 01:45:00 2.0728 82.06 481.10 8.7520 4.1860 8.5 -999.0000 2.7 -999.0 -99.0 9.5660 -999.0000 -0.004 12.8330 13.7300 13.1 0.1 12.8600 0.0000 2.0000 10.0000
08/04/2020 08:30:00 2020-08-04 01:30:00 2.0774 82.06 496.30 8.9370 4.1960 8.9 -999.0000 2.7 -999.0 -99.0 9.5730 -999.0000 0.002 12.8330 13.7320 13.1 0.1 12.8600 0.0000 6.0000 12.0000
08/04/2020 08:15:00 2020-08-04 01:15:00 2.0890 82.06 500.10 9.0930 4.2050 9.1 -999.0000 2.8 -999.0 -99.0 9.5630 -999.0000 0.001 12.8340 13.7380 13.1 0.2 12.8800 0.0000 4.0000 11.0000
08/04/2020 08:00:00 2020-08-04 01:00:00 2.1282 82.06 504.70 9.2630 4.2140 9.4 -999.0000 2.8 -999.0 -99.0 9.5840 -999.0000 0.006 12.8350 13.7560 13.2 0.1 12.8600 0.0000 6.0000 7.0000
08/04/2020 07:45:00 2020-08-04 00:45:00 2.0635 82.06 509.80 9.4860 4.2230 9.8 -999.0000 2.9 -999.0 -99.0 9.5840 -999.0000 0.003 12.8370 13.7300 13.2 0.1 12.8600 0.0000 5.0000 5.0000
08/04/2020 07:30:00 2020-08-04 00:30:00 2.0705 82.06 522.40 9.7120 4.2320 9.9 -999.0000 2.9 -999.0 -99.0 9.5890 -999.0000 0.004 12.8370 13.7330 13.2 0.1 12.8700 0.0000 5.0000 5.0000
08/04/2020 07:15:00 2020-08-04 00:15:00 2.0959 82.06 496.10 9.9140 4.2400 10.3 -999.0000 3 -999.0 -99.0 9.5990 -999.0000 0.006 12.8390 13.7460 13.2 0.1 12.8900 0.0000 5.0000 5.0000
08/04/2020 07:00:00 2020-08-04 00:00:00 2.0959 82.06 486.50 10.0570 4.2480 10.5 -999.0000 3.1 -999.0 -99.0 9.5850 -999.0000 0.010 12.8400 13.7470 13.2 0.1 12.8700 0.0000 7.0000 9.0000
08/04/2020 06:45:00 2020-08-03 23:45:00 2.0589 82.06 467.90 10.3100 4.2570 10.6 -999.0000 3.1 -999.0 -99.0 9.5870 -999.0000 0.006 12.8410 13.7320 13.2 0.1 12.8800 0.0000 0.0000 11.0000
08/04/2020 06:30:00 2020-08-03 23:30:00 2.0427 82.06 408.00 10.5340 4.2660 11.0 -999.0000 3.2 -999.0 -99.0 9.5810 -999.0000 0.004 12.8400 13.7240 13.2 0.1 12.8900 0.0000 7.0000 5.0000
08/04/2020 06:15:00 2020-08-03 23:15:00 2.0220 82.06 385.80 10.7960 4.2740 11.3 -999.0000 3.3 -999.0 -99.0 9.5740 -999.0000 0.006 12.8410 13.7160 13.2 0.1 12.8800 0.0000 6.0000 11.0000
08/04/2020 06:00:00 2020-08-03 23:00:00 2.0127 82.06 392.20 11.1040 4.2850 11.7 -999.0000 3.3 -999.0 -99.0 9.5810 -999.0000 0.008 12.8440 13.7150 13.2 0.1 12.8900 0.0000 3.0000 8.0000
08/04/2020 05:45:00 2020-08-03 22:45:00 2.0173 82.06 417.40 11.4240 4.2950 12.0 -999.0000 3.3 -999.0 -99.0 9.5590 -999.0000 0.007 12.8440 13.7170 13.2 0.1 12.9100 0.0000 4.0000 7.0000
08/04/2020 05:30:00 2020-08-03 22:30:00 1.9919 82.06 448.90 11.7040 4.3040 12.5 -999.0000 3.3 -999.0 -99.0 9.5580 -999.0000 0.007 12.8450 13.7070 13.2 0.1 12.8900 0.0000 6.0000 11.0000
08/04/2020 05:15:00 2020-08-03 22:15:00 2.0173 82.06 522.90 11.9490 4.3140 12.9 -999.0000 3.2 -999.0 -99.0 9.5470 -999.0000 0.007 12.8450 13.7180 13.2 0.1 12.8800 0.0000 3.0000 6.0000
08/04/2020 05:00:00 2020-08-03 22:00:00 2.0358 82.06 609.80 12.3860 4.3230 13.2 -999.0000 3.2 -999.0 -99.0 9.5540 -999.0000 0.002 12.8460 13.7270 13.3 0.1 12.9200 0.0000 7.0000 0.0000
08/04/2020 04:45:00 2020-08-03 21:45:00 2.1444 82.06 638.70 12.7940 4.3330 13.8 -999.0000 3.2 -999.0 -99.0 9.5330 -999.0000 0.004 12.8460 13.7740 13.3 0.1 12.9100 0.0000 7.0000 3.0000
08/04/2020 04:30:00 2020-08-03 21:30:00 2.1953 82.06 619.40 13.1140 4.3410 14.3 -999.0000 3.3 -999.0 -99.0 9.5380 -999.0000 -0.001 12.8450 13.7950 13.3 0.1 12.9300 0.0000 4.0000 7.0000
08/04/2020 04:15:00 2020-08-03 21:15:00 2.1375 82.06 622.90 13.4120 4.3490 14.8 -999.0000 3.3 -999.0 -99.0 9.5310 -999.0000 0.002 12.8450 13.7700 13.3 0.3 12.9300 0.0000 0.0000 7.0000
08/04/2020 04:00:00 2020-08-03 21:00:00 2.1467 82.06 646.60 13.8560 4.3540 15.1 -999.0000 3.4 -999.0 -99.0 9.5480 -999.0000 -0.002 12.8430 13.7720 13.3 3.2 12.9500 0.0000 2.0000 9.0000
08/04/2020 03:45:00 2020-08-03 20:45:00 2.1883 82.06 692.90 14.3000 4.3590 15.8 -999.0000 3.5 -999.0 -99.0 9.5380 -999.0000 -0.001 12.8420 13.7890 13.4 11.1 12.9500 0.2800 4.0000 7.0000
08/04/2020 03:30:00 2020-08-03 20:30:00 2.2022 82.06 794.10 14.8350 4.3610 16.4 -999.0000 3.6 -999.0 -99.0 9.5470 -999.0000 0.001 12.8410 13.7940 13.4 13.3 12.9600 8.5100 8.0000 11.0000
08/04/2020 03:15:00 2020-08-03 20:15:00 2.1375 82.06 840.90 15.3010 4.3630 16.9 -999.0000 3.6 -999.0 -99.0 9.5480 -999.0000 0.003 12.8420 13.7670 13.4 13.4 12.9900 10.6800 3.0000 9.0000
08/04/2020 03:00:00 2020-08-03 20:00:00 2.2161 82.06 840.70 15.6090 4.3620 17.4 -999.0000 3.8 -999.0 -99.0 9.5590 -999.0000 0.008 12.8410 13.8000 13.4 13.4 13.0100 11.8200 5.0000 5.0000
08/04/2020 02:45:00 2020-08-03 19:45:00 2.2230 82.06 946.60 15.9520 4.3590 17.9 -999.0000 3.9 -999.0 -99.0 9.5690 -999.0000 0.005 12.8430 13.8050 13.5 13.5 13.0200 11.9600 7.0000 6.0000
08/04/2020 02:30:00 2020-08-03 19:30:00 2.2253 82.06 1383.90 16.3970 4.3570 18.4 -999.0000 4 -999.0 -99.0 9.5680 -999.0000 0.004 12.8420 13.8050 13.5 13.5 13.1000 12.4600 2.0000 5.0000
08/04/2020 02:15:00 2020-08-03 19:15:00 2.2392 82.06 1182.00 16.7380 4.3530 19.1 -999.0000 4.2 -999.0 -99.0 9.5750 -999.0000 0.003 12.8410 13.8100 13.5 13.5 13.2300 13.2800 9.0000 7.0000
08/04/2020 02:00:00 2020-08-03 19:00:00 2.2369 82.06 872.20 16.9980 4.3510 19.5 -999.0000 4.3 -999.0 -99.0 9.5780 -999.0000 0.004 12.8410 13.8090 13.6 13.6 13.3800 13.4400 7.0000 10.0000
08/04/2020 01:45:00 2020-08-03 18:45:00 2.3108 82.06 818.10 17.3800 4.3510 20.0 -999.0000 4.5 -999.0 -99.0 9.5800 -999.0000 0.011 12.8400 13.8400 13.6 13.6 13.5100 13.6100 6.0000 8.0000
08/04/2020 01:30:00 2020-08-03 18:30:00 2.2854 82.06 784.30 17.5240 4.3510 20.5 -999.0000 4.5 -999.0 -99.0 9.5810 -999.0000 0.005 12.8400 13.8290 13.6 13.6 13.5300 13.6300 7.0000 6.0000
08/04/2020 01:15:00 2020-08-03 18:15:00 2.2923 82.06 738.70 17.8320 4.3530 21.1 -999.0000 4.7 -999.0 -99.0 9.5860 -999.0000 0.006 12.8400 13.8320 13.5 13.6 13.4200 13.5000 8.0000 5.0000
08/04/2020 01:00:00 2020-08-03 18:00:00 2.2068 82.06 648.60 17.8930 4.3550 21.6 -999.0000 4.7 -999.0 -99.0 9.5730 -999.0000 0.021 12.8410 13.7960 13.5 13.6 13.3500 13.4200 9.0000 1.0000
08/04/2020 00:45:00 2020-08-03 17:45:00 2.2600 82.06 612.50 17.9020 4.3570 22.4 -999.0000 4.7 -999.0 -99.0 9.5700 -999.0000 0.014 12.8420 13.8200 13.5 13.5 13.4300 13.4700 5.0000 10.0000
08/04/2020 00:30:00 2020-08-03 17:30:00 2.2207 82.06 614.80 18.2500 4.3560 23.5 -999.0000 4.6 -999.0 -99.0 9.5670 -999.0000 0.030 12.8420 13.8030 13.5 13.5 13.4700 13.5400 8.0000 10.0000
08/04/2020 00:15:00 2020-08-03 17:15:00 2.1953 82.06 697.50 18.4260 4.3520 24.5 -999.0000 4.7 -999.0 -99.0 9.5650 -999.0000 -0.025 12.8460 13.7960 13.4 13.4 13.5100 13.5900 5.0000 10.0000
08/04/2020 00:00:00 2020-08-03 17:00:00 2.2068 82.06 735.00 19.2040 4.3430 25.4 -999.0000 4.7 -999.0 -99.0 9.5620 -999.0000 -0.013 12.8440 13.7990 13.4 19.0 13.7000 13.8900 8.0000 5.0000
08/03/2020 23:45:00 2020-08-03 16:45:00 2.2484 82.06 706.90 19.7150 4.3330 25.9 -999.0000 4.8 -999.0 -99.0 9.5740 -999.0000 -0.001 12.8410 13.8140 13.4 19.8 13.7200 17.1100 7.0000 7.0000
08/03/2020 23:30:00 2020-08-03 16:30:00 2.1976 82.06 586.00 19.4520 4.3240 26.8 -999.0000 4.9 -999.0 -99.0 9.5740 -999.0000 0.025 12.8410 13.7920 13.4 20.1 13.7000 13.9500 6.0000 7.0000
08/03/2020 23:15:00 2020-08-03 16:15:00 2.2253 82.06 559.60 19.9000 4.3120 27.8 -999.0000 5 -999.0 -99.0 9.5730 -999.0000 0.011 12.8420 13.8050 13.5 19.7 13.7100 17.3900 4.0000 10.0000
08/03/2020 23:00:00 2020-08-03 16:00:00 2.1860 82.06 572.40 19.6670 4.2960 29.0 -999.0000 5 -999.0 -99.0 9.5740 -999.0000 0.008 12.8410 13.7870 13.5 20.3 13.7100 17.0400 7.0000 10.0000
08/03/2020 22:45:00 2020-08-03 15:45:00 2.1606 82.06 556.50 19.1400 4.2790 31.1 -999.0000 5 -999.0 -99.0 9.5620 -999.0000 -0.003 12.8430 13.7780 13.8 14.0 13.5800 13.7000 8.0000 11.0000
08/03/2020 22:30:00 2020-08-03 15:30:00 2.1860 82.06 579.80 20.0780 4.2590 33.6 -999.0000 5.1 -999.0 -99.0 9.5620 -999.0000 0.011 12.8420 13.7880 13.5 13.5 13.7200 17.2200 7.0000 10.0000
08/03/2020 22:15:00 2020-08-03 15:15:00 2.1698 82.06 617.00 21.5950 4.2370 34.4 -999.0000 5.3 -999.0 -99.0 9.5590 -999.0000 0.004 12.8400 13.7790 13.3 18.9 13.7000 16.7800 8.0000 8.0000
08/03/2020 22:00:00 2020-08-03 15:00:00 2.1444 82.06 637.20 22.1860 4.2130 33.7 -999.0000 5.6 -999.0 -99.0 9.5600 -999.0000 0.003 12.8390 13.7670 13.3 20.3 13.7100 19.1600 9.0000 6.0000
08/03/2020 21:45:00 2020-08-03 14:45:00 2.1906 82.06 651.10 22.6370 4.1900 32.2 -999.0000 6 -999.0 -99.0 9.5550 -999.0000 -0.006 12.8370 13.7850 13.4 19.8 13.7000 19.8800 9.0000 13.0000
08/03/2020 21:30:00 2020-08-03 14:30:00 2.2022 82.06 605.60 22.2480 4.1660 30.8 -999.0000 6.2 -999.0 -99.0 9.5510 -999.0000 0.021 12.8370 13.7900 13.3 19.8 13.7000 17.0100 11.0000 8.0000
08/03/2020 21:15:00 2020-08-03 14:15:00 2.1675 82.06 549.50 21.7190 4.1430 30.3 -999.0000 5.9 -999.0 -99.0 9.5650 -999.0000 0.014 12.8370 13.7750 13.4 18.7 13.7000 18.4300 10.0000 9.0000
08/03/2020 21:00:00 2020-08-03 14:00:00 2.1583 82.06 503.10 21.2420 4.1210 30.3 -999.0000 6.2 -999.0 -99.0 9.5710 -999.0000 0.005 12.8380 13.7720 13.5 20.3 13.7000 18.5000 8.0000 12.0000
08/03/2020 20:45:00 2020-08-03 13:45:00 2.1398 82.06 495.20 21.3230 4.1010 30.3 -999.0000 6.3 -999.0 -99.0 9.5640 -999.0000 0.019 12.8380 13.7640 13.3 20.6 13.7000 18.1900 4.0000 9.0000
08/03/2020 20:30:00 2020-08-03 13:30:00 2.1051 82.06 485.80 21.8790 4.0810 29.9 -999.0000 6.3 -999.0 -99.0 9.5730 -999.0000 0.020 12.8380 13.7490 13.4 19.6 13.7100 18.9600 4.0000 3.0000
08/03/2020 20:15:00 2020-08-03 13:15:00 2.1144 82.06 493.50 21.9400 4.0630 29.7 -999.0000 6.2 -999.0 -99.0 9.5660 -999.0000 0.022 12.8380 13.7530 13.4 19.5 13.7100 18.9900 10.0000 5.0000
08/03/2020 20:00:00 2020-08-03 13:00:00 2.0843 82.06 504.00 21.2280 4.0460 29.6 -999.0000 6 -999.0 -99.0 9.5710 -999.0000 0.024 12.8390 13.7410 13.6 14.4 13.7200 16.2000 8.0000 4.0000
08/03/2020 19:45:00 2020-08-03 12:45:00 2.0843 82.06 523.10 20.4110 4.0300 29.9 -999.0000 5.8 -999.0 -99.0 9.5660 -999.0000 0.016 12.8420 13.7440 13.4 18.3 13.7200 19.0100 10.0000 2.0000
08/03/2020 19:30:00 2020-08-03 12:30:00 2.1190 82.06 487.90 21.0810 4.0140 29.7 -999.0000 5.7 -999.0 -99.0 9.5670 -999.0000 -0.010 12.8390 13.7560 13.5 19.4 13.7500 18.9400 2.0000 4.0000
08/03/2020 19:15:00 2020-08-03 12:15:00 2.0890 82.06 469.40 20.7160 4.0000 29.0 -999.0000 5.7 -999.0 -99.0 9.5680 -999.0000 0.010 12.8400 13.7440 13.4 19.7 13.7500 19.0500 3.0000 7.0000
08/03/2020 19:00:00 2020-08-03 12:00:00 2.0659 82.06 417.80 20.0200 3.9860 28.2 -999.0000 5.5 -999.0 -99.0 9.5590 -999.0000 -0.002 12.8410 13.7350 13.5 19.9 13.7500 19.3800 6.0000 12.0000
08/03/2020 18:45:00 2020-08-03 11:45:00 2.0612 82.06 393.10 19.3870 3.9730 27.1 -999.0000 5.2 -999.0 -99.0 9.5650 -999.0000 0.007 12.8420 13.7340 13.7 14.5 13.7700 20.2900 6.0000 11.0000
08/03/2020 18:30:00 2020-08-03 11:30:00 2.0127 82.06 350.20 17.9600 3.9610 26.4 -999.0000 5.1 -999.0 -99.0 9.5600 -999.0000 0.012 12.8440 13.7150 13.5 20.7 13.7700 18.6900 6.0000 8.0000
08/03/2020 18:15:00 2020-08-03 11:15:00 2.0104 82.06 335.20 18.0250 3.9500 25.4 -999.0000 5.1 -999.0 -99.0 9.5630 -999.0000 0.006 12.8430 13.7130 13.5 19.6 13.7600 18.7200 5.0000 4.0000
08/03/2020 18:00:00 2020-08-03 11:00:00 1.9873 82.06 308.20 18.0390 3.9420 22.8 -999.0000 5.1 -999.0 -99.0 9.5640 -999.0000 0.013 12.8440 13.7040 13.6 20.5 13.7700 18.5200 5.0000 6.0000
08/03/2020 17:45:00 2020-08-03 10:45:00 1.9873 82.06 305.50 17.1360 3.9360 20.4 -999.0000 5 -999.0 -99.0 9.5590 -999.0000 0.029 12.8440 13.7040 13.5 20.7 13.7700 17.2900 4.0000 6.0000
08/03/2020 17:30:00 2020-08-03 10:30:00 1.9757 82.06 315.40 16.8270 3.9310 17.1 -999.0000 4.8 -999.0 -99.0 9.5510 -999.0000 0.025 12.8440 13.6990 13.6 14.0 13.3500 13.4700 2.0000 5.0000
08/03/2020 17:15:00 2020-08-03 10:15:00 1.9572 82.06 331.10 15.7320 3.9290 15.1 -999.0000 4.6 -999.0 -99.0 9.5620 -999.0000 0.022 12.8460 13.6930 13.7 20.1 13.1800 13.2900 6.0000 10.0000
08/03/2020 17:00:00 2020-08-03 10:00:00 1.9711 82.06 340.30 14.5930 3.9290 13.6 -999.0000 4.5 -999.0 -99.0 9.5620 -999.0000 0.003 12.8470 13.7000 13.6 20.4 13.1000 13.2400 5.0000 12.0000
08/03/2020 16:45:00 2020-08-03 09:45:00 1.9965 82.06 356.10 13.6350 3.9300 12.5 -999.0000 4.3 -999.0 -99.0 9.5660 -999.0000 0.026 12.8470 13.7110 13.8 14.0 13.0300 13.1600 6.0000 5.0000
08/03/2020 16:30:00 2020-08-03 09:30:00 1.9988 82.06 336.90 12.9410 3.9320 11.5 -999.0000 4.1 -999.0 -99.0 9.5620 -999.0000 0.022 12.8470 13.7120 13.4 13.5 12.9800 13.0900 6.0000 11.0000
08/03/2020 16:15:00 2020-08-03 09:15:00 1.9688 82.06 334.50 12.2000 3.9350 10.8 -999.0000 3.8 -999.0 -99.0 9.5680 -999.0000 -0.005 12.8480 13.7000 13.3 13.3 12.9800 13.0700 7.0000 10.0000
08/03/2020 16:00:00 2020-08-03 09:00:00 1.9619 82.06 321.30 11.6730 3.9400 10.1 -999.0000 3.5 -999.0 -99.0 9.5760 -999.0000 -0.001 12.8470 13.6960 13.3 13.3 12.9600 13.0500 0.0000 7.0000
08/03/2020 15:45:00 2020-08-03 08:45:00 1.9411 82.06 337.30 10.8430 3.9460 9.8 -999.0000 3.2 -999.0 -99.0 9.5820 -999.0000 -0.007 12.8460 13.6860 13.2 13.3 12.9100 13.0000 8.0000 11.0000
08/03/2020 15:30:00 2020-08-03 08:30:00 1.9457 82.06 352.50 10.4200 3.9510 9.4 -999.0000 3.1 -999.0 -99.0 9.5790 -999.0000 -0.010 12.8440 13.6860 13.3 13.3 12.9000 12.9600 8.0000 9.0000
08/03/2020 15:15:00 2020-08-03 08:15:00 1.9388 82.06 338.70 9.9800 3.9560 8.9 -999.0000 3.1 -999.0 -99.0 9.5840 -999.0000 -0.005 12.8450 13.6840 13.3 13.3 12.8800 12.9600 4.0000 2.0000
08/03/2020 15:00:00 2020-08-03 08:00:00 1.9365 82.06 352.00 9.4770 3.9620 8.2 -999.0000 3 -999.0 -99.0 9.5710 -999.0000 -0.006 12.8440 13.6820 13.3 13.4 12.8600 12.9400 4.0000 2.0000
08/03/2020 14:45:00 2020-08-03 07:45:00 1.9850 82.06 368.00 9.0950 3.9680 8.0 -999.0000 2.9 -999.0 -99.0 9.5760 -999.0000 -0.011 12.8400 13.6990 13.3 13.4 12.8500 12.9000 8.0000 13.0000
08/03/2020 14:30:00 2020-08-03 07:30:00 1.9711 82.06 363.10 8.8830 3.9730 8.0 -999.0000 2.9 -999.0 -99.0 9.5840 -999.0000 -0.015 12.8400 13.6930 13.2 13.2 12.8500 12.4600 7.0000 7.0000
08/03/2020 14:15:00 2020-08-03 07:15:00 1.9642 82.06 344.60 8.8300 3.9770 8.0 -999.0000 2.9 -999.0 -99.0 9.5750 -999.0000 -0.013 12.8390 13.6890 13.1 13.2 12.8400 11.9600 7.0000 3.0000
08/03/2020 14:00:00 2020-08-03 07:00:00 1.9457 82.06 352.90 8.8600 3.9810 8.0 -999.0000 2.9 -999.0 -99.0 9.5790 -999.0000 -0.016 12.8370 13.6790 13.2 13.2 12.8300 11.7500 7.0000 13.0000
08/03/2020 13:45:00 2020-08-03 06:45:00 1.9503 82.06 344.60 8.9600 3.9870 8.2 -999.0000 2.9 -999.0 -99.0 9.5690 -999.0000 -0.014 12.8360 13.6800 13.1 13.2 12.8400 11.7200 6.0000 12.0000
08/03/2020 13:30:00 2020-08-03 06:30:00 1.9619 82.06 312.90 8.9970 3.9920 8.4 -999.0000 3 -999.0 -99.0 9.5640 -999.0000 -0.014 12.8350 13.6840 13.1 13.2 12.8300 11.3800 8.0000 7.0000
08/03/2020 13:15:00 2020-08-03 06:15:00 1.9480 82.06 326.00 8.9890 3.9980 8.4 -999.0000 3 -999.0 -99.0 9.5680 -999.0000 0.002 12.8350 13.6780 13.1 13.1 12.8400 7.6200 6.0000 10.0000
08/03/2020 13:00:00 2020-08-03 06:00:00 1.9249 82.06 334.70 9.0690 4.0030 8.4 -999.0000 3 -999.0 -99.0 9.5590 -999.0000 -0.013 12.8350 13.6680 13.1 13.1 12.8300 0.0000 6.0000 3.0000
08/03/2020 12:45:00 2020-08-03 05:45:00 1.9295 82.06 341.40 9.2150 4.0080 8.5 -999.0000 3 -999.0 -99.0 9.5600 -999.0000 -0.014 12.8330 13.6680 13.1 12.3 12.8400 0.0000 7.0000 12.0000
08/03/2020 12:30:00 2020-08-03 05:30:00 1.9318 82.06 350.70 9.2920 4.0140 8.7 -999.0000 2.9 -999.0 -99.0 9.5640 -999.0000 -0.017 12.8320 13.6680 13.1 5.3 12.8500 0.0000 7.0000 10.0000
08/03/2020 12:15:00 2020-08-03 05:15:00 1.9503 82.06 378.00 9.5290 4.0190 8.7 -999.0000 2.9 -999.0 -99.0 9.5600 -999.0000 -0.017 12.8320 13.6760 13.1 0.5 12.8400 0.0000 7.0000 12.0000
08/03/2020 12:00:00 2020-08-03 05:00:00 1.9642 82.06 392.50 9.7060 4.0250 8.7 -999.0000 3 -999.0 -99.0 9.5490 -999.0000 -0.015 12.8300 13.6800 13.1 0.1 12.8500 0.0000 2.0000 10.0000
08/03/2020 11:45:00 2020-08-03 04:45:00 2.0035 82.06 382.40 9.8170 4.0290 8.7 -999.0000 3 -999.0 -99.0 9.5570 -999.0000 -0.014 12.8280 13.6950 13.1 0.1 12.8600 0.0000 6.0000 -1.0000
08/03/2020 11:30:00 2020-08-03 04:30:00 2.0243 82.06 376.80 9.8250 4.0350 8.9 -999.0000 3 -999.0 -99.0 9.5380 -999.0000 -0.014 12.8290 13.7050 13.1 0.1 12.8400 0.0000 7.0000 11.0000
08/03/2020 11:15:00 2020-08-03 04:15:00 1.9757 82.06 394.00 9.7860 4.0390 8.7 -999.0000 3 -999.0 -99.0 9.5400 -999.0000 -0.010 12.8270 13.6820 13.1 0.1 12.8500 0.0000 7.0000 13.0000
08/03/2020 11:00:00 2020-08-03 04:00:00 1.9827 82.06 417.90 9.7170 4.0460 8.5 -999.0000 3 -999.0 -99.0 9.5430 -999.0000 -0.013 12.8280 13.6860 13.2 0.1 12.8400 0.0000 6.0000 10.0000
08/03/2020 10:45:00 2020-08-03 03:45:00 1.9596 82.06 490.40 9.5320 4.0520 8.5 -999.0000 2.9 -999.0 -99.0 9.5320 -999.0000 -0.009 12.8280 13.6760 13.2 0.1 12.8600 0.0000 4.0000 8.0000
08/03/2020 10:30:00 2020-08-03 03:30:00 1.9365 82.06 505.00 9.4280 4.0570 8.5 -999.0000 2.9 -999.0 -99.0 9.5270 -999.0000 -0.010 12.8280 13.6660 13.2 0.1 12.8600 0.0000 5.0000 5.0000
08/03/2020 10:15:00 2020-08-03 03:15:00 2.0404 82.06 478.80 9.3610 4.0630 8.5 -999.0000 2.9 -999.0 -99.0 9.5160 -999.0000 -0.013 12.8260 13.7090 13.1 0.1 12.8600 0.0000 5.0000 8.0000
08/03/2020 10:00:00 2020-08-03 03:00:00 2.0451 82.06 448.40 9.2830 4.0680 8.7 -999.0000 2.9 -999.0 -99.0 9.5030 -999.0000 -0.014 12.8250 13.7100 13.2 0.1 12.8500 0.0000 6.0000 10.0000
08/03/2020 09:45:00 2020-08-03 02:45:00 2.0404 82.06 438.00 9.2670 4.0740 8.9 -999.0000 2.9 -999.0 -99.0 9.5050 -999.0000 -0.012 12.8240 13.7070 13.2 0.1 12.8600 0.0000 5.0000 3.0000
08/03/2020 09:30:00 2020-08-03 02:30:00 2.0173 82.06 403.60 9.3870 4.0810 9.1 -999.0000 3 -999.0 -99.0 9.4960 -999.0000 -0.014 12.8230 13.6960 13.2 0.1 12.8600 0.0000 4.0000 10.0000
08/03/2020 09:15:00 2020-08-03 02:15:00 2.0035 82.06 397.70 9.4650 4.0880 9.1 -999.0000 3 -999.0 -99.0 9.4870 -999.0000 -0.013 12.8220 13.6890 13.2 0.1 12.8800 0.0000 8.0000 7.0000
08/03/2020 09:00:00 2020-08-03 02:00:00 1.9919 82.06 416.80 9.6460 4.0960 9.2 -999.0000 3 -999.0 -99.0 9.4790 -999.0000 -0.011 12.8210 13.6830 13.2 0.1 12.8700 0.0000 7.0000 2.0000
08/03/2020 08:45:00 2020-08-03 01:45:00 2.0104 82.06 461.30 9.8330 4.1040 9.6 -999.0000 3 -999.0 -99.0 9.4630 -999.0000 -0.013 12.8200 13.6900 13.2 0.1 12.8600 0.0000 6.0000 13.0000
08/03/2020 08:30:00 2020-08-03 01:30:00 1.9873 82.06 490.00 9.9900 4.1130 9.8 -999.0000 2.9 -999.0 -99.0 9.4540 -999.0000 -0.012 12.8200 13.6800 13.2 0.1 12.8600 0.0000 5.0000 12.0000
08/03/2020 08:15:00 2020-08-03 01:15:00 2.0289 82.06 495.00 10.1050 4.1200 10.1 -999.0000 2.9 -999.0 -99.0 9.4510 -999.0000 -0.014 12.8190 13.6970 13.2 0.0 12.8700 0.0000 7.0000 10.0000
08/03/2020 08:00:00 2020-08-03 01:00:00 2.1121 82.06 491.50 10.3310 4.1270 10.1 -999.0000 2.9 -999.0 -99.0 9.4300 -999.0000 -0.005 12.8200 13.7340 13.2 0.1 12.8600 0.0000 6.0000 6.0000
08/03/2020 07:45:00 2020-08-03 00:45:00 2.0890 82.06 508.10 10.5680 4.1350 10.5 -999.0000 2.9 -999.0 -99.0 9.4360 -999.0000 0.001 12.8210 13.7250 13.2 0.1 12.8500 0.0000 8.0000 10.0000
08/03/2020 07:30:00 2020-08-03 00:30:00 2.0982 82.06 522.00 10.7080 4.1440 10.6 -999.0000 3 -999.0 -99.0 9.4280 -999.0000 -0.003 12.8210 13.7290 13.2 0.1 12.8600 0.0000 5.0000 13.0000
08/03/2020 07:15:00 2020-08-03 00:15:00 2.0982 82.06 513.90 10.9630 4.1510 10.8 -999.0000 3 -999.0 -99.0 9.4200 -999.0000 -0.005 12.8220 13.7300 13.2 0.1 12.8800 0.0000 5.0000 13.0000
08/03/2020 07:00:00 2020-08-03 00:00:00 2.0589 82.06 518.70 11.1550 4.1600 11.0 -999.0000 3.1 -999.0 -99.0 9.4050 -999.0000 0.011 12.8220 13.7130 13.2 0.1 12.8800 0.0000 1.0000 13.0000